| time (UTC) | temp C | wind direction | speed KPH | gust KPH | rain 1hr cm | rain 24hr cm | rain mn cm | humidity % | barometer mb |
| 20260906221320 | 26 | 55 | 1.6 | 3.2 | 0.00 | 0.00 | 0.00 | 59 | 1021.6 |
| 20260906221316 | 20 | 279 | 1.6 | 4.8 | 0.00 | 0.00 | 0.00 | 71 | 1021.8 |
| 20260906221313 | 20 | 9 | 14.5 | 30.6 | 0.28 | 6.99 | 0.00 | 71 | 1015.6 |
| 20260906220907 | 25 | 109 | 1.6 | 3.2 | 0.00 | 0.00 | 0.00 | 73 | 1022.3 |
| 20260906220853 | 25 | 88 | 0.0 | 9.7 | 0.00 | 0.00 | 0.00 | 57 | 1023.6 |
| 20260906220832 | 22 | 209 | 0.0 | 0.0 | 0.00 | 0.00 | 0.00 | 72 | 1022.6 |
| 20260906220822 | 20 | 279 | 4.8 | 4.8 | 0.00 | 0.00 | 0.00 | 72 | 1021.8 |
| 20260906220817 | 25 | 55 | 1.6 | 4.8 | 0.00 | 0.00 | 0.00 | 62 | 1021.6 |
| 20260906220815 | 20 | 314 | 0.0 | 0.0 | 0.00 | 0.00 | 0.00 | 77 | 1023.4 |
| 20260906220813 | 17 | 61 | 9.7 | 25.7 | 0.30 | 6.99 | 0.00 | 76 | 1010.2 |
| 20260906220406 | 24 | 99 | 0.0 | 0.0 | 0.00 | 0.00 | 0.00 | 85 | 1019.3 |
| 20260906220404 | 25 | 109 | 1.6 | 3.2 | 0.00 | 0.00 | 0.00 | 73 | 1022.3 |
| 20260906220359 | 25 | 116 | 0.0 | 12.9 | 0.00 | 0.00 | 0.00 | 57 | 1023.6 |
| 20260906220329 | 22 | 209 | 0.0 | 0.0 | 0.00 | 0.00 | 0.00 | 72 | 1022.4 |
| 20260906220322 | 20 | 279 | 3.2 | 4.8 | 0.00 | 0.00 | 0.00 | 71 | 1021.8 |
| 20260906220317 | 25 | 56 | 3.2 | 4.8 | 0.00 | 0.00 | 0.00 | 63 | 1021.6 |
| 20260906220315 | 20 | 314 | 0.0 | 0.0 | 0.00 | 0.00 | 0.00 | 77 | 1023.3 |
| 20260906215904 | 25 | 109 | 1.6 | 3.2 | 0.00 | 0.00 | 0.00 | 73 | 1022.3 |
| 20260906215850 | 25 | 51 | 4.8 | 4.8 | 0.00 | 0.00 | 0.00 | 57 | 1023.6 |
| 20260906215832 | 22 | 209 | 0.0 | 0.0 | 0.00 | 0.00 | 0.00 | 71 | 1022.4 |
| 20260906215817 | 25 | 55 | 3.2 | 4.8 | 0.00 | 0.00 | 0.00 | 63 | 1021.6 |
| 20260906215815 | 20 | 314 | 0.0 | 0.0 | 0.00 | 0.00 | 0.00 | 77 | 1023.3 |
| 20260906215404 | 25 | 109 | 1.6 | 4.8 | 0.00 | 0.00 | 0.00 | 72 | 1022.3 |
| 20260906215350 | 25 | 90 | 0.0 | 3.2 | 0.00 | 0.00 | 0.00 | 57 | 1023.5 |
| 20260906215329 | 22 | 209 | 0.0 | 0.0 | 0.00 | 0.00 | 0.00 | 71 | 1022.3 |
| 20260906215320 | 20 | 279 | 3.2 | 6.4 | 0.00 | 0.00 | 0.00 | 71 | 1021.9 |
| 20260906215318 | 25 | 55 | 3.2 | 4.8 | 0.00 | 0.00 | 0.00 | 63 | 1021.6 |
| 20260906215315 | 20 | 314 | 0.0 | 0.0 | 0.00 | 0.00 | 0.00 | 76 | 1023.2 |
| 20260906215313 | 18 | 36 | 11.3 | 33.8 | 0.25 | 6.99 | 0.00 | 74 | 1012.8 |
| 20260906214903 | 25 | 99 | 0.0 | 0.0 | 0.00 | 0.00 | 0.00 | 87 | 1019.1 |
| 20260906214901 | 25 | 109 | 4.8 | 4.8 | 0.00 | 0.00 | 0.00 | 72 | 1022.4 |
| 20260906214856 | 25 | 84 | 0.0 | 4.8 | 0.00 | 0.00 | 0.00 | 56 | 1023.4 |
| 20260906214835 | 22 | 209 | 0.0 | 0.0 | 0.00 | 0.00 | 0.00 | 72 | 1022.3 |
| 20260906214820 | 25 | 55 | 3.2 | 4.8 | 0.00 | 0.00 | 0.00 | 64 | 1021.6 |
| 20260906214815 | 20 | 314 | 0.0 | 0.0 | 0.00 | 0.00 | 0.00 | 75 | 1023.2 |
| 20260906214813 | 22 | 21 | 17.7 | 38.6 | 0.28 | 6.99 | 0.00 | 67 | 1018.6 |
| 20260906214404 | 26 | 109 | 1.6 | 4.8 | 0.00 | 0.00 | 0.00 | 72 | 1022.3 |
| 20260906214359 | 25 | 121 | 0.0 | 0.0 | 0.00 | 0.00 | 0.00 | 56 | 1023.4 |
| 20260906214329 | 22 | 209 | 0.0 | 0.0 | 0.00 | 0.00 | 0.00 | 72 | 1022.3 |
| 20260906214320 | 25 | 69 | 22.5 | 40.2 | 0.30 | 6.99 | 0.00 | 62 | 1023.6 |
| 20260906214315 | 20 | 314 | 0.0 | 0.0 | 0.00 | 0.00 | 0.00 | 75 | 1023.2 |
| 20260906213904 | 26 | 111 | 1.6 | 6.4 | 0.00 | 0.00 | 0.00 | 72 | 1022.3 |
| 20260906213850 | 25 | 143 | 0.0 | 11.3 | 0.00 | 0.00 | 0.00 | 56 | 1023.5 |
| 20260906213829 | 22 | 209 | 0.0 | 1.6 | 0.00 | 0.00 | 0.00 | 72 | 1022.3 |
| 20260906213817 | 25 | 55 | 4.8 | 6.4 | 0.00 | 0.00 | 0.00 | 65 | 1021.6 |
| 20260906213815 | 20 | 314 | 0.0 | 0.0 | 0.00 | 0.00 | 0.00 | 75 | 1023.2 |
| 20260906213405 | 25 | 99 | 0.0 | 0.0 | 0.00 | 0.00 | 0.00 | 88 | 1019.0 |
| 20260906213350 | 25 | 88 | 0.0 | 1.6 | 0.00 | 0.00 | 0.00 | 56 | 1023.4 |
| 20260906213338 | 22 | 208 | 0.0 | 1.6 | 0.00 | 0.00 | 0.00 | 72 | 1022.3 |
| 20260906213323 | 21 | 284 | 3.2 | 4.8 | 0.00 | 0.00 | 0.00 | 70 | 1021.9 |
| 20260906213317 | 25 | 55 | 6.4 | 8.0 | 0.00 | 0.00 | 0.00 | 66 | 1021.5 |
| 20260906213315 | 20 | 314 | 0.0 | 0.0 | 0.00 | 0.00 | 0.00 | 75 | 1023.0 |
| 20260906212901 | 26 | 113 | 3.2 | 4.8 | 0.00 | 0.00 | 0.00 | 71 | 1022.4 |
| 20260906212853 | 25 | 94 | 0.0 | 8.0 | 0.00 | 0.00 | 0.00 | 56 | 1023.4 |
| 20260906212830 | 22 | 209 | 0.0 | 0.0 | 0.00 | 0.00 | 0.00 | 71 | 1022.3 |
| 20260906212824 | 25 | 55 | 4.8 | 8.0 | 0.00 | 0.00 | 0.00 | 66 | 1021.6 |
| 20260906212822 | 22 | 25 | 17.7 | 33.8 | 0.25 | 6.99 | 0.00 | 67 | 1019.1 |
| 20260906212816 | 21 | 284 | 4.8 | 4.8 | 0.00 | 0.00 | 0.00 | 70 | 1021.9 |
| 20260906212407 | 26 | 118 | 1.6 | 6.4 | 0.00 | 0.00 | 0.00 | 70 | 1022.4 |
| 20260906212350 | 26 | 80 | 0.0 | 6.4 | 0.00 | 0.00 | 0.00 | 55 | 1023.4 |
| 20260906212329 | 22 | 208 | 0.0 | 0.0 | 0.00 | 0.00 | 0.00 | 71 | 1022.3 |
| 20260906212325 | 21 | 284 | 4.8 | 4.8 | 0.00 | 0.00 | 0.00 | 70 | 1021.8 |
| 20260906212318 | 20 | 314 | 0.0 | 0.0 | 0.00 | 0.00 | 0.00 | 73 | 1023.0 |
| 20260906212316 | 18 | 31 | 12.9 | 29.0 | 0.30 | 6.99 | 0.00 | 73 | 1013.2 |
| 20260906211903 | 25 | 99 | 0.0 | 0.0 | 0.00 | 0.00 | 0.00 | 88 | 1018.9 |
| 20260906211901 | 26 | 115 | 1.6 | 4.8 | 0.00 | 0.00 | 0.00 | 70 | 1022.4 |
| 20260906211850 | 26 | 57 | 3.2 | 4.8 | 0.00 | 0.00 | 0.00 | 55 | 1023.3 |
| 20260906211829 | 22 | 209 | 0.0 | 0.0 | 0.00 | 0.00 | 0.00 | 71 | 1022.3 |
| 20260906211824 | 21 | 314 | 0.0 | 0.0 | 0.00 | 0.00 | 0.00 | 73 | 1022.9 |
| 20260906211818 | 25 | 55 | 6.4 | 6.4 | 0.00 | 0.00 | 0.00 | 67 | 1021.5 |
| 20260906211816 | 20 | 285 | 3.2 | 4.8 | 0.00 | 0.00 | 0.00 | 71 | 1021.8 |
| 20260906211813 | 16 | 76 | 8.0 | 24.1 | 0.30 | 6.99 | 0.00 | 78 | 1008.7 |
| 20260906211404 | 26 | 114 | 1.6 | 4.8 | 0.00 | 0.00 | 0.00 | 70 | 1022.3 |
| 20260906211350 | 26 | 86 | 0.0 | 0.0 | 0.00 | 0.00 | 0.00 | 55 | 1023.3 |
| 20260906211329 | 22 | 209 | 0.0 | 0.0 | 0.00 | 0.00 | 0.00 | 70 | 1022.2 |
| 20260906211318 | 25 | 55 | 4.8 | 4.8 | 0.00 | 0.00 | 0.00 | 69 | 1021.5 |
| 20260906211316 | 21 | 279 | 3.2 | 6.4 | 0.00 | 0.00 | 0.00 | 70 | 1021.8 |
| 20260906211313 | 15 | 89 | 6.4 | 25.7 | 0.28 | 6.99 | 0.00 | 79 | 1007.4 |
| 20260906210901 | 26 | 114 | 1.6 | 6.4 | 0.00 | 0.00 | 0.00 | 69 | 1022.3 |
| 20260906210856 | 26 | 44 | 0.0 | 0.0 | 0.00 | 0.00 | 0.00 | 55 | 1023.2 |
| 20260906210832 | 22 | 209 | 0.0 | 0.0 | 0.00 | 0.00 | 0.00 | 70 | 1022.1 |
| 20260906210819 | 21 | 279 | 4.8 | 6.4 | 0.00 | 0.00 | 0.00 | 70 | 1021.8 |
| 20260906210816 | 17 | 65 | 9.7 | 30.6 | 0.25 | 6.99 | 0.00 | 77 | 1009.8 |
| 20260906210408 | 25 | 99 | 0.0 | 0.0 | 0.00 | 0.00 | 0.00 | 88 | 1019.0 |
| 20260906210401 | 26 | 117 | 3.2 | 6.4 | 0.00 | 0.00 | 0.00 | 69 | 1022.3 |
| 20260906210350 | 26 | 99 | 0.0 | 0.0 | 0.00 | 0.00 | 0.00 | 55 | 1023.2 |
| 20260906210336 | 22 | 209 | 0.0 | 0.0 | 0.00 | 0.00 | 0.00 | 71 | 1022.1 |
| 20260906210320 | 25 | 55 | 3.2 | 6.4 | 0.00 | 0.00 | 0.00 | 71 | 1021.5 |
| 20260906210318 | 21 | 314 | 0.0 | 0.0 | 0.00 | 0.00 | 0.00 | 72 | 1022.7 |
| 20260906210316 | 20 | 278 | 3.2 | 6.4 | 0.00 | 0.00 | 0.00 | 70 | 1021.8 |
| 20260906205902 | 26 | 111 | 1.6 | 4.8 | 0.00 | 0.00 | 0.00 | 69 | 1022.3 |
| 20260906205850 | 26 | 93 | 0.0 | 0.0 | 0.00 | 0.00 | 0.00 | 54 | 1023.3 |
| 20260906205829 | 22 | 209 | 0.0 | 0.0 | 0.00 | 0.00 | 0.00 | 71 | 1022.1 |
| 20260906205821 | 25 | 55 | 4.8 | 6.4 | 0.00 | 0.00 | 0.00 | 72 | 1021.5 |
| 20260906205816 | 20 | 277 | 4.8 | 6.4 | 0.00 | 0.00 | 0.00 | 70 | 1021.9 |
| 20260906205813 | 23 | 42 | 19.3 | 38.6 | 0.30 | 6.99 | 0.00 | 65 | 1020.8 |
| 20260906205401 | 26 | 115 | 4.8 | 4.8 | 0.00 | 0.00 | 0.00 | 68 | 1022.3 |
| 20260906205356 | 26 | 126 | 0.0 | 0.0 | 0.00 | 0.00 | 0.00 | 54 | 1023.2 |
| 20260906205330 | 22 | 209 | 0.0 | 0.0 | 0.00 | 0.00 | 0.00 | 71 | 1022.1 |
| 20260906205322 | 26 | 82 | 22.5 | 40.2 | 0.30 | 6.99 | 0.00 | 60 | 1024.8 |
| 20260906205320 | 25 | 55 | 4.8 | 6.4 | 0.00 | 0.00 | 0.00 | 72 | 1021.5 |
| 20260906205317 | 20 | 277 | 4.8 | 6.4 | 0.00 | 0.00 | 0.00 | 70 | 1021.9 |
| 20260906205315 | 21 | 314 | 0.0 | 0.0 | 0.00 | 0.00 | 0.00 | 72 | 1022.7 |
| 20260906204908 | 25 | 99 | 0.0 | 0.0 | 0.00 | 0.00 | 0.00 | 87 | 1018.9 |
| 20260906204901 | 27 | 118 | 4.8 | 6.4 | 0.00 | 0.00 | 0.00 | 68 | 1022.3 |
| 20260906204850 | 26 | 113 | 0.0 | 0.0 | 0.00 | 0.00 | 0.00 | 54 | 1023.2 |
| 20260906204832 | 22 | 209 | 0.0 | 0.0 | 0.00 | 0.00 | 0.00 | 70 | 1022.0 |
| 20260906204819 | 20 | 277 | 3.2 | 6.4 | 0.00 | 0.00 | 0.00 | 70 | 1021.9 |
| 20260906204817 | 25 | 55 | 1.6 | 4.8 | 0.00 | 0.00 | 0.00 | 72 | 1021.5 |
| 20260906204813 | 26 | 87 | 24.1 | 40.2 | 0.25 | 6.99 | 0.00 | 60 | 1025.4 |
| 20260906204407 | 27 | 127 | 3.2 | 6.4 | 0.00 | 0.00 | 0.00 | 68 | 1022.2 |
| 20260906204350 | 26 | 113 | 0.0 | 0.0 | 0.00 | 0.00 | 0.00 | 53 | 1023.0 |
| 20260906204329 | 23 | 209 | 0.0 | 1.6 | 0.00 | 0.00 | 0.00 | 70 | 1022.0 |
| 20260906204317 | 21 | 277 | 3.2 | 4.8 | 0.00 | 0.00 | 0.00 | 69 | 1021.9 |
| 20260906204315 | 21 | 313 | 0.0 | 0.0 | 0.00 | 0.00 | 0.00 | 72 | 1022.6 |
| 20260906204313 | 24 | 56 | 20.9 | 37.0 | 0.25 | 6.99 | 0.00 | 63 | 1022.2 |
| 20260906203907 | 27 | 116 | 3.2 | 6.4 | 0.00 | 0.00 | 0.00 | 68 | 1022.2 |
| 20260906203850 | 26 | 110 | 0.0 | 0.0 | 0.00 | 0.00 | 0.00 | 53 | 1023.0 |
| 20260906203829 | 23 | 209 | 0.0 | 0.0 | 0.00 | 0.00 | 0.00 | 69 | 1022.0 |
| 20260906203821 | 21 | 313 | 0.0 | 0.0 | 0.00 | 0.00 | 0.00 | 71 | 1022.6 |
| 20260906203818 | 25 | 55 | 4.8 | 4.8 | 0.00 | 0.00 | 0.00 | 69 | 1021.6 |
| 20260906203816 | 21 | 277 | 3.2 | 4.8 | 0.00 | 0.00 | 0.00 | 69 | 1021.9 |
| 20260906203813 | 21 | 2 | 16.1 | 32.2 | 0.28 | 6.99 | 0.00 | 69 | 1016.7 |
| 20260906203406 | 25 | 99 | 0.0 | 0.0 | 0.00 | 0.00 | 0.00 | 87 | 1018.9 |
| 20260906203401 | 27 | 105 | 3.2 | 6.4 | 0.00 | 0.00 | 0.00 | 68 | 1022.2 |
| 20260906203350 | 26 | 123 | 0.0 | 0.0 | 0.00 | 0.00 | 0.00 | 53 | 1023.0 |
| 20260906203329 | 23 | 209 | 0.0 | 1.6 | 0.00 | 0.00 | 0.00 | 69 | 1022.0 |
| 20260906203321 | 21 | 313 | 0.0 | 0.0 | 0.00 | 0.00 | 0.00 | 71 | 1022.6 |
| 20260906203319 | 17 | 52 | 9.7 | 25.7 | 0.30 | 6.99 | 0.00 | 75 | 1011.1 |
| 20260906203317 | 21 | 277 | 3.2 | 4.8 | 0.00 | 0.00 | 0.00 | 69 | 1021.9 |
| 20260906202901 | 27 | 102 | 3.2 | 6.4 | 0.00 | 0.00 | 0.00 | 68 | 1022.1 |
| 20260906202850 | 26 | 71 | 0.0 | 0.0 | 0.00 | 0.00 | 0.00 | 52 | 1023.0 |
| 20260906202838 | 23 | 209 | 0.0 | 0.0 | 0.00 | 0.00 | 0.00 | 68 | 1021.9 |
| 20260906202821 | 26 | 55 | 3.2 | 3.2 | 0.00 | 0.00 | 0.00 | 66 | 1021.6 |
| 20260906202819 | 21 | 279 | 4.8 | 6.4 | 0.00 | 0.00 | 0.00 | 69 | 1021.9 |
| 20260906202813 | 15 | 86 | 6.4 | 22.5 | 0.30 | 6.99 | 0.00 | 79 | 1007.7 |
| 20260906202401 | 27 | 117 | 4.8 | 9.7 | 0.00 | 0.00 | 0.00 | 68 | 1022.0 |
| 20260906202350 | 27 | 71 | 0.0 | 0.0 | 0.00 | 0.00 | 0.00 | 52 | 1022.9 |
| 20260906202335 | 23 | 209 | 0.0 | 1.6 | 0.00 | 0.00 | 0.00 | 68 | 1021.9 |
| 20260906202321 | 26 | 55 | 1.6 | 3.2 | 0.00 | 0.00 | 0.00 | 65 | 1021.7 |
| 20260906202319 | 16 | 84 | 6.4 | 27.4 | 0.25 | 6.99 | 0.00 | 79 | 1007.9 |
| 20260906202317 | 21 | 280 | 4.8 | 6.4 | 0.00 | 0.00 | 0.00 | 69 | 1021.8 |
| 20260906201908 | 25 | 99 | 0.0 | 0.0 | 0.00 | 0.00 | 0.00 | 87 | 1019.0 |
| 20260906201853 | 27 | 72 | 0.0 | 0.0 | 0.00 | 0.00 | 0.00 | 52 | 1022.8 |
| 20260906201829 | 23 | 209 | 0.0 | 0.0 | 0.00 | 0.00 | 0.00 | 68 | 1021.8 |
| 20260906201820 | 26 | 55 | 0.0 | 3.2 | 0.00 | 0.00 | 0.00 | 66 | 1021.7 |
| 20260906201816 | 21 | 288 | 4.8 | 4.8 | 0.00 | 0.00 | 0.00 | 69 | 1021.9 |
| 20260906201401 | 27 | 109 | 4.8 | 6.4 | 0.00 | 0.00 | 0.00 | 68 | 1022.0 |
| 20260906201353 | 27 | 69 | 0.0 | 0.0 | 0.00 | 0.00 | 0.00 | 51 | 1022.8 |
| 20260906201335 | 23 | 209 | 0.0 | 0.0 | 0.00 | 0.00 | 0.00 | 67 | 1021.9 |
| 20260906201319 | 21 | 288 | 3.2 | 4.8 | 0.00 | 0.00 | 0.00 | 69 | 1021.8 |
| 20260906201317 | 26 | 55 | 1.6 | 4.8 | 0.00 | 0.00 | 0.00 | 66 | 1021.7 |
| 20260906201313 | 21 | 9 | 16.1 | 37.0 | 0.28 | 6.99 | 0.00 | 68 | 1017.4 |
| 20260906200904 | 27 | 105 | 6.4 | 9.7 | 0.00 | 0.00 | 0.00 | 68 | 1022.0 |
| 20260906200850 | 27 | 69 | 0.0 | 0.0 | 0.00 | 0.00 | 0.00 | 51 | 1022.7 |
| 20260906200835 | 23 | 209 | 0.0 | 0.0 | 0.00 | 0.00 | 0.00 | 67 | 1021.8 |
| 20260906200822 | 25 | 61 | 20.9 | 40.2 | 0.30 | 6.99 | 0.00 | 63 | 1022.7 |
| 20260906200816 | 22 | 314 | 0.0 | 0.0 | 0.00 | 0.00 | 0.00 | 68 | 1022.4 |
| 20260906200408 | 26 | 99 | 0.0 | 0.0 | 0.00 | 0.00 | 0.00 | 87 | 1018.8 |
| 20260906200401 | 27 | 103 | 3.2 | 6.4 | 0.00 | 0.00 | 0.00 | 68 | 1022.0 |
| 20260906200350 | 27 | 30 | 0.0 | 0.0 | 0.00 | 0.00 | 0.00 | 51 | 1022.7 |
| 20260906200329 | 23 | 208 | 0.0 | 1.6 | 0.00 | 0.00 | 0.00 | 67 | 1021.8 |
| 20260906200325 | 20 | 289 | 3.2 | 4.8 | 0.00 | 0.00 | 0.00 | 70 | 1021.8 |
| 20260906200322 | 26 | 55 | 1.6 | 3.2 | 0.00 | 0.00 | 0.00 | 67 | 1021.8 |
| 20260906200318 | 22 | 314 | 0.0 | 0.0 | 0.00 | 0.00 | 0.00 | 67 | 1022.4 |
| 20260906200313 | 26 | 88 | 24.1 | 40.2 | 0.28 | 6.99 | 0.00 | 60 | 1025.5 |
| 20260906195901 | 27 | 102 | 4.8 | 9.7 | 0.00 | 0.00 | 0.00 | 68 | 1022.0 |
| 20260906195853 | 27 | 17 | 0.0 | 0.0 | 0.00 | 0.00 | 0.00 | 51 | 1022.8 |
| 20260906195835 | 24 | 209 | 0.0 | 0.0 | 0.00 | 0.00 | 0.00 | 67 | 1021.7 |
| 20260906195825 | 22 | 314 | 0.0 | 0.0 | 0.00 | 0.00 | 0.00 | 67 | 1022.3 |
| 20260906195818 | 26 | 55 | 3.2 | 4.8 | 0.00 | 0.00 | 0.00 | 65 | 1021.8 |
| 20260906195816 | 20 | 290 | 4.8 | 4.8 | 0.00 | 0.00 | 0.00 | 70 | 1021.8 |
| 20260906195813 | 26 | 79 | 22.5 | 38.6 | 0.25 | 6.99 | 0.00 | 61 | 1024.5 |
| 20260906195407 | 27 | 113 | 3.2 | 9.7 | 0.00 | 0.00 | 0.00 | 68 | 1022.0 |
| 20260906195350 | 27 | 49 | 0.0 | 0.0 | 0.00 | 0.00 | 0.00 | 51 | 1022.7 |
| 20260906195330 | 24 | 209 | 0.0 | 0.0 | 0.00 | 0.00 | 0.00 | 66 | 1021.7 |
| 20260906195321 | 22 | 314 | 0.0 | 0.0 | 0.00 | 0.00 | 0.00 | 67 | 1022.3 |
| 20260906195318 | 25 | 55 | 3.2 | 3.2 | 0.00 | 0.00 | 0.00 | 65 | 1021.8 |
| 20260906195313 | 23 | 36 | 19.3 | 35.4 | 0.25 | 6.99 | 0.00 | 65 | 1020.2 |
| 20260906194904 | 27 | 119 | 3.2 | 8.0 | 0.00 | 0.00 | 0.00 | 68 | 1022.0 |
| 20260906194850 | 27 | 22 | 0.0 | 0.0 | 0.00 | 0.00 | 0.00 | 50 | 1022.6 |
| 20260906194829 | 24 | 209 | 0.0 | 0.0 | 0.00 | 0.00 | 0.00 | 66 | 1021.6 |
| 20260906194819 | 20 | 292 | 1.6 | 4.8 | 0.00 | 0.00 | 0.00 | 70 | 1021.8 |
| 20260906194815 | 22 | 314 | 0.0 | 0.0 | 0.00 | 0.00 | 0.00 | 67 | 1022.3 |
| 20260906194404 | 27 | 119 | 3.2 | 11.3 | 0.00 | 0.00 | 0.00 | 67 | 1022.0 |
| 20260906194353 | 27 | 90 | 0.0 | 0.0 | 0.00 | 0.00 | 0.00 | 50 | 1022.6 |
| 20260906194332 | 24 | 209 | 0.0 | 0.0 | 0.00 | 0.00 | 0.00 | 66 | 1021.6 |
| 20260906194320 | 26 | 55 | 0.0 | 3.2 | 0.00 | 0.00 | 0.00 | 67 | 1021.7 |
| 20260906194316 | 16 | 69 | 8.0 | 24.1 | 0.30 | 6.99 | 0.00 | 77 | 1009.4 |
| 20260906193901 | 28 | 111 | 4.8 | 6.4 | 0.00 | 0.00 | 0.00 | 67 | 1022.0 |
| 20260906193853 | 28 | 67 | 0.0 | 0.0 | 0.00 | 0.00 | 0.00 | 49 | 1022.6 |
| 20260906193838 | 24 | 209 | 0.0 | 1.6 | 0.00 | 0.00 | 0.00 | 65 | 1021.6 |
| 20260906193822 | 15 | 89 | 6.4 | 24.1 | 0.28 | 6.99 | 0.00 | 79 | 1007.3 |
| 20260906193819 | 20 | 294 | 3.2 | 4.8 | 0.00 | 0.00 | 0.00 | 70 | 1021.7 |
| 20260906193817 | 26 | 55 | 1.6 | 3.2 | 0.00 | 0.00 | 0.00 | 63 | 1021.7 |
| 20260906193815 | 23 | 311 | 0.0 | 0.0 | 0.00 | 0.00 | 0.00 | 66 | 1022.2 |
| 20260906193410 | 28 | 107 | 3.2 | 9.7 | 0.00 | 0.00 | 0.00 | 67 | 1021.9 |
| 20260906193350 | 28 | 58 | 0.0 | 0.0 | 0.00 | 0.00 | 0.00 | 49 | 1022.5 |
| 20260906193344 | 26 | 99 | 0.0 | 0.0 | 0.00 | 0.00 | 0.00 | 86 | 1018.7 |
| 20260906193332 | 24 | 209 | 0.0 | 1.6 | 0.00 | 0.00 | 0.00 | 66 | 1021.5 |
| 20260906193327 | 26 | 55 | 0.0 | 4.8 | 0.00 | 0.00 | 0.00 | 61 | 1021.7 |
| 20260906193316 | 21 | 295 | 1.6 | 4.8 | 0.00 | 0.00 | 0.00 | 69 | 1021.7 |
| 20260906193313 | 16 | 73 | 8.0 | 29.0 | 0.25 | 6.99 | 0.00 | 78 | 1009.1 |
| 20260906192901 | 28 | 107 | 4.8 | 11.3 | 0.00 | 0.00 | 0.00 | 67 | 1021.9 |
| 20260906192850 | 28 | 42 | 0.0 | 0.0 | 0.00 | 0.00 | 0.00 | 49 | 1022.5 |
| 20260906192833 | 25 | 209 | 0.0 | 0.0 | 0.00 | 0.00 | 0.00 | 65 | 1021.5 |
| 20260906192821 | 23 | 311 | 0.0 | 0.0 | 0.00 | 0.00 | 0.00 | 65 | 1022.1 |
| 20260906192817 | 25 | 55 | 1.6 | 4.8 | 0.00 | 0.00 | 0.00 | 64 | 1021.7 |
| 20260906192401 | 28 | 107 | 4.8 | 11.3 | 0.00 | 0.00 | 0.00 | 67 | 1021.8 |
| 20260906192359 | 28 | 68 | 0.0 | 0.0 | 0.00 | 0.00 | 0.00 | 49 | 1022.4 |
| 20260906192329 | 25 | 209 | 0.0 | 1.6 | 0.00 | 0.00 | 0.00 | 65 | 1021.5 |
| 20260906192324 | 25 | 55 | 1.6 | 3.2 | 0.00 | 0.00 | 0.00 | 72 | 1021.7 |
| 20260906192322 | 23 | 309 | 0.0 | 0.0 | 0.00 | 0.00 | 0.00 | 64 | 1022.0 |
| 20260906192319 | 21 | 296 | 3.2 | 4.8 | 0.00 | 0.00 | 0.00 | 69 | 1021.6 |
| 20260906191907 | 28 | 115 | 9.7 | 11.3 | 0.00 | 0.00 | 0.00 | 67 | 1021.8 |
| 20260906191853 | 28 | 71 | 0.0 | 0.0 | 0.00 | 0.00 | 0.00 | 48 | 1022.4 |
| 20260906191838 | 25 | 209 | 0.0 | 1.6 | 0.00 | 0.00 | 0.00 | 64 | 1021.5 |
| 20260906191831 | 26 | 99 | 0.0 | 0.0 | 0.00 | 0.00 | 0.00 | 85 | 1018.6 |
| 20260906191824 | 25 | 55 | 1.6 | 3.2 | 0.00 | 0.00 | 0.00 | 74 | 1021.7 |
| 20260906191816 | 21 | 296 | 4.8 | 4.8 | 0.00 | 0.00 | 0.00 | 69 | 1021.6 |
| 20260906191813 | 26 | 76 | 22.5 | 40.2 | 0.30 | 6.99 | 0.00 | 61 | 1024.2 |
| 20260906191401 | 28 | 119 | 8.0 | 11.3 | 0.00 | 0.00 | 0.00 | 67 | 1021.7 |
| 20260906191356 | 28 | 84 | 0.0 | 0.0 | 0.00 | 0.00 | 0.00 | 49 | 1022.3 |
| 20260906191339 | 25 | 209 | 0.0 | 0.0 | 0.00 | 0.00 | 0.00 | 64 | 1021.4 |
| 20260906191328 | 25 | 55 | 1.6 | 3.2 | 0.00 | 0.00 | 0.00 | 75 | 1021.7 |
| 20260906191321 | 23 | 304 | 0.0 | 0.0 | 0.00 | 0.00 | 0.00 | 64 | 1022.0 |
| 20260906191317 | 21 | 296 | 3.2 | 4.8 | 0.00 | 0.00 | 0.00 | 69 | 1021.6 |
| 20260906191313 | 26 | 89 | 24.1 | 40.2 | 0.28 | 6.99 | 0.00 | 60 | 1025.6 |
| 20260906190901 | 28 | 111 | 3.2 | 6.4 | 0.00 | 0.00 | 0.00 | 67 | 1021.6 |
| 20260906190850 | 28 | 58 | 0.0 | 0.0 | 0.00 | 0.00 | 0.00 | 48 | 1022.2 |
| 20260906190829 | 25 | 209 | 0.0 | 1.6 | 0.00 | 0.00 | 0.00 | 63 | 1021.3 |
| 20260906190824 | 23 | 304 | 0.0 | 1.6 | 0.00 | 0.00 | 0.00 | 63 | 1021.9 |
| 20260906190819 | 25 | 55 | 1.6 | 1.6 | 0.00 | 0.00 | 0.00 | 76 | 1021.7 |
| 20260906190816 | 25 | 65 | 20.9 | 37.0 | 0.25 | 6.99 | 0.00 | 62 | 1023.1 |
| 20260906190404 | 28 | 118 | 3.2 | 9.7 | 0.00 | 0.00 | 0.00 | 68 | 1021.7 |
| 20260906190353 | 28 | 58 | 0.0 | 0.0 | 0.00 | 0.00 | 0.00 | 48 | 1022.1 |
| 20260906190336 | 26 | 99 | 0.0 | 0.0 | 0.00 | 0.00 | 0.00 | 84 | 1018.5 |
| 20260906190329 | 25 | 209 | 0.0 | 3.2 | 0.00 | 0.00 | 0.00 | 62 | 1021.2 |
| 20260906190323 | 21 | 315 | 3.2 | 4.8 | 0.00 | 0.00 | 0.00 | 69 | 1021.6 |
| 20260906190321 | 25 | 55 | 0.0 | 3.2 | 0.00 | 0.00 | 0.00 | 76 | 1021.7 |
| 20260906190315 | 23 | 302 | 0.0 | 4.8 | 0.00 | 0.00 | 0.00 | 63 | 1021.9 |
| 20260906190313 | 22 | 14 | 16.1 | 32.2 | 0.28 | 6.99 | 0.00 | 68 | 1017.9 |
| 20260906185904 | 28 | 111 | 4.8 | 9.7 | 0.00 | 0.00 | 0.00 | 68 | 1021.7 |
| 20260906185850 | 28 | 82 | 0.0 | 0.0 | 0.00 | 0.00 | 0.00 | 47 | 1022.0 |
| 20260906185832 | 25 | 209 | 0.0 | 1.6 | 0.00 | 0.00 | 0.00 | 62 | 1021.2 |
| 20260906185818 | 25 | 55 | 0.0 | 3.2 | 0.00 | 0.00 | 0.00 | 75 | 1021.6 |
| 20260906185816 | 21 | 315 | 1.6 | 4.8 | 0.00 | 0.00 | 0.00 | 69 | 1021.5 |
| 20260906185813 | 18 | 42 | 11.3 | 27.4 | 0.30 | 6.99 | 0.00 | 74 | 1012.1 |
| 20260906185404 | 28 | 102 | 3.2 | 6.4 | 0.00 | 0.00 | 0.00 | 68 | 1021.5 |
| 20260906185350 | 29 | 113 | 0.0 | 0.0 | 0.00 | 0.00 | 0.00 | 47 | 1022.0 |
| 20260906185332 | 25 | 209 | 0.0 | 3.2 | 0.00 | 0.00 | 0.00 | 63 | 1021.2 |
| 20260906185318 | 25 | 55 | 1.6 | 3.2 | 0.00 | 0.00 | 0.00 | 74 | 1021.5 |
| 20260906185315 | 24 | 300 | 3.2 | 4.8 | 0.00 | 0.00 | 0.00 | 61 | 1021.7 |
| 20260906185313 | 16 | 82 | 8.0 | 24.1 | 0.30 | 6.99 | 0.00 | 79 | 1008.1 |
| 20260906184901 | 28 | 106 | 1.6 | 9.7 | 0.00 | 0.00 | 0.00 | 68 | 1021.5 |
| 20260906184850 | 29 | 11 | 0.0 | 0.0 | 0.00 | 0.00 | 0.00 | 46 | 1021.9 |
| 20260906184839 | 26 | 99 | 0.0 | 0.0 | 0.00 | 0.00 | 0.00 | 83 | 1018.3 |
| 20260906184829 | 26 | 209 | 0.0 | 0.0 | 0.00 | 0.00 | 0.00 | 62 | 1021.1 |
| 20260906184825 | 25 | 55 | 0.0 | 0.0 | 0.00 | 0.00 | 0.00 | 75 | 1021.5 |
| 20260906184819 | 21 | 9 | 3.2 | 4.8 | 0.00 | 0.00 | 0.00 | 68 | 1021.4 |
| 20260906184816 | 15 | 87 | 6.4 | 25.7 | 0.28 | 6.99 | 0.00 | 79 | 1007.6 |
| 20260906184407 | 29 | 89 | 1.6 | 8.0 | 0.00 | 0.00 | 0.00 | 68 | 1021.5 |
| 20260906184350 | 29 | 209 | 0.0 | 0.0 | 0.00 | 0.00 | 0.00 | 47 | 1021.8 |
| 20260906184332 | 26 | 209 | 0.0 | 0.0 | 0.00 | 0.00 | 0.00 | 62 | 1021.0 |
| 20260906184324 | 24 | 303 | 0.0 | 0.0 | 0.00 | 0.00 | 0.00 | 60 | 1021.7 |
| 20260906184318 | 25 | 56 | 0.0 | 0.0 | 0.00 | 0.00 | 0.00 | 75 | 1021.3 |
| 20260906184316 | 17 | 56 | 9.7 | 30.6 | 0.25 | 6.99 | 0.00 | 76 | 1010.7 |
| 20260906183907 | 29 | 115 | 3.2 | 11.3 | 0.00 | 0.00 | 0.00 | 68 | 1021.5 |
| 20260906183853 | 29 | 159 | 0.0 | 0.0 | 0.00 | 0.00 | 0.00 | 45 | 1021.7 |
| 20260906183829 | 26 | 209 | 0.0 | 1.6 | 0.00 | 0.00 | 0.00 | 61 | 1020.9 |
| 20260906183823 | 25 | 55 | 0.0 | 1.6 | 0.00 | 0.00 | 0.00 | 75 | 1021.3 |
| 20260906183821 | 24 | 304 | 0.0 | 4.8 | 0.00 | 0.00 | 0.00 | 60 | 1021.7 |
| 20260906183819 | 21 | 14 | 3.2 | 6.4 | 0.00 | 0.00 | 0.00 | 68 | 1021.3 |
| 20260906183404 | 29 | 94 | 6.4 | 11.3 | 0.00 | 0.00 | 0.00 | 68 | 1021.5 |
| 20260906183353 | 29 | 118 | 0.0 | 0.0 | 0.00 | 0.00 | 0.00 | 45 | 1021.7 |
| 20260906183330 | 26 | 209 | 1.6 | 3.2 | 0.00 | 0.00 | 0.00 | 61 | 1020.8 |
| 20260906183325 | 21 | 238 | 4.8 | 4.8 | 0.00 | 0.00 | 0.00 | 68 | 1021.3 |
| 20260906183317 | 25 | 55 | 1.6 | 3.2 | 0.00 | 0.00 | 0.00 | 75 | 1021.2 |
| 20260906183315 | 25 | 337 | 0.0 | 4.8 | 0.00 | 0.00 | 0.00 | 60 | 1021.6 |
| 20260906183313 | 24 | 52 | 20.9 | 40.2 | 0.30 | 6.99 | 0.00 | 64 | 1021.8 |
| 20260906182905 | 29 | 102 | 1.6 | 4.8 | 0.00 | 0.00 | 0.00 | 69 | 1021.3 |
| 20260906182853 | 30 | 94 | 0.0 | 0.0 | 0.00 | 0.00 | 0.00 | 45 | 1021.6 |
| 20260906182829 | 26 | 209 | 0.0 | 0.0 | 0.00 | 0.00 | 0.00 | 61 | 1020.8 |
| 20260906182820 | 25 | 55 | 0.0 | 0.0 | 0.00 | 0.00 | 0.00 | 74 | 1021.2 |
| 20260906182818 | 25 | 319 | 1.6 | 4.8 | 0.00 | 0.00 | 0.00 | 59 | 1021.5 |
| 20260906182816 | 22 | 238 | 1.6 | 4.8 | 0.00 | 0.00 | 0.00 | 67 | 1021.3 |
| 20260906182813 | 26 | 86 | 24.1 | 40.2 | 0.30 | 6.99 | 0.00 | 60 | 1025.2 |
| 20260906182404 | 30 | 94 | 3.2 | 8.0 | 0.00 | 0.00 | 0.00 | 68 | 1021.3 |
| 20260906182353 | 30 | 68 | 0.0 | 0.0 | 0.00 | 0.00 | 0.00 | 45 | 1021.5 |
| 20260906182335 | 26 | 209 | 0.0 | 0.0 | 0.00 | 0.00 | 0.00 | 59 | 1020.6 |
| 20260906182326 | 25 | 55 | 0.0 | 0.0 | 0.00 | 0.00 | 0.00 | 74 | 1021.1 |
| 20260906182318 | 25 | 304 | 3.2 | 6.4 | 0.00 | 0.00 | 0.00 | 59 | 1021.5 |
| 20260906182316 | 22 | 215 | 0.0 | 1.6 | 0.00 | 0.00 | 0.00 | 67 | 1021.2 |
| 20260906182314 | 26 | 84 | 24.1 | 40.2 | 0.25 | 6.99 | 0.00 | 60 | 1025.0 |
| 20260906181901 | 30 | 62 | 4.8 | 6.4 | 0.00 | 0.00 | 0.00 | 68 | 1021.3 |
| 20260906181859 | 30 | 68 | 0.0 | 0.0 | 0.00 | 0.00 | 0.00 | 45 | 1021.4 |
| 20260906181835 | 27 | 209 | 0.0 | 0.0 | 0.00 | 0.00 | 0.00 | 60 | 1020.6 |
| 20260906181831 | 27 | 99 | 0.0 | 0.0 | 0.00 | 0.00 | 0.00 | 79 | 1017.9 |
| 20260906181820 | 25 | 55 | 0.0 | 0.0 | 0.00 | 0.00 | 0.00 | 74 | 1021.1 |
| 20260906181818 | 25 | 310 | 1.6 | 4.8 | 0.00 | 0.00 | 0.00 | 59 | 1021.4 |
| 20260906181813 | 23 | 47 | 19.3 | 35.4 | 0.25 | 6.99 | 0.00 | 64 | 1021.3 |
| 20260906181404 | 30 | 92 | 3.2 | 8.0 | 0.00 | 0.00 | 0.00 | 68 | 1021.3 |
| 20260906181350 | 30 | 52 | 0.0 | 0.0 | 0.00 | 0.00 | 0.00 | 45 | 1021.4 |
| 20260906181331 | 25 | 55 | 0.0 | 3.2 | 0.00 | 0.00 | 0.00 | 74 | 1021.1 |
| 20260906181329 | 27 | 209 | 0.0 | 3.2 | 0.00 | 0.00 | 0.00 | 58 | 1020.5 |
| 20260906181323 | 22 | 221 | 1.6 | 4.8 | 0.00 | 0.00 | 0.00 | 67 | 1021.1 |
| 20260906181321 | 25 | 304 | 3.2 | 4.8 | 0.00 | 0.00 | 0.00 | 58 | 1021.2 |
| 20260906181313 | 20 | 9 | 14.5 | 30.6 | 0.28 | 6.99 | 0.00 | 71 | 1015.5 |
| 20260906180901 | 30 | 69 | 3.2 | 9.7 | 0.00 | 0.00 | 0.00 | 68 | 1021.2 |
| 20260906180850 | 30 | 89 | 0.0 | 0.0 | 0.00 | 0.00 | 0.00 | 45 | 1021.4 |
| 20260906180829 | 27 | 209 | 1.6 | 1.6 | 0.00 | 0.00 | 0.00 | 59 | 1020.4 |
| 20260906180824 | 25 | 55 | 1.6 | 3.2 | 0.00 | 0.00 | 0.00 | 74 | 1021.0 |
| 20260906180818 | 17 | 61 | 9.7 | 25.7 | 0.30 | 6.99 | 0.00 | 76 | 1010.2 |
| 20260906180816 | 22 | 221 | 1.6 | 4.8 | 0.00 | 0.00 | 0.00 | 67 | 1021.0 |
| 20260906180401 | 30 | 76 | 3.2 | 6.4 | 0.00 | 0.00 | 0.00 | 67 | 1021.0 |
| 20260906180353 | 30 | 20 | 0.0 | 0.0 | 0.00 | 0.00 | 0.00 | 45 | 1021.3 |
| 20260906180333 | 28 | 99 | 0.0 | 0.0 | 0.00 | 0.00 | 0.00 | 75 | 1017.8 |
| 20260906180329 | 27 | 209 | 1.6 | 1.6 | 0.00 | 0.00 | 0.00 | 60 | 1020.4 |
| 20260906180320 | 22 | 216 | 0.0 | 3.2 | 0.00 | 0.00 | 0.00 | 67 | 1021.0 |
| 20260906180317 | 26 | 55 | 3.2 | 4.8 | 0.00 | 0.00 | 0.00 | 74 | 1021.0 |
| 20260906180315 | 25 | 316 | 3.2 | 6.4 | 0.00 | 0.00 | 0.00 | 57 | 1021.1 |
| 20260906180313 | 15 | 88 | 6.4 | 24.1 | 0.28 | 6.99 | 0.00 | 79 | 1007.4 |
| 20260906175907 | 30 | 73 | 4.8 | 8.0 | 0.00 | 0.00 | 0.00 | 67 | 1021.1 |
| 20260906175853 | 30 | 329 | 0.0 | 0.0 | 0.00 | 0.00 | 0.00 | 44 | 1021.1 |
| 20260906175830 | 27 | 209 | 0.0 | 0.0 | 0.00 | 0.00 | 0.00 | 58 | 1020.3 |
| 20260906175823 | 26 | 55 | 3.2 | 4.8 | 0.00 | 0.00 | 0.00 | 73 | 1021.0 |
| 20260906175819 | 22 | 216 | 1.6 | 3.2 | 0.00 | 0.00 | 0.00 | 67 | 1021.0 |
| 20260906175815 | 26 | 317 | 3.2 | 8.0 | 0.00 | 0.00 | 0.00 | 56 | 1021.1 |
| 20260906175401 | 30 | 82 | 4.8 | 8.0 | 0.00 | 0.00 | 0.00 | 67 | 1021.0 |
| 20260906175350 | 30 | 11 | 0.0 | 6.4 | 0.00 | 0.00 | 0.00 | 44 | 1021.0 |
| 20260906175329 | 27 | 209 | 0.0 | 0.0 | 0.00 | 0.00 | 0.00 | 58 | 1020.2 |
| 20260906175323 | 26 | 55 | 1.6 | 4.8 | 0.00 | 0.00 | 0.00 | 72 | 1020.9 |
| 20260906175316 | 22 | 216 | 1.6 | 3.2 | 0.00 | 0.00 | 0.00 | 66 | 1020.9 |
| 20260906175313 | 18 | 36 | 11.3 | 33.8 | 0.25 | 6.99 | 0.00 | 74 | 1012.8 |
| 20260906174901 | 31 | 85 | 4.8 | 8.0 | 0.00 | 0.00 | 0.00 | 66 | 1020.8 |
| 20260906174853 | 30 | 9 | 0.0 | 0.0 | 0.00 | 0.00 | 0.00 | 43 | 1020.9 |
| 20260906174836 | 28 | 99 | 0.0 | 0.0 | 0.00 | 0.00 | 0.00 | 73 | 1017.7 |
| 20260906174830 | 27 | 209 | 0.0 | 0.0 | 0.00 | 0.00 | 0.00 | 58 | 1020.1 |
| 20260906174826 | 26 | 55 | 1.6 | 4.8 | 0.00 | 0.00 | 0.00 | 72 | 1020.9 |
| 20260906174817 | 22 | 21 | 17.7 | 38.6 | 0.28 | 6.99 | 0.00 | 67 | 1018.6 |
| 20260906174815 | 27 | 314 | 4.8 | 8.0 | 0.00 | 0.00 | 0.00 | 53 | 1020.9 |
| 20260906174401 | 31 | 90 | 4.8 | 4.8 | 0.00 | 0.00 | 0.00 | 65 | 1020.9 |
| 20260906174350 | 30 | 13 | 0.0 | 1.6 | 0.00 | 0.00 | 0.00 | 43 | 1020.8 |
| 20260906174329 | 27 | 209 | 0.0 | 0.0 | 0.00 | 0.00 | 0.00 | 58 | 1020.1 |
| 20260906174326 | 22 | 216 | 0.0 | 3.2 | 0.00 | 0.00 | 0.00 | 65 | 1020.9 |
| 20260906174323 | 26 | 55 | 1.6 | 4.8 | 0.00 | 0.00 | 0.00 | 72 | 1020.8 |
| 20260906174320 | 25 | 69 | 22.5 | 40.2 | 0.30 | 6.99 | 0.00 | 62 | 1023.6 |
| 20260906174315 | 27 | 164 | 6.4 | 3.2 | 0.00 | 0.00 | 0.00 | 51 | 1020.8 |
| 20260906173904 | 31 | 79 | 3.2 | 6.4 | 0.00 | 0.00 | 0.00 | 64 | 1020.8 |
| 20260906173856 | 30 | 44 | 0.0 | 4.8 | 0.00 | 0.00 | 0.00 | 43 | 1020.7 |
| 20260906173832 | 27 | 209 | 0.0 | 1.6 | 0.00 | 0.00 | 0.00 | 58 | 1020.0 |
| 20260906173822 | 22 | 217 | 3.2 | 4.8 | 0.00 | 0.00 | 0.00 | 64 | 1020.9 |
| 20260906173817 | 26 | 55 | 3.2 | 4.8 | 0.00 | 0.00 | 0.00 | 71 | 1020.8 |
| 20260906173815 | 27 | 164 | 1.6 | 6.4 | 0.00 | 0.00 | 0.00 | 49 | 1020.8 |
| 20260906173401 | 31 | 80 | 3.2 | 6.4 | 0.00 | 0.00 | 0.00 | 63 | 1020.9 |
| 20260906173350 | 30 | 46 | 4.8 | 8.0 | 0.00 | 0.00 | 0.00 | 43 | 1020.7 |
| 20260906173338 | 27 | 209 | 0.0 | 1.6 | 0.00 | 0.00 | 0.00 | 57 | 1020.0 |
| 20260906173330 | 28 | 99 | 0.0 | 0.0 | 0.00 | 0.00 | 0.00 | 71 | 1017.6 |
| 20260906173325 | 23 | 181 | 1.6 | 3.2 | 0.00 | 0.00 | 0.00 | 63 | 1020.9 |
| 20260906173320 | 25 | 72 | 22.5 | 38.6 | 0.25 | 6.99 | 0.00 | 61 | 1023.9 |
| 20260906173315 | 27 | 271 | 0.0 | 3.2 | 0.00 | 0.00 | 0.00 | 51 | 1020.8 |
| 20260906172904 | 31 | 63 | 3.2 | 8.0 | 0.00 | 0.00 | 0.00 | 62 | 1020.8 |
| 20260906172856 | 30 | 311 | 0.0 | 0.0 | 0.00 | 0.00 | 0.00 | 43 | 1020.6 |
| 20260906172829 | 28 | 209 | 0.0 | 1.6 | 0.00 | 0.00 | 0.00 | 56 | 1019.9 |
| 20260906172820 | 26 | 55 | 3.2 | 4.8 | 0.00 | 0.00 | 0.00 | 70 | 1020.7 |
| 20260906172818 | 28 | 269 | 0.0 | 6.4 | 0.00 | 0.00 | 0.00 | 49 | 1020.7 |
| 20260906172816 | 23 | 181 | 0.0 | 3.2 | 0.00 | 0.00 | 0.00 | 62 | 1020.9 |
| 20260906172814 | 22 | 25 | 17.7 | 33.8 | 0.25 | 6.99 | 0.00 | 67 | 1019.1 |
| 20260906172401 | 31 | 67 | 3.2 | 4.8 | 0.00 | 0.00 | 0.00 | 61 | 1020.7 |
| 20260906172350 | 30 | 346 | 0.0 | 6.4 | 0.00 | 0.00 | 0.00 | 42 | 1020.7 |
| 20260906172329 | 28 | 209 | 0.0 | 0.0 | 0.00 | 0.00 | 0.00 | 55 | 1019.9 |
| 20260906172325 | 23 | 181 | 3.2 | 3.2 | 0.00 | 0.00 | 0.00 | 61 | 1020.9 |
| 20260906172320 | 26 | 55 | 3.2 | 4.8 | 0.00 | 0.00 | 0.00 | 70 | 1020.7 |
| 20260906172318 | 28 | 256 | 6.4 | 6.4 | 0.00 | 0.00 | 0.00 | 46 | 1020.7 |
| 20260906171901 | 32 | 101 | 4.8 | 6.4 | 0.00 | 0.00 | 0.00 | 60 | 1020.7 |
| 20260906171850 | 31 | 25 | 6.4 | 12.9 | 0.00 | 0.00 | 0.00 | 42 | 1020.5 |
| 20260906171836 | 29 | 99 | 0.0 | 0.0 | 0.00 | 0.00 | 0.00 | 69 | 1017.6 |
| 20260906171829 | 28 | 209 | 0.0 | 3.2 | 0.00 | 0.00 | 0.00 | 54 | 1019.9 |
| 20260906171823 | 23 | 108 | 1.6 | 3.2 | 0.00 | 0.00 | 0.00 | 61 | 1020.9 |
| 20260906171821 | 26 | 55 | 3.2 | 6.4 | 0.00 | 0.00 | 0.00 | 68 | 1020.7 |
| 20260906171817 | 16 | 76 | 8.0 | 24.1 | 0.30 | 6.99 | 0.00 | 78 | 1008.7 |
| 20260906171401 | 32 | 98 | 1.6 | 9.7 | 0.00 | 0.00 | 0.00 | 60 | 1020.7 |
| 20260906171350 | 31 | 64 | 0.0 | 0.0 | 0.00 | 0.00 | 0.00 | 42 | 1020.5 |
| 20260906171329 | 29 | 209 | 0.0 | 3.2 | 0.00 | 0.00 | 0.00 | 52 | 1019.8 |
| 20260906171320 | 15 | 89 | 6.4 | 25.7 | 0.28 | 6.99 | 0.00 | 79 | 1007.4 |
| 20260906171317 | 26 | 55 | 4.8 | 6.4 | 0.00 | 0.00 | 0.00 | 68 | 1020.6 |
| 20260906171315 | 28 | 126 | 0.0 | 11.3 | 0.00 | 0.00 | 0.00 | 45 | 1020.5 |
| 20260906170907 | 32 | 96 | 4.8 | 9.7 | 0.00 | 0.00 | 0.00 | 60 | 1020.7 |
| 20260906170853 | 31 | 78 | 0.0 | 0.0 | 0.00 | 0.00 | 0.00 | 42 | 1020.4 |
| 20260906170835 | 30 | 209 | 1.6 | 4.8 | 0.00 | 0.00 | 0.00 | 51 | 1019.8 |
| 20260906170820 | 17 | 65 | 9.7 | 30.6 | 0.25 | 6.99 | 0.00 | 77 | 1009.8 |
| 20260906170817 | 26 | 55 | 6.4 | 6.4 | 0.00 | 0.00 | 0.00 | 68 | 1020.6 |
| 20260906170815 | 28 | 122 | 3.2 | 16.1 | 0.00 | 0.00 | 0.00 | 45 | 1020.5 |
| 20260906170404 | 32 | 108 | 4.8 | 11.3 | 0.00 | 0.00 | 0.00 | 59 | 1020.7 |
| 20260906170356 | 31 | 55 | 0.0 | 0.0 | 0.00 | 0.00 | 0.00 | 42 | 1020.3 |
| 20260906170330 | 29 | 99 | 0.0 | 0.0 | 0.00 | 0.00 | 0.00 | 67 | 1017.4 |
| 20260906170318 | 28 | 134 | 8.0 | 16.1 | 0.00 | 0.00 | 0.00 | 45 | 1020.4 |
| 20260906170316 | 23 | 200 | 0.0 | 3.2 | 0.00 | 0.00 | 0.00 | 59 | 1020.8 |
| 20260906165904 | 32 | 104 | 4.8 | 11.3 | 0.00 | 0.00 | 0.00 | 59 | 1020.6 |
| 20260906165856 | 31 | 37 | 0.0 | 11.3 | 0.00 | 0.00 | 0.00 | 41 | 1020.3 |
| 20260906165829 | 30 | 209 | 3.2 | 11.3 | 0.00 | 0.00 | 0.00 | 47 | 1019.7 |
| 20260906165824 | 26 | 55 | 3.2 | 6.4 | 0.00 | 0.00 | 0.00 | 69 | 1020.6 |
| 20260906165822 | 23 | 200 | 1.6 | 3.2 | 0.00 | 0.00 | 0.00 | 59 | 1020.7 |
| 20260906165815 | 28 | 128 | 8.0 | 16.1 | 0.00 | 0.00 | 0.00 | 45 | 1020.4 |
| 20260906165401 | 32 | 70 | 4.8 | 9.7 | 0.00 | 0.00 | 0.00 | 59 | 1020.6 |
| 20260906165356 | 31 | 26 | 0.0 | 1.6 | 0.00 | 0.00 | 0.00 | 41 | 1020.2 |
| 20260906165329 | 31 | 220 | 8.0 | 11.3 | 0.00 | 0.00 | 0.00 | 47 | 1019.6 |
| 20260906165320 | 29 | 76 | 6.4 | 20.9 | 0.00 | 0.00 | 0.00 | 44 | 1020.4 |
| 20260906165317 | 26 | 55 | 4.8 | 6.4 | 0.00 | 0.00 | 0.00 | 70 | 1020.6 |
| 20260906165314 | 26 | 82 | 22.5 | 40.2 | 0.30 | 6.99 | 0.00 | 60 | 1024.8 |
| 20260906164907 | 32 | 109 | 1.6 | 12.9 | 0.00 | 0.00 | 0.00 | 59 | 1020.7 |
| 20260906164850 | 31 | 28 | 0.0 | 0.0 | 0.00 | 0.00 | 0.00 | 40 | 1020.2 |
| 20260906164839 | 29 | 99 | 0.0 | 0.0 | 0.00 | 0.00 | 0.00 | 65 | 1017.5 |
| 20260906164832 | 31 | 208 | 6.4 | 12.9 | 0.00 | 0.00 | 0.00 | 47 | 1019.5 |
| 20260906164825 | 29 | 159 | 19.3 | 20.9 | 0.00 | 0.00 | 0.00 | 44 | 1020.3 |
| 20260906164821 | 26 | 9 | 3.2 | 8.0 | 0.00 | 0.00 | 0.00 | 70 | 1020.6 |
| 20260906164817 | 23 | 131 | 1.6 | 3.2 | 0.00 | 0.00 | 0.00 | 58 | 1020.7 |
| 20260906164401 | 32 | 119 | 4.8 | 11.3 | 0.00 | 0.00 | 0.00 | 59 | 1020.6 |
| 20260906164356 | 31 | 37 | 0.0 | 0.0 | 0.00 | 0.00 | 0.00 | 40 | 1020.1 |
| 20260906164332 | 31 | 214 | 6.4 | 11.3 | 0.00 | 0.00 | 0.00 | 46 | 1019.4 |
| 20260906164318 | 26 | 63 | 6.4 | 8.0 | 0.00 | 0.00 | 0.00 | 69 | 1020.6 |
| 20260906164316 | 29 | 142 | 14.5 | 24.1 | 0.00 | 0.00 | 0.00 | 44 | 1020.3 |
| 20260906163901 | 32 | 102 | 6.4 | 11.3 | 0.00 | 0.00 | 0.00 | 59 | 1020.6 |
| 20260906163850 | 32 | 32 | 0.0 | 0.0 | 0.00 | 0.00 | 0.00 | 40 | 1020.0 |
| 20260906163838 | 31 | 202 | 3.2 | 11.3 | 0.00 | 0.00 | 0.00 | 47 | 1019.4 |
| 20260906163823 | 26 | 63 | 4.8 | 8.0 | 0.00 | 0.00 | 0.00 | 67 | 1020.6 |
| 20260906163819 | 29 | 99 | 12.9 | 24.1 | 0.00 | 0.00 | 0.00 | 44 | 1020.3 |
| 20260906163814 | 21 | 2 | 16.1 | 32.2 | 0.28 | 6.99 | 0.00 | 69 | 1016.7 |
| 20260906163404 | 32 | 61 | 6.4 | 12.9 | 0.00 | 0.00 | 0.00 | 58 | 1020.5 |
| 20260906163350 | 32 | 49 | 0.0 | 0.0 | 0.00 | 0.00 | 0.00 | 39 | 1020.0 |
| 20260906163333 | 30 | 99 | 0.0 | 0.0 | 0.00 | 0.00 | 0.00 | 65 | 1017.5 |
| 20260906163329 | 31 | 231 | 9.7 | 12.9 | 0.00 | 0.00 | 0.00 | 47 | 1019.3 |
| 20260906163326 | 26 | 63 | 3.2 | 8.0 | 0.00 | 0.00 | 0.00 | 65 | 1020.7 |
| 20260906163324 | 30 | 107 | 12.9 | 17.7 | 0.00 | 0.00 | 0.00 | 43 | 1020.3 |
| 20260906163317 | 24 | 111 | 0.0 | 4.8 | 0.00 | 0.00 | 0.00 | 57 | 1020.6 |
| 20260906163314 | 17 | 52 | 9.7 | 25.7 | 0.30 | 6.99 | 0.00 | 75 | 1011.1 |
| 20260906162904 | 32 | 102 | 6.4 | 11.3 | 0.00 | 0.00 | 0.00 | 58 | 1020.6 |
| 20260906162850 | 32 | 59 | 0.0 | 0.0 | 0.00 | 0.00 | 0.00 | 39 | 1019.9 |
| 20260906162832 | 30 | 185 | 1.6 | 14.5 | 0.00 | 0.00 | 0.00 | 47 | 1019.3 |
| 20260906162821 | 30 | 169 | 17.7 | 17.7 | 0.00 | 0.00 | 0.00 | 44 | 1020.2 |
| 20260906162404 | 33 | 111 | 12.9 | 14.5 | 0.00 | 0.00 | 0.00 | 58 | 1020.5 |
| 20260906162353 | 32 | 46 | 0.0 | 0.0 | 0.00 | 0.00 | 0.00 | 39 | 1020.0 |
| 20260906162338 | 31 | 245 | 3.2 | 6.4 | 0.00 | 0.00 | 0.00 | 48 | 1019.3 |
| 20260906162317 | 26 | 63 | 6.4 | 6.4 | 0.00 | 0.00 | 0.00 | 65 | 1020.5 |
| 20260906162315 | 30 | 105 | 14.5 | 20.9 | 0.00 | 0.00 | 0.00 | 43 | 1020.2 |
| 20260906161904 | 33 | 103 | 4.8 | 9.7 | 0.00 | 0.00 | 0.00 | 58 | 1020.5 |
| 20260906161850 | 32 | 28 | 0.0 | 0.0 | 0.00 | 0.00 | 0.00 | 38 | 1019.8 |
| 20260906161833 | 30 | 87 | 0.0 | 0.0 | 0.00 | 0.00 | 0.00 | 66 | 1017.5 |
| 20260906161829 | 31 | 234 | 4.8 | 11.3 | 0.00 | 0.00 | 0.00 | 48 | 1019.3 |
| 20260906161826 | 24 | 138 | 3.2 | 6.4 | 0.00 | 0.00 | 0.00 | 56 | 1020.5 |
| 20260906161823 | 27 | 63 | 4.8 | 8.0 | 0.00 | 0.00 | 0.00 | 63 | 1020.5 |
| 20260906161818 | 30 | 141 | 12.9 | 17.7 | 0.00 | 0.00 | 0.00 | 43 | 1020.2 |
| 20260906161401 | 33 | 129 | 1.6 | 11.3 | 0.00 | 0.00 | 0.00 | 58 | 1020.6 |
| 20260906161353 | 33 | 37 | 0.0 | 9.7 | 0.00 | 0.00 | 0.00 | 37 | 1019.9 |
| 20260906161338 | 31 | 232 | 1.6 | 9.7 | 0.00 | 0.00 | 0.00 | 49 | 1019.2 |
| 20260906161318 | 30 | 132 | 11.3 | 24.1 | 0.00 | 0.00 | 0.00 | 43 | 1020.2 |
| 20260906160901 | 32 | 166 | 6.4 | 9.7 | 0.00 | 0.00 | 0.00 | 58 | 1020.6 |
| 20260906160853 | 33 | 58 | 0.0 | 8.0 | 0.00 | 0.00 | 0.00 | 36 | 1019.9 |
| 20260906160829 | 32 | 235 | 4.8 | 9.7 | 0.00 | 0.00 | 0.00 | 46 | 1019.2 |
| 20260906160824 | 30 | 152 | 12.9 | 16.1 | 0.00 | 0.00 | 0.00 | 42 | 1020.1 |
| 20260906160820 | 27 | 63 | 8.0 | 9.7 | 0.00 | 0.00 | 0.00 | 65 | 1020.4 |
| 20260906160817 | 25 | 119 | 3.2 | 9.7 | 0.00 | 0.00 | 0.00 | 56 | 1020.4 |
| 20260906160410 | 32 | 109 | 6.4 | 11.3 | 0.00 | 0.00 | 0.00 | 58 | 1020.6 |
| 20260906160353 | 33 | 24 | 4.8 | 8.0 | 0.00 | 0.00 | 0.00 | 37 | 1019.9 |
| 20260906160333 | 30 | 81 | 0.0 | 0.0 | 0.00 | 0.00 | 0.00 | 64 | 1017.4 |
| 20260906160329 | 32 | 237 | 3.2 | 6.4 | 0.00 | 0.00 | 0.00 | 46 | 1019.2 |
| 20260906160321 | 30 | 115 | 12.9 | 17.7 | 0.00 | 0.00 | 0.00 | 42 | 1020.1 |
| 20260906160318 | 27 | 67 | 6.4 | 9.7 | 0.00 | 0.00 | 0.00 | 66 | 1020.4 |
| 20260906155901 | 32 | 175 | 1.6 | 11.3 | 0.00 | 0.00 | 0.00 | 58 | 1020.6 |
| 20260906155850 | 33 | 131 | 0.0 | 4.8 | 0.00 | 0.00 | 0.00 | 35 | 1019.9 |
| 20260906155835 | 33 | 237 | 3.2 | 8.0 | 0.00 | 0.00 | 0.00 | 45 | 1019.2 |
| 20260906155826 | 26 | 71 | 6.4 | 9.7 | 0.00 | 0.00 | 0.00 | 67 | 1020.4 |
| 20260906155818 | 30 | 142 | 1.6 | 20.9 | 0.00 | 0.00 | 0.00 | 42 | 1020.2 |
| 20260906155814 | 26 | 79 | 22.5 | 38.6 | 0.25 | 6.99 | 0.00 | 61 | 1024.5 |
| 20260906155401 | 33 | 90 | 3.2 | 12.9 | 0.00 | 0.00 | 0.00 | 58 | 1020.6 |
| 20260906155353 | 33 | 24 | 0.0 | 14.5 | 0.00 | 0.00 | 0.00 | 35 | 1019.8 |
| 20260906155329 | 33 | 233 | 3.2 | 8.0 | 0.00 | 0.00 | 0.00 | 44 | 1019.2 |
| 20260906155320 | 26 | 60 | 8.0 | 12.9 | 0.00 | 0.00 | 0.00 | 68 | 1020.4 |
| 20260906155315 | 30 | 140 | 11.3 | 20.9 | 0.00 | 0.00 | 0.00 | 42 | 1020.1 |
| 20260906154901 | 33 | 96 | 11.3 | 12.9 | 0.00 | 0.00 | 0.00 | 58 | 1020.5 |
| 20260906154850 | 33 | 128 | 0.0 | 16.1 | 0.00 | 0.00 | 0.00 | 35 | 1019.9 |
| 20260906154836 | 33 | 229 | 3.2 | 12.9 | 0.00 | 0.00 | 0.00 | 43 | 1019.1 |
| 20260906154830 | 30 | 90 | 0.0 | 0.0 | 0.00 | 0.00 | 0.00 | 61 | 1017.4 |
| 20260906154821 | 30 | 161 | 8.0 | 19.3 | 0.00 | 0.00 | 0.00 | 42 | 1020.1 |
| 20260906154817 | 25 | 109 | 3.2 | 6.4 | 0.00 | 0.00 | 0.00 | 54 | 1020.4 |
| 20260906154814 | 20 | 21 | 12.9 | 29.0 | 0.28 | 6.99 | 0.00 | 72 | 1014.3 |
| 20260906154401 | 33 | 123 | 4.8 | 14.5 | 0.00 | 0.00 | 0.00 | 58 | 1020.5 |
| 20260906154350 | 34 | 119 | 1.6 | 16.1 | 0.00 | 0.00 | 0.00 | 35 | 1019.8 |
| 20260906154335 | 33 | 228 | 6.4 | 12.9 | 0.00 | 0.00 | 0.00 | 43 | 1019.1 |
| 20260906154320 | 25 | 107 | 3.2 | 9.7 | 0.00 | 0.00 | 0.00 | 54 | 1020.4 |
| 20260906154317 | 16 | 69 | 8.0 | 24.1 | 0.30 | 6.99 | 0.00 | 77 | 1009.4 |
| 20260906153901 | 33 | 108 | 1.6 | 12.9 | 0.00 | 0.00 | 0.00 | 58 | 1020.6 |
| 20260906153853 | 34 | 136 | 0.0 | 0.0 | 0.00 | 0.00 | 0.00 | 33 | 1019.7 |
| 20260906153835 | 33 | 229 | 4.8 | 22.5 | 0.00 | 0.00 | 0.00 | 42 | 1019.1 |
| 20260906153823 | 26 | 48 | 9.7 | 14.5 | 0.00 | 0.00 | 0.00 | 68 | 1020.4 |
| 20260906153817 | 25 | 101 | 4.8 | 12.9 | 0.00 | 0.00 | 0.00 | 54 | 1020.3 |
| 20260906153815 | 30 | 157 | 4.8 | 30.6 | 0.00 | 0.00 | 0.00 | 41 | 1020.1 |
| 20260906153404 | 33 | 90 | 4.8 | 12.9 | 0.00 | 0.00 | 0.00 | 58 | 1020.6 |
| 20260906153353 | 35 | 169 | 0.0 | 0.0 | 0.00 | 0.00 | 0.00 | 33 | 1019.7 |
| 20260906153333 | 30 | 96 | 0.0 | 0.0 | 0.00 | 0.00 | 0.00 | 59 | 1017.5 |
| 20260906153329 | 34 | 221 | 14.5 | 17.7 | 0.00 | 0.00 | 0.00 | 40 | 1019.0 |
| 20260906153323 | 25 | 232 | 1.6 | 6.4 | 0.00 | 0.00 | 0.00 | 54 | 1020.3 |
| 20260906153321 | 30 | 103 | 19.3 | 19.3 | 0.00 | 0.00 | 0.00 | 41 | 1020.1 |
| 20260906153318 | 27 | 57 | 11.3 | 14.5 | 0.00 | 0.00 | 0.00 | 66 | 1020.4 |
| 20260906153314 | 16 | 72 | 8.0 | 29.0 | 0.25 | 6.99 | 0.00 | 78 | 1009.1 |
| 20260906152901 | 33 | 92 | 6.4 | 19.3 | 0.00 | 0.00 | 0.00 | 58 | 1020.6 |
| 20260906152850 | 35 | 224 | 0.0 | 12.9 | 0.00 | 0.00 | 0.00 | 33 | 1019.7 |
| 20260906152829 | 34 | 238 | 11.3 | 17.7 | 0.00 | 0.00 | 0.00 | 40 | 1019.0 |
| 20260906152820 | 27 | 58 | 8.0 | 14.5 | 0.00 | 0.00 | 0.00 | 65 | 1020.4 |
| 20260906152818 | 31 | 165 | 16.1 | 19.3 | 0.00 | 0.00 | 0.00 | 41 | 1020.0 |
| 20260906152401 | 33 | 113 | 12.9 | 19.3 | 0.00 | 0.00 | 0.00 | 57 | 1020.7 |
| 20260906152350 | 35 | 186 | 0.0 | 14.5 | 0.00 | 0.00 | 0.00 | 33 | 1019.7 |
| 20260906152335 | 34 | 241 | 11.3 | 16.1 | 0.00 | 0.00 | 0.00 | 39 | 1019.0 |
| 20260906152320 | 27 | 59 | 9.7 | 9.7 | 0.00 | 0.00 | 0.00 | 67 | 1020.4 |
| 20260906152317 | 23 | 32 | 17.7 | 38.6 | 0.30 | 6.99 | 0.00 | 66 | 1019.7 |
| 20260906151904 | 33 | 78 | 6.4 | 12.9 | 0.00 | 0.00 | 0.00 | 59 | 1020.7 |
| 20260906151853 | 35 | 194 | 9.7 | 16.1 | 0.00 | 0.00 | 0.00 | 32 | 1019.7 |
| 20260906151838 | 34 | 245 | 12.9 | 17.7 | 0.00 | 0.00 | 0.00 | 38 | 1019.0 |
| 20260906151833 | 30 | 100 | 0.0 | 0.0 | 0.00 | 0.00 | 0.00 | 57 | 1017.6 |
| 20260906151823 | 27 | 52 | 8.0 | 12.9 | 0.00 | 0.00 | 0.00 | 66 | 1020.4 |
| 20260906151820 | 26 | 76 | 22.5 | 40.2 | 0.30 | 6.99 | 0.00 | 61 | 1024.2 |
| 20260906151818 | 30 | 152 | 6.4 | 20.9 | 0.00 | 0.00 | 0.00 | 41 | 1020.1 |
| 20260906151404 | 33 | 105 | 9.7 | 14.5 | 0.00 | 0.00 | 0.00 | 59 | 1020.8 |
| 20260906151353 | 34 | 234 | 0.0 | 4.8 | 0.00 | 0.00 | 0.00 | 33 | 1019.8 |
| 20260906151335 | 34 | 248 | 8.0 | 20.9 | 0.00 | 0.00 | 0.00 | 39 | 1019.0 |
| 20260906151324 | 27 | 61 | 4.8 | 12.9 | 0.00 | 0.00 | 0.00 | 64 | 1020.4 |
| 20260906151317 | 26 | 89 | 24.1 | 40.2 | 0.28 | 6.99 | 0.00 | 60 | 1025.6 |
| 20260906151315 | 31 | 80 | 16.1 | 22.5 | 0.00 | 0.00 | 0.00 | 40 | 1020.0 |
| 20260906150904 | 33 | 96 | 6.4 | 11.3 | 0.00 | 0.00 | 0.00 | 58 | 1020.7 |
| 20260906150850 | 34 | 170 | 0.0 | 16.1 | 0.00 | 0.00 | 0.00 | 34 | 1019.7 |
| 20260906150836 | 34 | 238 | 6.4 | 16.1 | 0.00 | 0.00 | 0.00 | 38 | 1019.0 |
| 20260906150823 | 25 | 105 | 4.8 | 12.9 | 0.00 | 0.00 | 0.00 | 52 | 1020.3 |
| 20260906150821 | 31 | 137 | 0.0 | 19.3 | 0.00 | 0.00 | 0.00 | 42 | 1020.0 |
| 20260906150817 | 25 | 65 | 20.9 | 37.0 | 0.25 | 6.99 | 0.00 | 62 | 1023.1 |
| 20260906150401 | 33 | 105 | 6.4 | 14.5 | 0.00 | 0.00 | 0.00 | 58 | 1020.7 |
| 20260906150350 | 34 | 159 | 0.0 | 19.3 | 0.00 | 0.00 | 0.00 | 34 | 1019.7 |
| 20260906150335 | 31 | 87 | 0.0 | 0.0 | 0.00 | 0.00 | 0.00 | 59 | 1017.6 |
| 20260906150329 | 34 | 222 | 17.7 | 19.3 | 0.00 | 0.00 | 0.00 | 38 | 1018.9 |
| 20260906150324 | 25 | 114 | 1.6 | 9.7 | 0.00 | 0.00 | 0.00 | 52 | 1020.4 |
| 20260906150320 | 22 | 14 | 16.1 | 32.2 | 0.28 | 6.99 | 0.00 | 68 | 1017.9 |
| 20260906150318 | 31 | 142 | 8.0 | 17.7 | 0.00 | 0.00 | 0.00 | 40 | 1020.1 |
| 20260906145904 | 33 | 109 | 6.4 | 12.9 | 0.00 | 0.00 | 0.00 | 59 | 1020.8 |
| 20260906145850 | 34 | 161 | 6.4 | 12.9 | 0.00 | 0.00 | 0.00 | 36 | 1019.8 |
| 20260906145829 | 35 | 221 | 14.5 | 14.5 | 0.00 | 0.00 | 0.00 | 38 | 1019.0 |
| 20260906145820 | 27 | 28 | 6.4 | 14.5 | 0.00 | 0.00 | 0.00 | 63 | 1020.4 |
| 20260906145818 | 25 | 111 | 4.8 | 11.3 | 0.00 | 0.00 | 0.00 | 52 | 1020.4 |
| 20260906145815 | 31 | 109 | 11.3 | 16.1 | 0.00 | 0.00 | 0.00 | 40 | 1020.1 |
| 20260906145404 | 33 | 65 | 8.0 | 9.7 | 0.00 | 0.00 | 0.00 | 59 | 1020.8 |
| 20260906145353 | 33 | 85 | 6.4 | 17.7 | 0.00 | 0.00 | 0.00 | 33 | 1019.8 |
| 20260906145329 | 35 | 214 | 1.6 | 12.9 | 0.00 | 0.00 | 0.00 | 39 | 1019.0 |
| 20260906145320 | 16 | 82 | 8.0 | 24.1 | 0.30 | 6.99 | 0.00 | 79 | 1008.1 |
| 20260906145318 | 31 | 98 | 9.7 | 19.3 | 0.00 | 0.00 | 0.00 | 40 | 1020.0 |
| 20260906144901 | 33 | 58 | 9.7 | 16.1 | 0.00 | 0.00 | 0.00 | 59 | 1020.7 |
| 20260906144850 | 34 | 64 | 0.0 | 0.0 | 0.00 | 0.00 | 0.00 | 35 | 1019.8 |
| 20260906144833 | 31 | 93 | 0.0 | 0.0 | 0.00 | 0.00 | 0.00 | 58 | 1017.6 |
| 20260906144829 | 35 | 237 | 3.2 | 14.5 | 0.00 | 0.00 | 0.00 | 39 | 1019.0 |
| 20260906144817 | 27 | 18 | 6.4 | 16.1 | 0.00 | 0.00 | 0.00 | 67 | 1020.5 |
| 20260906144815 | 31 | 120 | 12.9 | 19.3 | 0.00 | 0.00 | 0.00 | 40 | 1020.1 |
| 20260906144407 | 33 | 115 | 0.0 | 16.1 | 0.00 | 0.00 | 0.00 | 59 | 1020.8 |
| 20260906144353 | 34 | 270 | 0.0 | 1.6 | 0.00 | 0.00 | 0.00 | 35 | 1019.8 |
| 20260906144329 | 35 | 249 | 4.8 | 16.1 | 0.00 | 0.00 | 0.00 | 38 | 1019.0 |
| 20260906144320 | 27 | 45 | 11.3 | 17.7 | 0.00 | 0.00 | 0.00 | 65 | 1020.4 |
| 20260906144317 | 17 | 56 | 9.7 | 30.6 | 0.25 | 6.99 | 0.00 | 76 | 1010.7 |
| 20260906144315 | 31 | 176 | 14.5 | 24.1 | 0.00 | 0.00 | 0.00 | 40 | 1020.2 |
| 20260906143901 | 33 | 131 | 3.2 | 11.3 | 0.00 | 0.00 | 0.00 | 58 | 1020.8 |
| 20260906143850 | 34 | 321 | 0.0 | 12.9 | 0.00 | 0.00 | 0.00 | 35 | 1019.7 |
| 20260906143838 | 35 | 217 | 4.8 | 11.3 | 0.00 | 0.00 | 0.00 | 39 | 1019.0 |
| 20260906143818 | 26 | 98 | 6.4 | 12.9 | 0.00 | 0.00 | 0.00 | 51 | 1020.4 |
| 20260906143814 | 21 | 2 | 14.5 | 37.0 | 0.28 | 6.99 | 0.00 | 70 | 1016.2 |
| 20260906143401 | 33 | 104 | 4.8 | 16.1 | 0.00 | 0.00 | 0.00 | 58 | 1020.8 |
| 20260906143350 | 34 | 293 | 12.9 | 19.3 | 0.00 | 0.00 | 0.00 | 33 | 1019.8 |
| 20260906143336 | 31 | 98 | 0.0 | 0.0 | 0.00 | 0.00 | 0.00 | 63 | 1017.6 |
| 20260906143332 | 35 | 216 | 6.4 | 16.1 | 0.00 | 0.00 | 0.00 | 39 | 1019.0 |
| 20260906143323 | 26 | 110 | 1.6 | 14.5 | 0.00 | 0.00 | 0.00 | 51 | 1020.4 |
| 20260906143319 | 31 | 136 | 20.9 | 20.9 | 0.00 | 0.00 | 0.00 | 39 | 1020.1 |
| 20260906143317 | 27 | 53 | 11.3 | 14.5 | 0.00 | 0.00 | 0.00 | 63 | 1020.4 |
| 20260906143314 | 24 | 52 | 20.9 | 40.2 | 0.30 | 6.99 | 0.00 | 64 | 1021.8 |
| 20260906142904 | 33 | 99 | 9.7 | 12.9 | 0.00 | 0.00 | 0.00 | 58 | 1020.9 |
| 20260906142853 | 34 | 317 | 0.0 | 16.1 | 0.00 | 0.00 | 0.00 | 32 | 1019.8 |
| 20260906142832 | 34 | 233 | 4.8 | 12.9 | 0.00 | 0.00 | 0.00 | 40 | 1019.0 |
| 20260906142823 | 26 | 52 | 6.4 | 12.9 | 0.00 | 0.00 | 0.00 | 51 | 1020.4 |
| 20260906142817 | 27 | 54 | 8.0 | 16.1 | 0.00 | 0.00 | 0.00 | 66 | 1020.4 |
| 20260906142815 | 31 | 182 | 6.4 | 17.7 | 0.00 | 0.00 | 0.00 | 41 | 1020.1 |
| 20260906142404 | 33 | 199 | 3.2 | 8.0 | 0.00 | 0.00 | 0.00 | 58 | 1020.8 |
| 20260906142353 | 34 | 325 | 9.7 | 17.7 | 0.00 | 0.00 | 0.00 | 32 | 1019.8 |
| 20260906142332 | 34 | 212 | 3.2 | 17.7 | 0.00 | 0.00 | 0.00 | 38 | 1019.0 |
| 20260906142326 | 26 | 113 | 6.4 | 12.9 | 0.00 | 0.00 | 0.00 | 51 | 1020.4 |
| 20260906142320 | 27 | 40 | 6.4 | 16.1 | 0.00 | 0.00 | 0.00 | 66 | 1020.5 |
| 20260906142317 | 26 | 84 | 24.1 | 40.2 | 0.25 | 6.99 | 0.00 | 60 | 1025.0 |
| 20260906142315 | 31 | 153 | 14.5 | 17.7 | 0.00 | 0.00 | 0.00 | 40 | 1020.1 |
| 20260906141901 | 33 | 174 | 4.8 | 14.5 | 0.00 | 0.00 | 0.00 | 58 | 1020.9 |
| 20260906141850 | 34 | 313 | 0.0 | 17.7 | 0.00 | 0.00 | 0.00 | 33 | 1019.8 |
| 20260906141833 | 31 | 151 | 0.0 | 0.0 | 0.00 | 0.00 | 0.00 | 62 | 1017.6 |
| 20260906141829 | 34 | 191 | 4.8 | 17.7 | 0.00 | 0.00 | 0.00 | 38 | 1019.0 |
| 20260906141821 | 31 | 148 | 14.5 | 20.9 | 0.00 | 0.00 | 0.00 | 39 | 1020.1 |
| 20260906141817 | 27 | 32 | 6.4 | 16.1 | 0.00 | 0.00 | 0.00 | 65 | 1020.4 |
| 20260906141401 | 33 | 126 | 4.8 | 9.7 | 0.00 | 0.00 | 0.00 | 58 | 1021.0 |
| 20260906141356 | 34 | 342 | 0.0 | 12.9 | 0.00 | 0.00 | 0.00 | 32 | 1019.9 |
| 20260906141335 | 34 | 210 | 6.4 | 16.1 | 0.00 | 0.00 | 0.00 | 39 | 1019.0 |
| 20260906141317 | 27 | 53 | 8.0 | 20.9 | 0.00 | 0.00 | 0.00 | 70 | 1020.3 |
| 20260906141315 | 31 | 137 | 12.9 | 20.9 | 0.00 | 0.00 | 0.00 | 40 | 1020.0 |
| 20260906140904 | 32 | 131 | 3.2 | 12.9 | 0.00 | 0.00 | 0.00 | 59 | 1021.0 |
| 20260906140850 | 34 | 294 | 0.0 | 16.1 | 0.00 | 0.00 | 0.00 | 31 | 1019.9 |
| 20260906140829 | 34 | 249 | 12.9 | 17.7 | 0.00 | 0.00 | 0.00 | 37 | 1019.1 |
| 20260906140821 | 26 | 92 | 6.4 | 16.1 | 0.00 | 0.00 | 0.00 | 51 | 1020.4 |
| 20260906140818 | 27 | 64 | 14.5 | 17.7 | 0.00 | 0.00 | 0.00 | 67 | 1020.3 |
| 20260906140401 | 32 | 127 | 6.4 | 14.5 | 0.00 | 0.00 | 0.00 | 59 | 1021.1 |
| 20260906140353 | 34 | 306 | 0.0 | 14.5 | 0.00 | 0.00 | 0.00 | 31 | 1019.9 |
| 20260906140333 | 31 | 99 | 0.0 | 0.0 | 0.00 | 0.00 | 0.00 | 59 | 1017.5 |
| 20260906140326 | 27 | 83 | 14.5 | 19.3 | 0.00 | 0.00 | 0.00 | 68 | 1020.3 |
| 20260906140317 | 26 | 121 | 8.0 | 11.3 | 0.00 | 0.00 | 0.00 | 51 | 1020.3 |
| 20260906140315 | 31 | 171 | 9.7 | 19.3 | 0.00 | 0.00 | 0.00 | 40 | 1020.2 |
| 20260906135901 | 32 | 86 | 6.4 | 14.5 | 0.00 | 0.00 | 0.00 | 59 | 1021.1 |
| 20260906135859 | 34 | 327 | 9.7 | 19.3 | 0.00 | 0.00 | 0.00 | 31 | 1020.0 |
| 20260906135832 | 34 | 263 | 4.8 | 19.3 | 0.00 | 0.00 | 0.00 | 39 | 1019.0 |
| 20260906135820 | 27 | 67 | 16.1 | 19.3 | 0.00 | 0.00 | 0.00 | 67 | 1020.3 |
| 20260906135817 | 26 | 111 | 3.2 | 9.7 | 0.00 | 0.00 | 0.00 | 51 | 1020.4 |
| 20260906135815 | 31 | 173 | 11.3 | 24.1 | 0.00 | 0.00 | 0.00 | 41 | 1020.0 |
| 20260906135401 | 32 | 113 | 6.4 | 14.5 | 0.00 | 0.00 | 0.00 | 60 | 1021.1 |
| 20260906135356 | 34 | 319 | 0.0 | 20.9 | 0.00 | 0.00 | 0.00 | 32 | 1020.0 |
| 20260906135332 | 35 | 254 | 16.1 | 16.1 | 0.00 | 0.00 | 0.00 | 39 | 1019.0 |
| 20260906135326 | 27 | 53 | 16.1 | 17.7 | 0.00 | 0.00 | 0.00 | 68 | 1020.3 |
| 20260906135320 | 18 | 36 | 11.3 | 33.8 | 0.25 | 6.99 | 0.00 | 74 | 1012.8 |
| 20260906135317 | 31 | 147 | 8.0 | 19.3 | 0.00 | 0.00 | 0.00 | 40 | 1020.0 |
| 20260906134904 | 32 | 124 | 6.4 | 14.5 | 0.00 | 0.00 | 0.00 | 59 | 1021.2 |
| 20260906134850 | 34 | 307 | 0.0 | 12.9 | 0.00 | 0.00 | 0.00 | 30 | 1020.1 |
| 20260906134833 | 31 | 98 | 0.0 | 0.0 | 0.00 | 0.00 | 0.00 | 57 | 1017.6 |
| 20260906134829 | 35 | 241 | 4.8 | 20.9 | 0.00 | 0.00 | 0.00 | 40 | 1019.0 |
| 20260906134824 | 26 | 142 | 9.7 | 12.9 | 0.00 | 0.00 | 0.00 | 50 | 1020.3 |
| 20260906134820 | 27 | 42 | 9.7 | 19.3 | 0.00 | 0.00 | 0.00 | 68 | 1020.3 |
| 20260906134817 | 22 | 21 | 17.7 | 38.6 | 0.28 | 6.99 | 0.00 | 67 | 1018.6 |
| 20260906134815 | 31 | 129 | 11.3 | 22.5 | 0.00 | 0.00 | 0.00 | 39 | 1020.1 |
| 20260906134407 | 32 | 72 | 3.2 | 11.3 | 0.00 | 0.00 | 0.00 | 60 | 1021.3 |
| 20260906134359 | 34 | 275 | 3.2 | 9.7 | 0.00 | 0.00 | 0.00 | 30 | 1020.2 |
| 20260906134329 | 35 | 241 | 8.0 | 16.1 | 0.00 | 0.00 | 0.00 | 40 | 1019.0 |
| 20260906134320 | 26 | 133 | 0.0 | 12.9 | 0.00 | 0.00 | 0.00 | 49 | 1020.4 |
| 20260906134318 | 31 | 165 | 9.7 | 17.7 | 0.00 | 0.00 | 0.00 | 40 | 1020.1 |
| 20260906133901 | 32 | 119 | 6.4 | 11.3 | 0.00 | 0.00 | 0.00 | 60 | 1021.4 |
| 20260906133850 | 34 | 285 | 0.0 | 8.0 | 0.00 | 0.00 | 0.00 | 31 | 1020.2 |
| 20260906133832 | 35 | 240 | 8.0 | 19.3 | 0.00 | 0.00 | 0.00 | 38 | 1019.1 |
| 20260906133821 | 31 | 114 | 17.7 | 29.0 | 0.00 | 0.00 | 0.00 | 39 | 1020.1 |
| 20260906133818 | 26 | 111 | 11.3 | 16.1 | 0.00 | 0.00 | 0.00 | 51 | 1020.4 |
| 20260906133814 | 26 | 89 | 24.1 | 40.2 | 0.28 | 6.99 | 0.00 | 60 | 1025.6 |
| 20260906133404 | 32 | 57 | 6.4 | 14.5 | 0.00 | 0.00 | 0.00 | 60 | 1021.3 |
| 20260906133350 | 33 | 327 | 0.0 | 0.0 | 0.00 | 0.00 | 0.00 | 30 | 1020.2 |
| 20260906133333 | 32 | 94 | 0.0 | 0.0 | 0.00 | 0.00 | 0.00 | 56 | 1017.7 |
| 20260906133329 | 35 | 214 | 8.0 | 19.3 | 0.00 | 0.00 | 0.00 | 39 | 1019.1 |
| 20260906133318 | 27 | 69 | 14.5 | 20.9 | 0.00 | 0.00 | 0.00 | 68 | 1020.3 |
| 20260906132901 | 32 | 86 | 6.4 | 16.1 | 0.00 | 0.00 | 0.00 | 61 | 1021.3 |
| 20260906132856 | 34 | 5 | 0.0 | 11.3 | 0.00 | 0.00 | 0.00 | 30 | 1020.2 |
| 20260906132829 | 34 | 222 | 3.2 | 11.3 | 0.00 | 0.00 | 0.00 | 40 | 1019.1 |
| 20260906132818 | 32 | 129 | 14.5 | 22.5 | 0.00 | 0.00 | 0.00 | 40 | 1020.1 |
| 20260906132814 | 22 | 25 | 17.7 | 33.8 | 0.25 | 6.99 | 0.00 | 67 | 1019.1 |
| 20260906132407 | 32 | 94 | 1.6 | 11.3 | 0.00 | 0.00 | 0.00 | 61 | 1021.3 |
| 20260906132353 | 34 | 183 | 0.0 | 6.4 | 0.00 | 0.00 | 0.00 | 30 | 1020.3 |
| 20260906132332 | 34 | 241 | 4.8 | 12.9 | 0.00 | 0.00 | 0.00 | 39 | 1019.1 |
| 20260906132323 | 27 | 62 | 14.5 | 19.3 | 0.00 | 0.00 | 0.00 | 67 | 1020.4 |
| 20260906132320 | 26 | 125 | 3.2 | 16.1 | 0.00 | 0.00 | 0.00 | 51 | 1020.3 |
| 20260906132318 | 18 | 32 | 12.9 | 29.0 | 0.30 | 6.99 | 0.00 | 73 | 1013.2 |
| 20260906132315 | 31 | 162 | 8.0 | 17.7 | 0.00 | 0.00 | 0.00 | 39 | 1020.0 |
| 20260906131907 | 32 | 76 | 8.0 | 12.9 | 0.00 | 0.00 | 0.00 | 62 | 1021.4 |
| 20260906131850 | 33 | 130 | 0.0 | 0.0 | 0.00 | 0.00 | 0.00 | 31 | 1020.4 |
| 20260906131832 | 34 | 219 | 8.0 | 16.1 | 0.00 | 0.00 | 0.00 | 38 | 1019.1 |
| 20260906131817 | 27 | 47 | 17.7 | 22.5 | 0.00 | 0.00 | 0.00 | 71 | 1020.4 |
| 20260906131815 | 31 | 161 | 8.0 | 22.5 | 0.00 | 0.00 | 0.00 | 40 | 1020.1 |
| 20260906131401 | 32 | 130 | 3.2 | 11.3 | 0.00 | 0.00 | 0.00 | 61 | 1021.3 |
| 20260906131350 | 33 | 206 | 0.0 | 1.6 | 0.00 | 0.00 | 0.00 | 31 | 1020.3 |
| 20260906131332 | 34 | 228 | 8.0 | 16.1 | 0.00 | 0.00 | 0.00 | 37 | 1019.1 |
| 20260906131320 | 15 | 89 | 6.4 | 25.7 | 0.28 | 6.99 | 0.00 | 79 | 1007.4 |
| 20260906131317 | 26 | 119 | 3.2 | 19.3 | 0.00 | 0.00 | 0.00 | 50 | 1020.3 |
| 20260906131315 | 31 | 129 | 6.4 | 30.6 | 0.00 | 0.00 | 0.00 | 40 | 1020.0 |
| 20260906130907 | 32 | 142 | 4.8 | 14.5 | 0.00 | 0.00 | 0.00 | 62 | 1021.4 |
| 20260906130853 | 33 | 130 | 0.0 | 9.7 | 0.00 | 0.00 | 0.00 | 31 | 1020.4 |
| 20260906130829 | 34 | 200 | 11.3 | 14.5 | 0.00 | 0.00 | 0.00 | 37 | 1019.1 |
| 20260906130822 | 27 | 46 | 14.5 | 20.9 | 0.00 | 0.00 | 0.00 | 70 | 1020.4 |
| 20260906130820 | 26 | 117 | 6.4 | 17.7 | 0.00 | 0.00 | 0.00 | 49 | 1020.3 |
| 20260906130815 | 32 | 158 | 8.0 | 20.9 | 0.00 | 0.00 | 0.00 | 38 | 1020.1 |
| 20260906130401 | 32 | 131 | 3.2 | 11.3 | 0.00 | 0.00 | 0.00 | 63 | 1021.5 |
| 20260906130353 | 33 | 156 | 1.6 | 9.7 | 0.00 | 0.00 | 0.00 | 31 | 1020.4 |
| 20260906130335 | 34 | 266 | 9.7 | 16.1 | 0.00 | 0.00 | 0.00 | 37 | 1019.2 |
| 20260906130331 | 32 | 94 | 0.0 | 0.0 | 0.00 | 0.00 | 0.00 | 57 | 1017.7 |
| 20260906130323 | 27 | 58 | 11.3 | 20.9 | 0.00 | 0.00 | 0.00 | 70 | 1020.5 |
| 20260906130318 | 26 | 73 | 3.2 | 16.1 | 0.00 | 0.00 | 0.00 | 50 | 1020.2 |
| 20260906130315 | 31 | 185 | 6.4 | 22.5 | 0.00 | 0.00 | 0.00 | 40 | 1020.2 |
| 20260906125907 | 32 | 99 | 4.8 | 8.0 | 0.00 | 0.00 | 0.00 | 64 | 1021.5 |
| 20260906125853 | 33 | 291 | 0.0 | 0.0 | 0.00 | 0.00 | 0.00 | 32 | 1020.5 |
| 20260906125830 | 34 | 231 | 4.8 | 14.5 | 0.00 | 0.00 | 0.00 | 38 | 1019.2 |
| 20260906125823 | 26 | 136 | 3.2 | 16.1 | 0.00 | 0.00 | 0.00 | 49 | 1020.4 |
| 20260906125817 | 27 | 56 | 11.3 | 19.3 | 0.00 | 0.00 | 0.00 | 69 | 1020.5 |
| 20260906125815 | 32 | 168 | 16.1 | 20.9 | 0.00 | 0.00 | 0.00 | 39 | 1020.2 |
| 20260906125401 | 32 | 111 | 1.6 | 11.3 | 0.00 | 0.00 | 0.00 | 63 | 1021.6 |
| 20260906125353 | 33 | 333 | 0.0 | 0.0 | 0.00 | 0.00 | 0.00 | 35 | 1020.6 |
| 20260906125335 | 34 | 236 | 3.2 | 11.3 | 0.00 | 0.00 | 0.00 | 38 | 1019.3 |
| 20260906125321 | 32 | 178 | 6.4 | 16.1 | 0.00 | 0.00 | 0.00 | 39 | 1020.3 |
| 20260906125317 | 27 | 44 | 17.7 | 20.9 | 0.00 | 0.00 | 0.00 | 70 | 1020.5 |
| 20260906124907 | 32 | 90 | 9.7 | 9.7 | 0.00 | 0.00 | 0.00 | 63 | 1021.5 |
| 20260906124853 | 33 | 333 | 0.0 | 0.0 | 0.00 | 0.00 | 0.00 | 32 | 1020.7 |
| 20260906124836 | 32 | 100 | 0.0 | 0.0 | 0.00 | 0.00 | 0.00 | 58 | 1017.8 |
| 20260906124829 | 34 | 249 | 4.8 | 12.9 | 0.00 | 0.00 | 0.00 | 38 | 1019.3 |
| 20260906124822 | 27 | 54 | 16.1 | 22.5 | 0.00 | 0.00 | 0.00 | 69 | 1020.5 |
| 20260906124820 | 26 | 112 | 11.3 | 17.7 | 0.00 | 0.00 | 0.00 | 49 | 1020.3 |
| 20260906124815 | 32 | 159 | 3.2 | 24.1 | 0.00 | 0.00 | 0.00 | 39 | 1020.3 |
| 20260906124404 | 32 | 69 | 12.9 | 12.9 | 0.00 | 0.00 | 0.00 | 64 | 1021.6 |
| 20260906124353 | 33 | 287 | 0.0 | 0.0 | 0.00 | 0.00 | 0.00 | 32 | 1020.7 |
| 20260906124329 | 33 | 266 | 1.6 | 9.7 | 0.00 | 0.00 | 0.00 | 37 | 1019.3 |
| 20260906124317 | 26 | 121 | 6.4 | 17.7 | 0.00 | 0.00 | 0.00 | 49 | 1020.3 |
| 20260906124315 | 32 | 115 | 14.5 | 20.9 | 0.00 | 0.00 | 0.00 | 38 | 1020.2 |
| 20260906123901 | 31 | 85 | 16.1 | 16.1 | 0.00 | 0.00 | 0.00 | 64 | 1021.6 |
| 20260906123850 | 32 | 247 | 0.0 | 1.6 | 0.00 | 0.00 | 0.00 | 33 | 1020.8 |
| 20260906123835 | 33 | 250 | 6.4 | 12.9 | 0.00 | 0.00 | 0.00 | 37 | 1019.4 |
| 20260906123824 | 32 | 130 | 8.0 | 17.7 | 0.00 | 0.00 | 0.00 | 39 | 1020.2 |
| 20260906123821 | 26 | 158 | 14.5 | 14.5 | 0.00 | 0.00 | 0.00 | 50 | 1020.3 |
| 20260906123814 | 21 | 2 | 16.1 | 32.2 | 0.28 | 6.99 | 0.00 | 69 | 1016.7 |
| 20260906123404 | 32 | 118 | 6.4 | 14.5 | 0.00 | 0.00 | 0.00 | 64 | 1021.7 |
| 20260906123359 | 32 | 5 | 0.0 | 0.0 | 0.00 | 0.00 | 0.00 | 36 | 1020.8 |
| 20260906123330 | 33 | 74 | 0.0 | 0.0 | 0.00 | 0.00 | 0.00 | 53 | 1017.7 |
| 20260906123320 | 27 | 40 | 14.5 | 19.3 | 0.00 | 0.00 | 0.00 | 70 | 1020.6 |
| 20260906123317 | 26 | 115 | 6.4 | 16.1 | 0.00 | 0.00 | 0.00 | 49 | 1020.4 |
| 20260906123315 | 32 | 155 | 11.3 | 22.5 | 0.00 | 0.00 | 0.00 | 39 | 1020.3 |
| 20260906122901 | 31 | 68 | 3.2 | 11.3 | 0.00 | 0.00 | 0.00 | 65 | 1021.7 |
| 20260906122853 | 32 | 23 | 0.0 | 1.6 | 0.00 | 0.00 | 0.00 | 34 | 1020.8 |
| 20260906122832 | 33 | 243 | 3.2 | 14.5 | 0.00 | 0.00 | 0.00 | 40 | 1019.5 |
| 20260906122823 | 27 | 49 | 11.3 | 20.9 | 0.00 | 0.00 | 0.00 | 72 | 1020.7 |
| 20260906122818 | 32 | 129 | 8.0 | 19.3 | 0.00 | 0.00 | 0.00 | 40 | 1020.3 |
| 20260906122814 | 15 | 86 | 6.4 | 22.5 | 0.30 | 6.99 | 0.00 | 79 | 1007.7 |
| 20260906122404 | 31 | 88 | 4.8 | 12.9 | 0.00 | 0.00 | 0.00 | 64 | 1021.6 |
| 20260906122353 | 32 | 340 | 0.0 | 0.0 | 0.00 | 0.00 | 0.00 | 35 | 1020.9 |
| 20260906122329 | 33 | 260 | 6.4 | 9.7 | 0.00 | 0.00 | 0.00 | 38 | 1019.6 |
| 20260906122323 | 26 | 51 | 14.5 | 25.7 | 0.00 | 0.00 | 0.00 | 70 | 1020.7 |
| 20260906122319 | 26 | 119 | 6.4 | 17.7 | 0.00 | 0.00 | 0.00 | 48 | 1020.3 |
| 20260906122317 | 16 | 84 | 6.4 | 27.4 | 0.25 | 6.99 | 0.00 | 79 | 1007.9 |
| 20260906122315 | 32 | 150 | 9.7 | 17.7 | 0.00 | 0.00 | 0.00 | 39 | 1020.3 |
| 20260906121901 | 31 | 113 | 11.3 | 14.5 | 0.00 | 0.00 | 0.00 | 64 | 1021.7 |
| 20260906121853 | 31 | 249 | 0.0 | 3.2 | 0.00 | 0.00 | 0.00 | 34 | 1020.9 |
| 20260906121832 | 33 | 200 | 6.4 | 6.4 | 0.00 | 0.00 | 0.00 | 39 | 1019.7 |
| 20260906121817 | 26 | 40 | 8.0 | 17.7 | 0.00 | 0.00 | 0.00 | 49 | 1020.3 |
| 20260906121815 | 31 | 177 | 9.7 | 22.5 | 0.00 | 0.00 | 0.00 | 40 | 1020.3 |
| 20260906121404 | 31 | 123 | 3.2 | 12.9 | 0.00 | 0.00 | 0.00 | 64 | 1021.8 |
| 20260906121350 | 31 | 78 | 1.6 | 4.8 | 0.00 | 0.00 | 0.00 | 35 | 1021.0 |
| 20260906121335 | 33 | 348 | 0.0 | 3.2 | 0.00 | 0.00 | 0.00 | 38 | 1019.7 |
| 20260906121326 | 26 | 101 | 6.4 | 16.1 | 0.00 | 0.00 | 0.00 | 49 | 1020.3 |
| 20260906121321 | 31 | 142 | 16.1 | 24.1 | 0.00 | 0.00 | 0.00 | 41 | 1020.3 |
| 20260906121318 | 21 | 9 | 16.1 | 37.0 | 0.28 | 6.99 | 0.00 | 68 | 1017.4 |
| 20260906120904 | 31 | 127 | 6.4 | 11.3 | 0.00 | 0.00 | 0.00 | 65 | 1021.8 |
| 20260906120850 | 31 | 0 | 0.0 | 1.6 | 0.00 | 0.00 | 0.00 | 36 | 1021.2 |
| 20260906120835 | 33 | 348 | 1.6 | 4.8 | 0.00 | 0.00 | 0.00 | 42 | 1019.8 |
| 20260906120820 | 26 | 93 | 14.5 | 17.7 | 0.00 | 0.00 | 0.00 | 50 | 1020.3 |
| 20260906120818 | 27 | 36 | 16.1 | 24.1 | 0.00 | 0.00 | 0.00 | 72 | 1020.6 |
| 20260906120815 | 31 | 110 | 9.7 | 22.5 | 0.00 | 0.00 | 0.00 | 40 | 1020.2 |
| 20260906120404 | 31 | 126 | 1.6 | 11.3 | 0.00 | 0.00 | 0.00 | 66 | 1021.8 |
| 20260906120353 | 31 | 271 | 0.0 | 0.0 | 0.00 | 0.00 | 0.00 | 35 | 1021.2 |
| 20260906120334 | 33 | 9 | 0.0 | 0.0 | 0.00 | 0.00 | 0.00 | 53 | 1017.8 |
| 20260906120329 | 32 | 348 | 3.2 | 6.4 | 0.00 | 0.00 | 0.00 | 40 | 1019.8 |
| 20260906120318 | 27 | 59 | 16.1 | 20.9 | 0.00 | 0.00 | 0.00 | 71 | 1020.5 |
| 20260906120314 | 26 | 88 | 24.1 | 40.2 | 0.28 | 6.99 | 0.00 | 60 | 1025.5 |
| 20260906115901 | 31 | 90 | 6.4 | 12.9 | 0.00 | 0.00 | 0.00 | 66 | 1021.9 |
| 20260906115856 | 31 | 312 | 0.0 | 6.4 | 0.00 | 0.00 | 0.00 | 36 | 1021.2 |
| 20260906115829 | 32 | 338 | 1.6 | 6.4 | 0.00 | 0.00 | 0.00 | 42 | 1019.8 |
| 20260906115820 | 27 | 37 | 9.7 | 16.1 | 0.00 | 0.00 | 0.00 | 49 | 1020.1 |
| 20260906115818 | 31 | 151 | 4.8 | 19.3 | 0.00 | 0.00 | 0.00 | 40 | 1020.2 |
| 20260906115814 | 26 | 79 | 22.5 | 38.6 | 0.25 | 6.99 | 0.00 | 61 | 1024.5 |
| 20260906115401 | 31 | 165 | 8.0 | 12.9 | 0.00 | 0.00 | 0.00 | 67 | 1021.8 |
| 20260906115353 | 31 | 321 | 0.0 | 0.0 | 0.00 | 0.00 | 0.00 | 36 | 1021.3 |
| 20260906115338 | 32 | 306 | 1.6 | 3.2 | 0.00 | 0.00 | 0.00 | 44 | 1019.9 |
| 20260906115323 | 26 | 13 | 12.9 | 24.1 | 0.00 | 0.00 | 0.00 | 74 | 1020.6 |
| 20260906115320 | 23 | 36 | 19.3 | 35.4 | 0.25 | 6.99 | 0.00 | 65 | 1020.2 |
| 20260906115315 | 31 | 188 | 4.8 | 16.1 | 0.00 | 0.00 | 0.00 | 40 | 1020.2 |
| 20260906114901 | 31 | 103 | 9.7 | 14.5 | 0.00 | 0.00 | 0.00 | 66 | 1021.7 |
| 20260906114853 | 31 | 290 | 0.0 | 6.4 | 0.00 | 0.00 | 0.00 | 36 | 1021.3 |
| 20260906114837 | 32 | 32 | 0.0 | 0.0 | 0.00 | 0.00 | 0.00 | 57 | 1017.8 |
| 20260906114829 | 32 | 306 | 0.0 | 6.4 | 0.00 | 0.00 | 0.00 | 44 | 1019.9 |
| 20260906114824 | 31 | 145 | 8.0 | 17.7 | 0.00 | 0.00 | 0.00 | 41 | 1020.3 |
| 20260906114820 | 26 | 45 | 16.1 | 27.4 | 0.00 | 0.00 | 0.00 | 73 | 1020.6 |
| 20260906114817 | 26 | 57 | 8.0 | 20.9 | 0.00 | 0.00 | 0.00 | 50 | 1020.1 |
| 20260906114401 | 31 | 111 | 6.4 | 17.7 | 0.00 | 0.00 | 0.00 | 66 | 1021.8 |
| 20260906114350 | 31 | 330 | 0.0 | 9.7 | 0.00 | 0.00 | 0.00 | 36 | 1021.3 |
| 20260906114329 | 32 | 274 | 1.6 | 4.8 | 0.00 | 0.00 | 0.00 | 42 | 1019.9 |
| 20260906114322 | 26 | 108 | 4.8 | 14.5 | 0.00 | 0.00 | 0.00 | 51 | 1020.1 |
| 20260906114318 | 26 | 57 | 17.7 | 25.7 | 0.00 | 0.00 | 0.00 | 70 | 1020.6 |
| 20260906114315 | 31 | 169 | 1.6 | 24.1 | 0.00 | 0.00 | 0.00 | 41 | 1020.2 |
| 20260906113910 | 31 | 105 | 11.3 | 12.9 | 0.00 | 0.00 | 0.00 | 66 | 1021.9 |
| 20260906113850 | 31 | 331 | 0.0 | 8.0 | 0.00 | 0.00 | 0.00 | 36 | 1021.4 |
| 20260906113838 | 32 | 276 | 4.8 | 6.4 | 0.00 | 0.00 | 0.00 | 42 | 1019.9 |
| 20260906113826 | 26 | 55 | 14.5 | 25.7 | 0.00 | 0.00 | 0.00 | 71 | 1020.5 |
| 20260906113824 | 31 | 169 | 19.3 | 22.5 | 0.00 | 0.00 | 0.00 | 42 | 1020.2 |
| 20260906113817 | 26 | 112 | 9.7 | 16.1 | 0.00 | 0.00 | 0.00 | 50 | 1020.1 |
| 20260906113814 | 15 | 89 | 6.4 | 24.1 | 0.28 | 6.99 | 0.00 | 79 | 1007.3 |
| 20260906113401 | 31 | 92 | 4.8 | 14.5 | 0.00 | 0.00 | 0.00 | 66 | 1022.0 |
| 20260906113350 | 31 | 321 | 1.6 | 6.4 | 0.00 | 0.00 | 0.00 | 36 | 1021.3 |
| 20260906113335 | 32 | 348 | 1.6 | 4.8 | 0.00 | 0.00 | 0.00 | 44 | 1020.0 |
| 20260906113323 | 27 | 63 | 20.9 | 24.1 | 0.00 | 0.00 | 0.00 | 71 | 1020.5 |
| 20260906113320 | 16 | 72 | 8.0 | 29.0 | 0.25 | 6.99 | 0.00 | 78 | 1009.1 |
| 20260906113317 | 26 | 42 | 9.7 | 19.3 | 0.00 | 0.00 | 0.00 | 50 | 1020.1 |
| 20260906113315 | 31 | 173 | 12.9 | 17.7 | 0.00 | 0.00 | 0.00 | 42 | 1020.3 |
| 20260906112901 | 31 | 104 | 4.8 | 14.5 | 0.00 | 0.00 | 0.00 | 66 | 1022.0 |
| 20260906112859 | 31 | 12 | 0.0 | 1.6 | 0.00 | 0.00 | 0.00 | 36 | 1021.4 |
| 20260906112832 | 32 | 341 | 3.2 | 4.8 | 0.00 | 0.00 | 0.00 | 42 | 1020.0 |
| 20260906112820 | 19 | 25 | 12.9 | 33.8 | 0.25 | 6.99 | 0.00 | 72 | 1013.9 |
| 20260906112817 | 27 | 53 | 16.1 | 27.4 | 0.00 | 0.00 | 0.00 | 72 | 1020.5 |
| 20260906112815 | 31 | 118 | 9.7 | 14.5 | 0.00 | 0.00 | 0.00 | 44 | 1020.2 |
| 20260906112401 | 31 | 136 | 14.5 | 14.5 | 0.00 | 0.00 | 0.00 | 66 | 1022.0 |
| 20260906112350 | 31 | 0 | 0.0 | 6.4 | 0.00 | 0.00 | 0.00 | 37 | 1021.5 |
| 20260906112329 | 32 | 29 | 0.0 | 4.8 | 0.00 | 0.00 | 0.00 | 42 | 1020.1 |
| 20260906112320 | 27 | 71 | 24.1 | 25.7 | 0.00 | 0.00 | 0.00 | 70 | 1020.5 |
| 20260906112317 | 26 | 157 | 8.0 | 17.7 | 0.00 | 0.00 | 0.00 | 50 | 1020.1 |
| 20260906112315 | 31 | 84 | 3.2 | 11.3 | 0.00 | 0.00 | 0.00 | 42 | 1020.3 |
| 20260906111904 | 30 | 109 | 4.8 | 14.5 | 0.00 | 0.00 | 0.00 | 66 | 1022.0 |
| 20260906111853 | 30 | 73 | 0.0 | 6.4 | 0.00 | 0.00 | 0.00 | 36 | 1021.5 |
| 20260906111834 | 31 | 102 | 0.0 | 0.0 | 0.00 | 0.00 | 0.00 | 58 | 1018.0 |
| 20260906111832 | 31 | 49 | 0.0 | 4.8 | 0.00 | 0.00 | 0.00 | 39 | 1020.2 |
| 20260906111823 | 26 | 52 | 24.1 | 27.4 | 0.00 | 0.00 | 0.00 | 72 | 1020.4 |
| 20260906111817 | 26 | 76 | 22.5 | 40.2 | 0.30 | 6.99 | 0.00 | 61 | 1024.2 |
| 20260906111815 | 30 | 189 | 6.4 | 11.3 | 0.00 | 0.00 | 0.00 | 45 | 1020.3 |
| 20260906111404 | 31 | 105 | 6.4 | 12.9 | 0.00 | 0.00 | 0.00 | 67 | 1022.1 |
| 20260906111350 | 30 | 324 | 6.4 | 8.0 | 0.00 | 0.00 | 0.00 | 36 | 1021.4 |
| 20260906111338 | 31 | 16 | 3.2 | 8.0 | 0.00 | 0.00 | 0.00 | 40 | 1020.2 |
| 20260906111324 | 30 | 144 | 8.0 | 14.5 | 0.00 | 0.00 | 0.00 | 46 | 1020.4 |
| 20260906111320 | 27 | 26 | 14.5 | 29.0 | 0.00 | 0.00 | 0.00 | 71 | 1020.4 |
| 20260906111317 | 26 | 67 | 4.8 | 17.7 | 0.00 | 0.00 | 0.00 | 50 | 1020.1 |
| 20260906111314 | 26 | 89 | 24.1 | 40.2 | 0.28 | 6.99 | 0.00 | 60 | 1025.6 |
| 20260906110901 | 30 | 96 | 4.8 | 14.5 | 0.00 | 0.00 | 0.00 | 69 | 1022.1 |
| 20260906110850 | 30 | 9 | 0.0 | 12.9 | 0.00 | 0.00 | 0.00 | 36 | 1021.5 |
| 20260906110832 | 31 | 39 | 0.0 | 8.0 | 0.00 | 0.00 | 0.00 | 43 | 1020.2 |
| 20260906110817 | 26 | 31 | 6.4 | 12.9 | 0.00 | 0.00 | 0.00 | 52 | 1020.0 |
| 20260906110815 | 30 | 158 | 9.7 | 12.9 | 0.00 | 0.00 | 0.00 | 47 | 1020.3 |
| 20260906110401 | 30 | 50 | 6.4 | 16.1 | 0.00 | 0.00 | 0.00 | 68 | 1022.1 |
| 20260906110350 | 30 | 46 | 1.6 | 12.9 | 0.00 | 0.00 | 0.00 | 35 | 1021.5 |
| 20260906110332 | 31 | 324 | 4.8 | 4.8 | 0.00 | 0.00 | 0.00 | 41 | 1020.2 |
| 20260906110327 | 27 | 55 | 19.3 | 22.5 | 0.00 | 0.00 | 0.00 | 70 | 1020.5 |
| 20260906110318 | 30 | 67 | 0.0 | 9.7 | 0.00 | 0.00 | 0.00 | 48 | 1020.4 |
| 20260906105907 | 30 | 110 | 12.9 | 19.3 | 0.00 | 0.00 | 0.00 | 69 | 1022.1 |
| 20260906105853 | 30 | 331 | 3.2 | 6.4 | 0.00 | 0.00 | 0.00 | 36 | 1021.5 |
| 20260906105829 | 31 | 326 | 1.6 | 6.4 | 0.00 | 0.00 | 0.00 | 42 | 1020.2 |
| 20260906105820 | 26 | 11 | 8.0 | 16.1 | 0.00 | 0.00 | 0.00 | 52 | 1020.0 |
| 20260906105817 | 18 | 42 | 11.3 | 27.4 | 0.30 | 6.99 | 0.00 | 74 | 1012.1 |
| 20260906105815 | 30 | 109 | 6.4 | 8.0 | 0.00 | 0.00 | 0.00 | 47 | 1020.3 |
| 20260906105404 | 30 | 140 | 1.6 | 11.3 | 0.00 | 0.00 | 0.00 | 70 | 1022.1 |
| 20260906105350 | 30 | 301 | 6.4 | 9.7 | 0.00 | 0.00 | 0.00 | 38 | 1021.6 |
| 20260906105335 | 31 | 46 | 4.8 | 8.0 | 0.00 | 0.00 | 0.00 | 47 | 1020.3 |
| 20260906105317 | 27 | 29 | 17.7 | 22.5 | 0.00 | 0.00 | 0.00 | 71 | 1020.5 |
| 20260906105315 | 30 | 140 | 4.8 | 9.7 | 0.00 | 0.00 | 0.00 | 48 | 1020.4 |
| 20260906104904 | 30 | 97 | 3.2 | 16.1 | 0.00 | 0.00 | 0.00 | 69 | 1022.1 |
| 20260906104850 | 30 | 44 | 9.7 | 12.9 | 0.00 | 0.00 | 0.00 | 37 | 1021.6 |
| 20260906104835 | 30 | 273 | 3.2 | 6.4 | 0.00 | 0.00 | 0.00 | 41 | 1020.3 |
| 20260906104831 | 31 | 85 | 0.0 | 0.0 | 0.00 | 0.00 | 0.00 | 62 | 1018.2 |
| 20260906104821 | 26 | 42 | 9.7 | 24.1 | 0.00 | 0.00 | 0.00 | 51 | 1020.0 |
| 20260906104818 | 29 | 98 | 0.0 | 3.2 | 0.00 | 0.00 | 0.00 | 49 | 1020.5 |
| 20260906104814 | 15 | 87 | 6.4 | 25.7 | 0.25 | 6.99 | 0.00 | 79 | 1007.6 |
| 20260906104407 | 30 | 113 | 4.8 | 12.9 | 0.00 | 0.00 | 0.00 | 69 | 1022.2 |
| 20260906104350 | 29 | 343 | 8.0 | 9.7 | 0.00 | 0.00 | 0.00 | 38 | 1021.7 |
| 20260906104335 | 30 | 77 | 0.0 | 9.7 | 0.00 | 0.00 | 0.00 | 40 | 1020.4 |
| 20260906104321 | 29 | 92 | 3.2 | 8.0 | 0.00 | 0.00 | 0.00 | 48 | 1020.6 |
| 20260906104317 | 27 | 67 | 20.9 | 24.1 | 0.00 | 0.00 | 0.00 | 69 | 1020.5 |
| 20260906103901 | 30 | 61 | 6.4 | 9.7 | 0.00 | 0.00 | 0.00 | 70 | 1022.2 |
| 20260906103850 | 30 | 350 | 0.0 | 11.3 | 0.00 | 0.00 | 0.00 | 37 | 1021.8 |
| 20260906103832 | 30 | 27 | 0.0 | 8.0 | 0.00 | 0.00 | 0.00 | 42 | 1020.4 |
| 20260906103823 | 26 | 100 | 4.8 | 20.9 | 0.00 | 0.00 | 0.00 | 51 | 1020.0 |
| 20260906103818 | 29 | 51 | 0.0 | 4.8 | 0.00 | 0.00 | 0.00 | 50 | 1020.6 |
| 20260906103814 | 21 | 2 | 14.5 | 37.0 | 0.28 | 6.99 | 0.00 | 70 | 1016.2 |
| 20260906103404 | 30 | 117 | 9.7 | 16.1 | 0.00 | 0.00 | 0.00 | 69 | 1022.3 |
| 20260906103350 | 29 | 312 | 0.0 | 14.5 | 0.00 | 0.00 | 0.00 | 37 | 1021.8 |
| 20260906103338 | 30 | 36 | 6.4 | 8.0 | 0.00 | 0.00 | 0.00 | 42 | 1020.4 |
| 20260906103334 | 30 | 84 | 0.0 | 0.0 | 0.00 | 0.00 | 0.00 | 61 | 1018.3 |
| 20260906103324 | 29 | 28 | 0.0 | 12.9 | 0.00 | 0.00 | 0.00 | 49 | 1020.6 |
| 20260906103320 | 27 | 34 | 17.7 | 22.5 | 0.00 | 0.00 | 0.00 | 66 | 1020.6 |
| 20260906103317 | 26 | 92 | 9.7 | 17.7 | 0.00 | 0.00 | 0.00 | 51 | 1020.0 |
| 20260906102907 | 30 | 128 | 11.3 | 14.5 | 0.00 | 0.00 | 0.00 | 71 | 1022.3 |
| 20260906102856 | 29 | 5 | 0.0 | 14.5 | 0.00 | 0.00 | 0.00 | 38 | 1021.9 |
| 20260906102832 | 26 | 88 | 8.0 | 20.9 | 0.00 | 0.00 | 0.00 | 51 | 1020.1 |
| 20260906102829 | 30 | 288 | 3.2 | 8.0 | 0.00 | 0.00 | 0.00 | 41 | 1020.5 |
| 20260906102820 | 26 | 86 | 24.1 | 40.2 | 0.30 | 6.99 | 0.00 | 60 | 1025.2 |
| 20260906102818 | 28 | 292 | 0.0 | 3.2 | 0.00 | 0.00 | 0.00 | 51 | 1020.6 |
| 20260906102401 | 30 | 70 | 8.0 | 16.1 | 0.00 | 0.00 | 0.00 | 71 | 1022.3 |
| 20260906102350 | 28 | 315 | 0.0 | 12.9 | 0.00 | 0.00 | 0.00 | 39 | 1021.9 |
| 20260906102329 | 30 | 54 | 0.0 | 12.9 | 0.00 | 0.00 | 0.00 | 42 | 1020.6 |
| 20260906102318 | 26 | 71 | 4.8 | 17.7 | 0.00 | 0.00 | 0.00 | 50 | 1020.1 |
| 20260906102314 | 26 | 84 | 24.1 | 40.2 | 0.25 | 6.99 | 0.00 | 60 | 1025.0 |
| 20260906101907 | 30 | 148 | 9.7 | 12.9 | 0.00 | 0.00 | 0.00 | 71 | 1022.4 |
| 20260906101850 | 28 | 15 | 0.0 | 14.5 | 0.00 | 0.00 | 0.00 | 38 | 1022.0 |
| 20260906101831 | 30 | 83 | 0.0 | 0.0 | 0.00 | 0.00 | 0.00 | 62 | 1018.5 |
| 20260906101829 | 30 | 24 | 1.6 | 8.0 | 0.00 | 0.00 | 0.00 | 45 | 1020.6 |
| 20260906101817 | 23 | 47 | 19.3 | 35.4 | 0.25 | 6.99 | 0.00 | 64 | 1021.3 |
| 20260906101815 | 28 | 84 | 1.6 | 4.8 | 0.00 | 0.00 | 0.00 | 50 | 1020.8 |
| 20260906101401 | 29 | 72 | 4.8 | 14.5 | 0.00 | 0.00 | 0.00 | 71 | 1022.4 |
| 20260906101350 | 28 | 63 | 0.0 | 9.7 | 0.00 | 0.00 | 0.00 | 39 | 1022.0 |
| 20260906101329 | 30 | 358 | 0.0 | 11.3 | 0.00 | 0.00 | 0.00 | 45 | 1020.8 |
| 20260906101322 | 27 | 26 | 9.7 | 22.5 | 0.00 | 0.00 | 0.00 | 68 | 1020.6 |
| 20260906101315 | 20 | 9 | 14.5 | 30.6 | 0.28 | 6.99 | 0.00 | 71 | 1015.6 |
| 20260906100901 | 26 | 58 | 14.5 | 17.7 | 0.00 | 0.00 | 0.00 | 52 | 1020.1 |
| 20260906100853 | 28 | 295 | 1.6 | 14.5 | 0.00 | 0.00 | 0.00 | 39 | 1022.1 |
| 20260906100835 | 30 | 59 | 3.2 | 8.0 | 0.00 | 0.00 | 0.00 | 45 | 1020.8 |
| 20260906100821 | 28 | 57 | 1.6 | 6.4 | 0.00 | 0.00 | 0.00 | 50 | 1020.9 |
| 20260906100817 | 27 | 49 | 11.3 | 24.1 | 0.00 | 0.00 | 0.00 | 70 | 1020.5 |
| 20260906100815 | 17 | 61 | 9.7 | 25.7 | 0.30 | 6.99 | 0.00 | 76 | 1010.2 |
| 20260906100401 | 29 | 88 | 1.6 | 16.1 | 0.00 | 0.00 | 0.00 | 72 | 1022.4 |
| 20260906100351 | 26 | 50 | 4.8 | 17.7 | 0.00 | 0.00 | 0.00 | 53 | 1020.2 |
| 20260906100334 | 28 | 83 | 0.0 | 0.0 | 0.00 | 0.00 | 0.00 | 69 | 1018.6 |
| 20260906100329 | 30 | 23 | 4.8 | 8.0 | 0.00 | 0.00 | 0.00 | 46 | 1020.9 |
| 20260906100320 | 27 | 34 | 9.7 | 22.5 | 0.00 | 0.00 | 0.00 | 69 | 1020.5 |
| 20260906100317 | 15 | 88 | 6.4 | 24.1 | 0.28 | 6.99 | 0.00 | 79 | 1007.5 |
| 20260906095901 | 29 | 134 | 4.8 | 16.1 | 0.00 | 0.00 | 0.00 | 71 | 1022.5 |
| 20260906095854 | 28 | 0 | 0.0 | 8.0 | 0.00 | 0.00 | 0.00 | 40 | 1022.3 |
| 20260906095832 | 29 | 17 | 3.2 | 11.3 | 0.00 | 0.00 | 0.00 | 46 | 1021.1 |
| 20260906095817 | 27 | 65 | 12.9 | 27.4 | 0.00 | 0.00 | 0.00 | 69 | 1020.6 |
| 20260906095815 | 28 | 168 | 6.4 | 8.0 | 0.00 | 0.00 | 0.00 | 50 | 1021.0 |
| 20260906095408 | 25 | 55 | 4.8 | 17.7 | 0.00 | 0.00 | 0.00 | 55 | 1020.1 |
| 20260906095401 | 29 | 54 | 3.2 | 12.9 | 0.00 | 0.00 | 0.00 | 72 | 1022.6 |
| 20260906095353 | 28 | 303 | 3.2 | 3.2 | 0.00 | 0.00 | 0.00 | 40 | 1022.4 |
| 20260906095335 | 29 | 24 | 0.0 | 9.7 | 0.00 | 0.00 | 0.00 | 46 | 1021.2 |
| 20260906095322 | 27 | 73 | 12.9 | 20.9 | 0.00 | 0.00 | 0.00 | 66 | 1020.6 |
| 20260906095318 | 18 | 36 | 11.3 | 33.8 | 0.25 | 6.99 | 0.00 | 74 | 1012.8 |
| 20260906095315 | 27 | 118 | 0.0 | 8.0 | 0.00 | 0.00 | 0.00 | 52 | 1021.1 |
| 20260906094913 | 29 | 52 | 6.4 | 11.3 | 0.00 | 0.00 | 0.00 | 73 | 1022.5 |
| 20260906094853 | 27 | 300 | 0.0 | 12.9 | 0.00 | 0.00 | 0.00 | 41 | 1022.5 |
| 20260906094840 | 26 | 82 | 0.0 | 0.0 | 0.00 | 0.00 | 0.00 | 74 | 1018.6 |
| 20260906094835 | 28 | 13 | 11.3 | 24.1 | 0.00 | 0.00 | 0.00 | 65 | 1020.6 |
| 20260906094829 | 28 | 344 | 3.2 | 14.5 | 0.00 | 0.00 | 0.00 | 46 | 1021.3 |
| 20260906094821 | 22 | 21 | 17.7 | 38.6 | 0.28 | 6.99 | 0.00 | 67 | 1018.6 |
| 20260906094812 | 27 | 112 | 3.2 | 8.0 | 0.00 | 0.00 | 0.00 | 52 | 1021.3 |
| 20260906094401 | 29 | 140 | 8.0 | 12.9 | 0.00 | 0.00 | 0.00 | 73 | 1022.5 |
| 20260906094354 | 25 | 81 | 3.2 | 17.7 | 0.00 | 0.00 | 0.00 | 55 | 1020.2 |
| 20260906094350 | 27 | 336 | 0.0 | 16.1 | 0.00 | 0.00 | 0.00 | 41 | 1022.7 |
| 20260906094329 | 28 | 64 | 8.0 | 14.5 | 0.00 | 0.00 | 0.00 | 45 | 1021.3 |
| 20260906094318 | 25 | 69 | 22.5 | 40.2 | 0.30 | 6.99 | 0.00 | 62 | 1023.6 |
| 20260906094315 | 26 | 65 | 4.8 | 9.7 | 0.00 | 0.00 | 0.00 | 54 | 1021.3 |
| 20260906093901 | 28 | 78 | 4.8 | 17.7 | 0.00 | 0.00 | 0.00 | 74 | 1022.6 |
| 20260906093850 | 25 | 29 | 14.5 | 22.5 | 0.00 | 0.00 | 0.00 | 55 | 1020.2 |
| 20260906093835 | 28 | 78 | 12.9 | 12.9 | 0.00 | 0.00 | 0.00 | 46 | 1021.4 |
| 20260906093818 | 28 | 40 | 16.1 | 17.7 | 0.00 | 0.00 | 0.00 | 65 | 1020.6 |
| 20260906093815 | 26 | 89 | 24.1 | 40.2 | 0.28 | 6.99 | 0.00 | 60 | 1025.6 |
| 20260906093812 | 26 | 169 | 0.0 | 8.0 | 0.00 | 0.00 | 0.00 | 55 | 1021.4 |
| 20260906093401 | 28 | 93 | 4.8 | 12.9 | 0.00 | 0.00 | 0.00 | 73 | 1022.6 |
| 20260906093359 | 25 | 65 | 12.9 | 22.5 | 0.00 | 0.00 | 0.00 | 54 | 1020.3 |
| 20260906093356 | 27 | 0 | 0.0 | 14.5 | 0.00 | 0.00 | 0.00 | 41 | 1022.8 |
| 20260906093334 | 26 | 43 | 0.0 | 0.0 | 0.00 | 0.00 | 0.00 | 78 | 1018.7 |
| 20260906093329 | 28 | 339 | 6.4 | 14.5 | 0.00 | 0.00 | 0.00 | 47 | 1021.4 |
| 20260906093320 | 28 | 44 | 14.5 | 19.3 | 0.00 | 0.00 | 0.00 | 64 | 1020.5 |
| 20260906093315 | 25 | 73 | 22.5 | 38.6 | 0.25 | 6.99 | 0.00 | 61 | 1023.9 |
| 20260906093313 | 26 | 72 | 6.4 | 9.7 | 0.00 | 0.00 | 0.00 | 55 | 1021.6 |
| 20260906092907 | 28 | 63 | 8.0 | 12.9 | 0.00 | 0.00 | 0.00 | 74 | 1022.6 |
| 20260906092851 | 25 | 46 | 8.0 | 19.3 | 0.00 | 0.00 | 0.00 | 55 | 1020.3 |
| 20260906092832 | 28 | 358 | 4.8 | 17.7 | 0.00 | 0.00 | 0.00 | 46 | 1021.5 |
| 20260906092820 | 28 | 13 | 12.9 | 24.1 | 0.00 | 0.00 | 0.00 | 61 | 1020.6 |
| 20260906092818 | 22 | 25 | 17.7 | 33.8 | 0.25 | 6.99 | 0.00 | 67 | 1019.1 |
| 20260906092812 | 26 | 93 | 0.0 | 8.0 | 0.00 | 0.00 | 0.00 | 54 | 1021.7 |
| 20260906092401 | 28 | 49 | 6.4 | 12.9 | 0.00 | 0.00 | 0.00 | 74 | 1022.5 |
| 20260906092356 | 25 | 71 | 4.8 | 19.3 | 0.00 | 0.00 | 0.00 | 55 | 1020.3 |
| 20260906092350 | 27 | 33 | 0.0 | 14.5 | 0.00 | 0.00 | 0.00 | 41 | 1022.9 |
| 20260906092329 | 28 | 324 | 1.6 | 14.5 | 0.00 | 0.00 | 0.00 | 47 | 1021.5 |
| 20260906092318 | 28 | 15 | 12.9 | 24.1 | 0.00 | 0.00 | 0.00 | 63 | 1020.5 |
| 20260906092315 | 18 | 31 | 12.9 | 29.0 | 0.30 | 6.99 | 0.00 | 73 | 1013.2 |
| 20260906092312 | 26 | 107 | 1.6 | 9.7 | 0.00 | 0.00 | 0.00 | 54 | 1021.6 |
| 20260906091907 | 28 | 63 | 3.2 | 16.1 | 0.00 | 0.00 | 0.00 | 73 | 1022.6 |
| 20260906091850 | 27 | 5 | 0.0 | 16.1 | 0.00 | 0.00 | 0.00 | 43 | 1022.9 |
| 20260906091831 | 25 | 43 | 0.0 | 0.0 | 0.00 | 0.00 | 0.00 | 81 | 1018.8 |
| 20260906091829 | 27 | 327 | 6.4 | 11.3 | 0.00 | 0.00 | 0.00 | 48 | 1021.6 |
| 20260906091823 | 28 | 17 | 8.0 | 17.7 | 0.00 | 0.00 | 0.00 | 64 | 1020.5 |
| 20260906091818 | 26 | 317 | 4.8 | 6.4 | 0.00 | 0.00 | 0.00 | 56 | 1021.8 |
| 20260906091815 | 16 | 76 | 8.0 | 24.1 | 0.30 | 6.99 | 0.00 | 78 | 1008.7 |
| 20260906091407 | 28 | 58 | 16.1 | 16.1 | 0.00 | 0.00 | 0.00 | 72 | 1022.6 |
| 20260906091350 | 24 | 81 | 11.3 | 16.1 | 0.00 | 0.00 | 0.00 | 57 | 1020.4 |
| 20260906091329 | 27 | 11 | 3.2 | 12.9 | 0.00 | 0.00 | 0.00 | 49 | 1021.7 |
| 20260906091320 | 28 | 40 | 9.7 | 17.7 | 0.00 | 0.00 | 0.00 | 63 | 1020.4 |
| 20260906091315 | 15 | 89 | 6.4 | 25.7 | 0.28 | 6.99 | 0.00 | 79 | 1007.4 |
| 20260906091309 | 26 | 83 | 4.8 | 4.8 | 0.00 | 0.00 | 0.00 | 58 | 1021.7 |
| 20260906090901 | 28 | 108 | 9.7 | 14.5 | 0.00 | 0.00 | 0.00 | 72 | 1022.6 |
| 20260906090853 | 24 | 39 | 6.4 | 22.5 | 0.00 | 0.00 | 0.00 | 57 | 1020.4 |
| 20260906090850 | 26 | 304 | 0.0 | 20.9 | 0.00 | 0.00 | 0.00 | 43 | 1023.2 |
| 20260906090832 | 27 | 353 | 6.4 | 11.3 | 0.00 | 0.00 | 0.00 | 50 | 1021.8 |
| 20260906090823 | 27 | 61 | 8.0 | 17.7 | 0.00 | 0.00 | 0.00 | 65 | 1020.5 |
| 20260906090818 | 17 | 65 | 9.7 | 30.6 | 0.25 | 6.99 | 0.00 | 77 | 1009.8 |
| 20260906090812 | 26 | 77 | 1.6 | 11.3 | 0.00 | 0.00 | 0.00 | 56 | 1021.8 |
| 20260906090401 | 28 | 93 | 4.8 | 14.5 | 0.00 | 0.00 | 0.00 | 72 | 1022.6 |
| 20260906090350 | 24 | 62 | 9.7 | 19.3 | 0.00 | 0.00 | 0.00 | 57 | 1020.4 |
| 20260906090337 | 25 | 108 | 0.0 | 0.0 | 0.00 | 0.00 | 0.00 | 84 | 1018.8 |
| 20260906090329 | 27 | 358 | 1.6 | 12.9 | 0.00 | 0.00 | 0.00 | 48 | 1021.8 |
| 20260906090320 | 28 | 28 | 6.4 | 16.1 | 0.00 | 0.00 | 0.00 | 64 | 1020.4 |
| 20260906090316 | 26 | 59 | 4.8 | 9.7 | 0.00 | 0.00 | 0.00 | 57 | 1021.8 |
| 20260906085904 | 28 | 118 | 6.4 | 14.5 | 0.00 | 0.00 | 0.00 | 72 | 1022.6 |
| 20260906085853 | 24 | 29 | 8.0 | 22.5 | 0.00 | 0.00 | 0.00 | 57 | 1020.3 |
| 20260906085850 | 26 | 355 | 9.7 | 16.1 | 0.00 | 0.00 | 0.00 | 45 | 1023.2 |
| 20260906085832 | 27 | 58 | 4.8 | 14.5 | 0.00 | 0.00 | 0.00 | 50 | 1021.8 |
| 20260906085820 | 27 | 9 | 6.4 | 16.1 | 0.00 | 0.00 | 0.00 | 65 | 1020.5 |
| 20260906085818 | 23 | 42 | 19.3 | 38.6 | 0.30 | 6.99 | 0.00 | 65 | 1020.8 |
| 20260906085809 | 26 | 94 | 0.0 | 4.8 | 0.00 | 0.00 | 0.00 | 58 | 1021.8 |
| 20260906085404 | 28 | 114 | 4.8 | 14.5 | 0.00 | 0.00 | 0.00 | 71 | 1022.6 |
| 20260906085351 | 24 | 51 | 14.5 | 24.1 | 0.00 | 0.00 | 0.00 | 57 | 1020.4 |
| 20260906085335 | 27 | 17 | 6.4 | 16.1 | 0.00 | 0.00 | 0.00 | 50 | 1021.8 |
| 20260906085325 | 28 | 34 | 9.7 | 16.1 | 0.00 | 0.00 | 0.00 | 63 | 1020.4 |
| 20260906085315 | 26 | 82 | 22.5 | 40.2 | 0.30 | 6.99 | 0.00 | 60 | 1024.8 |
| 20260906085309 | 25 | 14 | 0.0 | 8.0 | 0.00 | 0.00 | 0.00 | 58 | 1021.9 |
| 20260906084907 | 28 | 75 | 6.4 | 14.5 | 0.00 | 0.00 | 0.00 | 72 | 1022.6 |
| 20260906084859 | 26 | 0 | 9.7 | 19.3 | 0.00 | 0.00 | 0.00 | 46 | 1023.2 |
| 20260906084853 | 23 | 46 | 16.1 | 22.5 | 0.00 | 0.00 | 0.00 | 58 | 1020.3 |
| 20260906084834 | 24 | 106 | 0.0 | 0.0 | 0.00 | 0.00 | 0.00 | 87 | 1018.7 |
| 20260906084832 | 27 | 42 | 11.3 | 14.5 | 0.00 | 0.00 | 0.00 | 52 | 1021.9 |
| 20260906084818 | 26 | 87 | 24.1 | 40.2 | 0.25 | 6.99 | 0.00 | 60 | 1025.4 |
| 20260906084815 | 25 | 149 | 4.8 | 4.8 | 0.00 | 0.00 | 0.00 | 59 | 1022.0 |
| 20260906084404 | 27 | 111 | 4.8 | 12.9 | 0.00 | 0.00 | 0.00 | 71 | 1022.5 |
| 20260906084351 | 24 | 53 | 14.5 | 22.5 | 0.00 | 0.00 | 0.00 | 58 | 1020.3 |
| 20260906084329 | 26 | 324 | 4.8 | 17.7 | 0.00 | 0.00 | 0.00 | 50 | 1021.8 |
| 20260906084323 | 27 | 38 | 14.5 | 16.1 | 0.00 | 0.00 | 0.00 | 64 | 1020.4 |
| 20260906084318 | 24 | 56 | 20.9 | 37.0 | 0.25 | 6.99 | 0.00 | 63 | 1022.2 |
| 20260906084312 | 25 | 60 | 0.0 | 8.0 | 0.00 | 0.00 | 0.00 | 60 | 1022.0 |
| 20260906083901 | 27 | 96 | 9.7 | 12.9 | 0.00 | 0.00 | 0.00 | 71 | 1022.5 |
| 20260906083859 | 24 | 53 | 8.0 | 20.9 | 0.00 | 0.00 | 0.00 | 58 | 1020.2 |
| 20260906083850 | 26 | 5 | 12.9 | 19.3 | 0.00 | 0.00 | 0.00 | 45 | 1023.3 |
| 20260906083829 | 26 | 6 | 11.3 | 11.3 | 0.00 | 0.00 | 0.00 | 51 | 1021.9 |
| 20260906083817 | 27 | 37 | 6.4 | 19.3 | 0.00 | 0.00 | 0.00 | 65 | 1020.3 |
| 20260906083815 | 21 | 2 | 16.1 | 32.2 | 0.28 | 6.99 | 0.00 | 69 | 1016.7 |
| 20260906083809 | 25 | 102 | 3.2 | 8.0 | 0.00 | 0.00 | 0.00 | 61 | 1022.0 |
| 20260906083401 | 27 | 83 | 1.6 | 14.5 | 0.00 | 0.00 | 0.00 | 71 | 1022.4 |
| 20260906083350 | 24 | 33 | 14.5 | 22.5 | 0.00 | 0.00 | 0.00 | 57 | 1020.2 |
| 20260906083335 | 26 | 27 | 3.2 | 11.3 | 0.00 | 0.00 | 0.00 | 52 | 1021.9 |
| 20260906083331 | 23 | 106 | 0.0 | 0.0 | 0.00 | 0.00 | 0.00 | 88 | 1018.7 |
| 20260906083320 | 27 | 42 | 16.1 | 19.3 | 0.00 | 0.00 | 0.00 | 65 | 1020.3 |
| 20260906083315 | 25 | 50 | 0.0 | 6.4 | 0.00 | 0.00 | 0.00 | 62 | 1022.0 |
| 20260906082904 | 27 | 88 | 14.5 | 16.1 | 0.00 | 0.00 | 0.00 | 71 | 1022.5 |
| 20260906082850 | 24 | 18 | 11.3 | 16.1 | 0.00 | 0.00 | 0.00 | 58 | 1020.0 |
| 20260906082829 | 26 | 353 | 8.0 | 12.9 | 0.00 | 0.00 | 0.00 | 51 | 1022.0 |
| 20260906082826 | 27 | 19 | 8.0 | 16.1 | 0.00 | 0.00 | 0.00 | 63 | 1020.3 |
| 20260906082815 | 15 | 86 | 6.4 | 22.5 | 0.30 | 6.99 | 0.00 | 79 | 1007.7 |
| 20260906082812 | 25 | 5 | 1.6 | 6.4 | 0.00 | 0.00 | 0.00 | 61 | 1022.1 |
| 20260906082404 | 27 | 103 | 6.4 | 14.5 | 0.00 | 0.00 | 0.00 | 72 | 1022.4 |
| 20260906082354 | 23 | 39 | 6.4 | 22.5 | 0.00 | 0.00 | 0.00 | 59 | 1020.1 |
| 20260906082329 | 26 | 353 | 8.0 | 12.9 | 0.00 | 0.00 | 0.00 | 53 | 1022.0 |
| 20260906082317 | 28 | 0 | 12.9 | 19.3 | 0.00 | 0.00 | 0.00 | 63 | 1020.2 |
| 20260906082315 | 24 | 60 | 4.8 | 6.4 | 0.00 | 0.00 | 0.00 | 61 | 1022.1 |
| 20260906081904 | 27 | 113 | 9.7 | 12.9 | 0.00 | 0.00 | 0.00 | 71 | 1022.4 |
| 20260906081854 | 23 | 11 | 24.1 | 24.1 | 0.00 | 0.00 | 0.00 | 59 | 1020.1 |
| 20260906081834 | 23 | 106 | 0.0 | 0.0 | 0.00 | 0.00 | 0.00 | 89 | 1018.7 |
| 20260906081832 | 26 | 27 | 4.8 | 12.9 | 0.00 | 0.00 | 0.00 | 53 | 1022.1 |
| 20260906081824 | 27 | 34 | 8.0 | 19.3 | 0.00 | 0.00 | 0.00 | 62 | 1020.2 |
| 20260906081821 | 18 | 47 | 11.3 | 32.2 | 0.25 | 6.99 | 0.00 | 75 | 1011.7 |
| 20260906081815 | 24 | 103 | 0.0 | 0.0 | 0.00 | 0.00 | 0.00 | 60 | 1022.1 |
| 20260906081408 | 27 | 148 | 4.8 | 14.5 | 0.00 | 0.00 | 0.00 | 71 | 1022.5 |
| 20260906081353 | 25 | 335 | 0.0 | 22.5 | 0.00 | 0.00 | 0.00 | 47 | 1023.4 |
| 20260906081350 | 23 | 80 | 12.9 | 27.4 | 0.00 | 0.00 | 0.00 | 60 | 1020.2 |
| 20260906081329 | 25 | 50 | 6.4 | 9.7 | 0.00 | 0.00 | 0.00 | 53 | 1022.0 |
| 20260906081317 | 28 | 48 | 4.8 | 14.5 | 0.00 | 0.00 | 0.00 | 60 | 1020.2 |
| 20260906081315 | 21 | 9 | 16.1 | 37.0 | 0.28 | 6.99 | 0.00 | 68 | 1017.4 |
| 20260906081309 | 24 | 12 | 0.0 | 0.0 | 0.00 | 0.00 | 0.00 | 61 | 1022.1 |
| 20260906080907 | 27 | 143 | 6.4 | 14.5 | 0.00 | 0.00 | 0.00 | 72 | 1022.4 |
| 20260906080900 | 23 | 34 | 17.7 | 22.5 | 0.00 | 0.00 | 0.00 | 61 | 1020.1 |
| 20260906080850 | 25 | 106 | 0.0 | 17.7 | 0.00 | 0.00 | 0.00 | 49 | 1023.4 |
| 20260906080829 | 25 | 358 | 3.2 | 11.3 | 0.00 | 0.00 | 0.00 | 53 | 1022.0 |
| 20260906080818 | 28 | 36 | 8.0 | 14.5 | 0.00 | 0.00 | 0.00 | 60 | 1020.2 |
| 20260906080809 | 24 | 115 | 0.0 | 4.8 | 0.00 | 0.00 | 0.00 | 60 | 1022.1 |
| 20260906080407 | 27 | 101 | 6.4 | 14.5 | 0.00 | 0.00 | 0.00 | 71 | 1022.4 |
| 20260906080353 | 24 | 0 | 3.2 | 22.5 | 0.00 | 0.00 | 0.00 | 48 | 1023.5 |
| 20260906080332 | 25 | 13 | 3.2 | 17.7 | 0.00 | 0.00 | 0.00 | 54 | 1022.0 |
| 20260906080317 | 28 | 49 | 9.7 | 12.9 | 0.00 | 0.00 | 0.00 | 59 | 1020.1 |
| 20260906080315 | 24 | 24 | 0.0 | 4.8 | 0.00 | 0.00 | 0.00 | 63 | 1022.1 |
| 20260906075907 | 26 | 78 | 8.0 | 14.5 | 0.00 | 0.00 | 0.00 | 71 | 1022.3 |
| 20260906075856 | 23 | 37 | 16.1 | 24.1 | 0.00 | 0.00 | 0.00 | 62 | 1020.1 |
| 20260906075850 | 24 | 9 | 17.7 | 19.3 | 0.00 | 0.00 | 0.00 | 49 | 1023.5 |
| 20260906075829 | 25 | 45 | 8.0 | 17.7 | 0.00 | 0.00 | 0.00 | 52 | 1022.1 |
| 20260906075817 | 28 | 22 | 9.7 | 14.5 | 0.00 | 0.00 | 0.00 | 56 | 1020.1 |
| 20260906075815 | 26 | 79 | 22.5 | 38.6 | 0.25 | 6.99 | 0.00 | 61 | 1024.5 |
| 20260906075809 | 23 | 112 | 1.6 | 6.4 | 0.00 | 0.00 | 0.00 | 61 | 1022.2 |
| 20260906075401 | 26 | 111 | 4.8 | 12.9 | 0.00 | 0.00 | 0.00 | 71 | 1022.4 |
| 20260906075351 | 23 | 53 | 9.7 | 25.7 | 0.00 | 0.00 | 0.00 | 63 | 1020.1 |
| 20260906075332 | 25 | 358 | 1.6 | 12.9 | 0.00 | 0.00 | 0.00 | 54 | 1022.1 |
| 20260906075317 | 28 | 321 | 3.2 | 16.1 | 0.00 | 0.00 | 0.00 | 56 | 1020.1 |
| 20260906075315 | 23 | 36 | 19.3 | 35.4 | 0.25 | 6.99 | 0.00 | 65 | 1020.2 |
| 20260906075310 | 23 | 174 | 0.0 | 8.0 | 0.00 | 0.00 | 0.00 | 64 | 1022.1 |
| 20260906074901 | 26 | 44 | 3.2 | 14.5 | 0.00 | 0.00 | 0.00 | 71 | 1022.3 |
| 20260906074853 | 23 | 329 | 0.0 | 19.3 | 0.00 | 0.00 | 0.00 | 51 | 1023.4 |
| 20260906074851 | 22 | 61 | 9.7 | 25.7 | 0.00 | 0.00 | 0.00 | 63 | 1020.0 |
| 20260906074832 | 25 | 46 | 1.6 | 14.5 | 0.00 | 0.00 | 0.00 | 55 | 1022.2 |
| 20260906074824 | 20 | 21 | 12.9 | 29.0 | 0.28 | 6.99 | 0.00 | 72 | 1014.3 |
| 20260906074818 | 23 | 130 | 0.0 | 6.4 | 0.00 | 0.00 | 0.00 | 62 | 1022.2 |
| 20260906074410 | 26 | 120 | 3.2 | 12.9 | 0.00 | 0.00 | 0.00 | 71 | 1022.2 |
| 20260906074357 | 23 | 46 | 11.3 | 29.0 | 0.00 | 0.00 | 0.00 | 62 | 1020.0 |
| 20260906074329 | 25 | 353 | 3.2 | 8.0 | 0.00 | 0.00 | 0.00 | 56 | 1022.1 |
| 20260906074326 | 28 | 287 | 3.2 | 8.0 | 0.00 | 0.00 | 0.00 | 52 | 1020.0 |
| 20260906074321 | 16 | 69 | 8.0 | 24.1 | 0.30 | 6.99 | 0.00 | 77 | 1009.4 |
| 20260906074312 | 23 | 135 | 1.6 | 8.0 | 0.00 | 0.00 | 0.00 | 65 | 1022.1 |
| 20260906073901 | 26 | 108 | 9.7 | 14.5 | 0.00 | 0.00 | 0.00 | 71 | 1022.3 |
| 20260906073853 | 23 | 44 | 0.0 | 19.3 | 0.00 | 0.00 | 0.00 | 52 | 1023.5 |
| 20260906073835 | 24 | 31 | 1.6 | 12.9 | 0.00 | 0.00 | 0.00 | 55 | 1022.2 |
| 20260906073823 | 29 | 70 | 1.6 | 6.4 | 0.00 | 0.00 | 0.00 | 51 | 1020.0 |
| 20260906073818 | 15 | 89 | 6.4 | 24.1 | 0.28 | 6.99 | 0.00 | 79 | 1007.3 |
| 20260906073812 | 23 | 109 | 4.8 | 11.3 | 0.00 | 0.00 | 0.00 | 65 | 1022.1 |
| 20260906073404 | 26 | 75 | 6.4 | 11.3 | 0.00 | 0.00 | 0.00 | 71 | 1022.2 |
| 20260906073356 | 22 | 11 | 17.7 | 20.9 | 0.00 | 0.00 | 0.00 | 52 | 1023.4 |
| 20260906073354 | 23 | 74 | 16.1 | 22.5 | 0.00 | 0.00 | 0.00 | 62 | 1019.9 |
| 20260906073340 | 22 | 106 | 0.0 | 0.0 | 0.00 | 0.00 | 0.00 | 91 | 1018.5 |
| 20260906073329 | 24 | 348 | 8.0 | 11.3 | 0.00 | 0.00 | 0.00 | 55 | 1022.2 |
| 20260906073317 | 29 | 339 | 4.8 | 11.3 | 0.00 | 0.00 | 0.00 | 50 | 1020.0 |
| 20260906073315 | 22 | 119 | 6.4 | 6.4 | 0.00 | 0.00 | 0.00 | 66 | 1022.1 |
| 20260906072904 | 26 | 107 | 3.2 | 9.7 | 0.00 | 0.00 | 0.00 | 72 | 1022.2 |
| 20260906072854 | 23 | 19 | 17.7 | 25.7 | 0.00 | 0.00 | 0.00 | 61 | 1019.8 |
| 20260906072850 | 22 | 25 | 3.2 | 20.9 | 0.00 | 0.00 | 0.00 | 53 | 1023.4 |
| 20260906072829 | 24 | 2 | 3.2 | 14.5 | 0.00 | 0.00 | 0.00 | 55 | 1022.1 |
| 20260906072821 | 19 | 25 | 12.9 | 33.8 | 0.25 | 6.99 | 0.00 | 72 | 1013.9 |
| 20260906072817 | 29 | 71 | 4.8 | 4.8 | 0.00 | 0.00 | 0.00 | 50 | 1019.9 |
| 20260906072812 | 22 | 65 | 0.0 | 0.0 | 0.00 | 0.00 | 0.00 | 67 | 1022.1 |
| 20260906072401 | 26 | 61 | 3.2 | 11.3 | 0.00 | 0.00 | 0.00 | 74 | 1022.2 |
| 20260906072353 | 22 | 28 | 12.9 | 16.1 | 0.00 | 0.00 | 0.00 | 53 | 1023.5 |
| 20260906072351 | 23 | 351 | 12.9 | 24.1 | 0.00 | 0.00 | 0.00 | 61 | 1019.9 |
| 20260906072330 | 24 | 65 | 4.8 | 11.3 | 0.00 | 0.00 | 0.00 | 57 | 1022.1 |
| 20260906072323 | 29 | 30 | 3.2 | 6.4 | 0.00 | 0.00 | 0.00 | 50 | 1019.9 |
| 20260906072318 | 23 | 32 | 17.7 | 38.6 | 0.30 | 6.99 | 0.00 | 66 | 1019.7 |
| 20260906072309 | 22 | 123 | 0.0 | 0.0 | 0.00 | 0.00 | 0.00 | 68 | 1022.1 |
| 20260906071904 | 26 | 109 | 11.3 | 11.3 | 0.00 | 0.00 | 0.00 | 73 | 1022.2 |
| 20260906071856 | 22 | 28 | 17.7 | 25.7 | 0.00 | 0.00 | 0.00 | 61 | 1019.9 |
| 20260906071850 | 22 | 327 | 0.0 | 20.9 | 0.00 | 0.00 | 0.00 | 53 | 1023.5 |
| 20260906071834 | 22 | 106 | 0.0 | 0.0 | 0.00 | 0.00 | 0.00 | 90 | 1018.3 |
| 20260906071829 | 23 | 2 | 11.3 | 11.3 | 0.00 | 0.00 | 0.00 | 57 | 1022.1 |
| 20260906071824 | 26 | 76 | 22.5 | 40.2 | 0.30 | 6.99 | 0.00 | 61 | 1024.2 |
| 20260906071818 | 28 | 279 | 1.6 | 6.4 | 0.00 | 0.00 | 0.00 | 50 | 1019.8 |
| 20260906071815 | 22 | 125 | 0.0 | 0.0 | 0.00 | 0.00 | 0.00 | 70 | 1022.1 |
| 20260906071404 | 26 | 55 | 3.2 | 11.3 | 0.00 | 0.00 | 0.00 | 73 | 1022.2 |
| 20260906071400 | 22 | 48 | 22.5 | 22.5 | 0.00 | 0.00 | 0.00 | 61 | 1019.9 |
| 20260906071350 | 22 | 317 | 4.8 | 19.3 | 0.00 | 0.00 | 0.00 | 53 | 1023.5 |
| 20260906071329 | 23 | 337 | 8.0 | 9.7 | 0.00 | 0.00 | 0.00 | 57 | 1022.1 |
| 20260906071326 | 28 | 77 | 3.2 | 8.0 | 0.00 | 0.00 | 0.00 | 50 | 1019.8 |
| 20260906071321 | 26 | 89 | 24.1 | 40.2 | 0.28 | 6.99 | 0.00 | 60 | 1025.6 |
| 20260906071319 | 22 | 126 | 0.0 | 0.0 | 0.00 | 0.00 | 0.00 | 74 | 1022.1 |
| 20260906070914 | 22 | 11 | 12.9 | 27.4 | 0.00 | 0.00 | 0.00 | 61 | 1019.8 |
| 20260906070907 | 26 | 101 | 3.2 | 8.0 | 0.00 | 0.00 | 0.00 | 75 | 1022.1 |
| 20260906070850 | 22 | 350 | 9.7 | 11.3 | 0.00 | 0.00 | 0.00 | 53 | 1023.5 |
| 20260906070832 | 23 | 26 | 6.4 | 11.3 | 0.00 | 0.00 | 0.00 | 59 | 1022.2 |
| 20260906070819 | 28 | 300 | 1.6 | 4.8 | 0.00 | 0.00 | 0.00 | 49 | 1019.8 |
| 20260906070809 | 21 | 126 | 0.0 | 0.0 | 0.00 | 0.00 | 0.00 | 74 | 1022.2 |
| 20260906070404 | 26 | 106 | 1.6 | 9.7 | 0.00 | 0.00 | 0.00 | 75 | 1022.1 |
| 20260906070351 | 22 | 17 | 20.9 | 22.5 | 0.00 | 0.00 | 0.00 | 61 | 1019.8 |
| 20260906070331 | 22 | 106 | 0.0 | 0.0 | 0.00 | 0.00 | 0.00 | 90 | 1018.3 |
| 20260906070329 | 23 | 6 | 3.2 | 14.5 | 0.00 | 0.00 | 0.00 | 58 | 1022.1 |
| 20260906070320 | 28 | 209 | 0.0 | 6.4 | 0.00 | 0.00 | 0.00 | 51 | 1019.8 |
| 20260906070315 | 22 | 14 | 16.1 | 32.2 | 0.28 | 6.99 | 0.00 | 68 | 1017.9 |
| 20260906070309 | 21 | 127 | 0.0 | 0.0 | 0.00 | 0.00 | 0.00 | 75 | 1022.2 |
| 20260906065907 | 26 | 148 | 4.8 | 6.4 | 0.00 | 0.00 | 0.00 | 76 | 1022.0 |
| 20260906065851 | 22 | 51 | 6.4 | 19.3 | 0.00 | 0.00 | 0.00 | 62 | 1019.7 |
| 20260906065832 | 23 | 13 | 3.2 | 14.5 | 0.00 | 0.00 | 0.00 | 60 | 1022.0 |
| 20260906065823 | 28 | 319 | 3.2 | 6.4 | 0.00 | 0.00 | 0.00 | 51 | 1019.7 |
| 20260906065818 | 18 | 42 | 11.3 | 27.4 | 0.30 | 6.99 | 0.00 | 74 | 1012.1 |
| 20260906065810 | 21 | 136 | 0.0 | 0.0 | 0.00 | 0.00 | 0.00 | 76 | 1022.2 |
| 20260906065401 | 25 | 94 | 6.4 | 9.7 | 0.00 | 0.00 | 0.00 | 76 | 1022.0 |
| 20260906065359 | 22 | 355 | 12.9 | 19.3 | 0.00 | 0.00 | 0.00 | 54 | 1023.4 |
| 20260906065351 | 22 | 28 | 19.3 | 22.5 | 0.00 | 0.00 | 0.00 | 62 | 1019.6 |
| 20260906065332 | 23 | 17 | 6.4 | 8.0 | 0.00 | 0.00 | 0.00 | 60 | 1022.0 |
| 20260906065323 | 27 | 285 | 1.6 | 6.4 | 0.00 | 0.00 | 0.00 | 51 | 1019.7 |
| 20260906065315 | 16 | 82 | 8.0 | 24.1 | 0.30 | 6.99 | 0.00 | 79 | 1008.1 |
| 20260906064901 | 25 | 112 | 6.4 | 6.4 | 0.00 | 0.00 | 0.00 | 76 | 1021.9 |
| 20260906064851 | 22 | 114 | 6.4 | 20.9 | 0.00 | 0.00 | 0.00 | 63 | 1019.7 |
| 20260906064835 | 22 | 19 | 1.6 | 11.3 | 0.00 | 0.00 | 0.00 | 62 | 1022.0 |
| 20260906064831 | 21 | 106 | 0.0 | 0.0 | 0.00 | 0.00 | 0.00 | 90 | 1018.3 |
| 20260906064823 | 27 | 275 | 1.6 | 4.8 | 0.00 | 0.00 | 0.00 | 52 | 1019.7 |
| 20260906064818 | 15 | 87 | 6.4 | 25.7 | 0.28 | 6.99 | 0.00 | 79 | 1007.6 |
| 20260906064809 | 21 | 130 | 0.0 | 0.0 | 0.00 | 0.00 | 0.00 | 77 | 1022.1 |
| 20260906064407 | 25 | 116 | 1.6 | 9.7 | 0.00 | 0.00 | 0.00 | 78 | 1021.9 |
| 20260906064356 | 21 | 21 | 0.0 | 17.7 | 0.00 | 0.00 | 0.00 | 55 | 1023.3 |
| 20260906064354 | 22 | 0 | 9.7 | 25.7 | 0.00 | 0.00 | 0.00 | 63 | 1019.6 |
| 20260906064332 | 22 | 25 | 1.6 | 11.3 | 0.00 | 0.00 | 0.00 | 63 | 1022.0 |
| 20260906064318 | 17 | 56 | 9.7 | 30.6 | 0.25 | 6.99 | 0.00 | 76 | 1010.7 |
| 20260906064310 | 21 | 127 | 0.0 | 0.0 | 0.00 | 0.00 | 0.00 | 77 | 1022.1 |
| 20260906063907 | 25 | 94 | 3.2 | 11.3 | 0.00 | 0.00 | 0.00 | 78 | 1021.8 |
| 20260906063850 | 21 | 36 | 9.7 | 20.9 | 0.00 | 0.00 | 0.00 | 56 | 1023.5 |
| 20260906063829 | 22 | 20 | 1.6 | 8.0 | 0.00 | 0.00 | 0.00 | 65 | 1022.0 |
| 20260906063821 | 27 | 244 | 3.2 | 4.8 | 0.00 | 0.00 | 0.00 | 51 | 1019.6 |
| 20260906063815 | 21 | 2 | 14.5 | 37.0 | 0.28 | 6.99 | 0.00 | 70 | 1016.2 |
| 20260906063809 | 21 | 35 | 0.0 | 0.0 | 0.00 | 0.00 | 0.00 | 81 | 1022.1 |
| 20260906063401 | 25 | 121 | 4.8 | 11.3 | 0.00 | 0.00 | 0.00 | 80 | 1021.8 |
| 20260906063356 | 21 | 36 | 14.5 | 22.5 | 0.00 | 0.00 | 0.00 | 56 | 1023.4 |
| 20260906063351 | 22 | 311 | 14.5 | 22.5 | 0.00 | 0.00 | 0.00 | 63 | 1019.5 |
| 20260906063331 | 21 | 106 | 0.0 | 0.0 | 0.00 | 0.00 | 0.00 | 90 | 1018.3 |
| 20260906063329 | 22 | 348 | 1.6 | 8.0 | 0.00 | 0.00 | 0.00 | 65 | 1021.9 |
| 20260906063321 | 24 | 52 | 20.9 | 40.2 | 0.30 | 6.99 | 0.00 | 64 | 1021.8 |
| 20260906063313 | 20 | 35 | 0.0 | 0.0 | 0.00 | 0.00 | 0.00 | 81 | 1022.1 |
| 20260906062906 | 22 | 28 | 12.9 | 19.3 | 0.00 | 0.00 | 0.00 | 64 | 1019.5 |
| 20260906062901 | 25 | 117 | 1.6 | 9.7 | 0.00 | 0.00 | 0.00 | 81 | 1021.8 |
| 20260906062850 | 21 | 29 | 8.0 | 17.7 | 0.00 | 0.00 | 0.00 | 56 | 1023.4 |
| 20260906062832 | 21 | 296 | 4.8 | 6.4 | 0.00 | 0.00 | 0.00 | 65 | 1021.9 |
| 20260906062820 | 28 | 320 | 1.6 | 6.4 | 0.00 | 0.00 | 0.00 | 52 | 1019.4 |
| 20260906062815 | 26 | 86 | 24.1 | 40.2 | 0.30 | 6.99 | 0.00 | 60 | 1025.2 |
| 20260906062812 | 20 | 35 | 0.0 | 0.0 | 0.00 | 0.00 | 0.00 | 82 | 1022.0 |
| 20260906062401 | 25 | 117 | 4.8 | 6.4 | 0.00 | 0.00 | 0.00 | 81 | 1021.9 |
| 20260906062359 | 21 | 33 | 12.9 | 19.3 | 0.00 | 0.00 | 0.00 | 56 | 1023.4 |
| 20260906062351 | 22 | 17 | 6.4 | 24.1 | 0.00 | 0.00 | 0.00 | 64 | 1019.4 |
| 20260906062329 | 21 | 263 | 3.2 | 6.4 | 0.00 | 0.00 | 0.00 | 68 | 1021.9 |
| 20260906062318 | 26 | 84 | 24.1 | 40.2 | 0.25 | 6.99 | 0.00 | 60 | 1025.0 |
| 20260906062309 | 20 | 35 | 0.0 | 0.0 | 0.00 | 0.00 | 0.00 | 82 | 1022.0 |
| 20260906061901 | 25 | 109 | 3.2 | 6.4 | 0.00 | 0.00 | 0.00 | 81 | 1021.7 |
| 20260906061856 | 21 | 38 | 3.2 | 14.5 | 0.00 | 0.00 | 0.00 | 56 | 1023.3 |
| 20260906061851 | 22 | 350 | 19.3 | 24.1 | 0.00 | 0.00 | 0.00 | 64 | 1019.3 |
| 20260906061837 | 21 | 106 | 0.0 | 0.0 | 0.00 | 0.00 | 0.00 | 90 | 1018.1 |
| 20260906061832 | 20 | 311 | 6.4 | 6.4 | 0.00 | 0.00 | 0.00 | 70 | 1021.9 |
| 20260906061824 | 23 | 47 | 19.3 | 35.4 | 0.25 | 6.99 | 0.00 | 64 | 1021.3 |
| 20260906061820 | 28 | 9 | 3.2 | 3.2 | 0.00 | 0.00 | 0.00 | 52 | 1019.3 |
| 20260906061815 | 20 | 35 | 0.0 | 0.0 | 0.00 | 0.00 | 0.00 | 83 | 1021.9 |
| 20260906061401 | 25 | 127 | 3.2 | 4.8 | 0.00 | 0.00 | 0.00 | 82 | 1021.8 |
| 20260906061351 | 22 | 21 | 8.0 | 22.5 | 0.00 | 0.00 | 0.00 | 64 | 1019.4 |
| 20260906061332 | 20 | 40 | 0.0 | 0.0 | 0.00 | 0.00 | 0.00 | 73 | 1021.8 |
| 20260906061317 | 27 | 15 | 3.2 | 6.4 | 0.00 | 0.00 | 0.00 | 53 | 1019.3 |
| 20260906061315 | 20 | 9 | 14.5 | 30.6 | 0.28 | 6.99 | 0.00 | 71 | 1015.5 |
| 20260906061312 | 20 | 35 | 0.0 | 0.0 | 0.00 | 0.00 | 0.00 | 82 | 1021.9 |
| 20260906060901 | 25 | 153 | 3.2 | 6.4 | 0.00 | 0.00 | 0.00 | 82 | 1021.7 |
| 20260906060856 | 21 | 26 | 0.0 | 14.5 | 0.00 | 0.00 | 0.00 | 57 | 1023.3 |
| 20260906060851 | 22 | 46 | 16.1 | 22.5 | 0.00 | 0.00 | 0.00 | 65 | 1019.3 |
| 20260906060829 | 18 | 60 | 0.0 | 0.0 | 0.00 | 0.00 | 0.00 | 75 | 1021.7 |
| 20260906060821 | 27 | 263 | 1.6 | 4.8 | 0.00 | 0.00 | 0.00 | 52 | 1019.3 |
| 20260906060818 | 20 | 35 | 0.0 | 0.0 | 0.00 | 0.00 | 0.00 | 85 | 1021.9 |
| 20260906060404 | 24 | 113 | 1.6 | 3.2 | 0.00 | 0.00 | 0.00 | 81 | 1021.7 |
| 20260906060355 | 22 | 333 | 14.5 | 25.7 | 0.00 | 0.00 | 0.00 | 65 | 1019.2 |
| 20260906060350 | 21 | 19 | 17.7 | 20.9 | 0.00 | 0.00 | 0.00 | 57 | 1023.2 |
| 20260906060331 | 21 | 106 | 0.0 | 0.0 | 0.00 | 0.00 | 0.00 | 89 | 1017.8 |
| 20260906060329 | 18 | 66 | 0.0 | 0.0 | 0.00 | 0.00 | 0.00 | 77 | 1021.8 |
| 20260906060317 | 26 | 273 | 4.8 | 6.4 | 0.00 | 0.00 | 0.00 | 52 | 1019.2 |
| 20260906060315 | 15 | 88 | 6.4 | 24.1 | 0.28 | 6.99 | 0.00 | 79 | 1007.4 |
| 20260906060309 | 19 | 35 | 0.0 | 0.0 | 0.00 | 0.00 | 0.00 | 85 | 1021.9 |
| 20260906055901 | 24 | 113 | 3.2 | 4.8 | 0.00 | 0.00 | 0.00 | 81 | 1021.8 |
| 20260906055853 | 21 | 22 | 6.4 | 19.3 | 0.00 | 0.00 | 0.00 | 58 | 1023.1 |
| 20260906055851 | 22 | 351 | 4.8 | 19.3 | 0.00 | 0.00 | 0.00 | 65 | 1019.2 |
| 20260906055829 | 18 | 66 | 0.0 | 0.0 | 0.00 | 0.00 | 0.00 | 78 | 1021.7 |
| 20260906055824 | 26 | 290 | 4.8 | 4.8 | 0.00 | 0.00 | 0.00 | 55 | 1019.3 |
| 20260906055821 | 16 | 79 | 8.0 | 27.4 | 0.25 | 6.99 | 0.00 | 78 | 1008.5 |
| 20260906055818 | 18 | 35 | 0.0 | 0.0 | 0.00 | 0.00 | 0.00 | 86 | 1021.8 |
| 20260906055401 | 24 | 113 | 1.6 | 4.8 | 0.00 | 0.00 | 0.00 | 82 | 1021.5 |
| 20260906055351 | 21 | 42 | 9.7 | 20.9 | 0.00 | 0.00 | 0.00 | 66 | 1019.1 |
| 20260906055329 | 18 | 66 | 0.0 | 0.0 | 0.00 | 0.00 | 0.00 | 77 | 1021.6 |
| 20260906055317 | 27 | 302 | 3.2 | 4.8 | 0.00 | 0.00 | 0.00 | 56 | 1019.1 |
| 20260906055315 | 18 | 36 | 11.3 | 33.8 | 0.25 | 6.99 | 0.00 | 74 | 1012.8 |
| 20260906054904 | 23 | 113 | 1.6 | 4.8 | 0.00 | 0.00 | 0.00 | 82 | 1021.5 |
| 20260906054854 | 21 | 351 | 6.4 | 20.9 | 0.00 | 0.00 | 0.00 | 65 | 1019.0 |
| 20260906054832 | 18 | 66 | 0.0 | 0.0 | 0.00 | 0.00 | 0.00 | 77 | 1021.6 |
| 20260906054818 | 27 | 331 | 1.6 | 4.8 | 0.00 | 0.00 | 0.00 | 59 | 1019.1 |
| 20260906054815 | 22 | 21 | 17.7 | 38.6 | 0.28 | 6.99 | 0.00 | 67 | 1018.6 |
| 20260906054812 | 18 | 35 | 0.0 | 0.0 | 0.00 | 0.00 | 0.00 | 87 | 1021.7 |
| 20260906054401 | 23 | 113 | 3.2 | 4.8 | 0.00 | 0.00 | 0.00 | 83 | 1021.5 |
| 20260906054354 | 21 | 0 | 12.9 | 22.5 | 0.00 | 0.00 | 0.00 | 66 | 1019.0 |
| 20260906054350 | 20 | 23 | 12.9 | 17.7 | 0.00 | 0.00 | 0.00 | 59 | 1022.9 |
| 20260906054329 | 18 | 66 | 0.0 | 0.0 | 0.00 | 0.00 | 0.00 | 78 | 1021.5 |
| 20260906054317 | 27 | 32 | 1.6 | 6.4 | 0.00 | 0.00 | 0.00 | 60 | 1019.0 |
| 20260906054315 | 25 | 69 | 22.5 | 40.2 | 0.30 | 6.99 | 0.00 | 62 | 1023.6 |
| 20260906053907 | 23 | 113 | 0.0 | 4.8 | 0.00 | 0.00 | 0.00 | 83 | 1021.4 |
| 20260906053859 | 20 | 45 | 3.2 | 17.7 | 0.00 | 0.00 | 0.00 | 59 | 1022.8 |
| 20260906053851 | 21 | 61 | 14.5 | 19.3 | 0.00 | 0.00 | 0.00 | 66 | 1019.0 |
| 20260906053832 | 17 | 66 | 0.0 | 0.0 | 0.00 | 0.00 | 0.00 | 79 | 1021.5 |
| 20260906053820 | 27 | 5 | 6.4 | 6.4 | 0.00 | 0.00 | 0.00 | 58 | 1019.1 |
| 20260906053815 | 26 | 89 | 24.1 | 40.2 | 0.28 | 6.99 | 0.00 | 60 | 1025.6 |
| 20260906053809 | 18 | 35 | 0.0 | 0.0 | 0.00 | 0.00 | 0.00 | 88 | 1021.6 |
| 20260906053401 | 23 | 113 | 0.0 | 3.2 | 0.00 | 0.00 | 0.00 | 83 | 1021.4 |
| 20260906053356 | 20 | 38 | 14.5 | 14.5 | 0.00 | 0.00 | 0.00 | 59 | 1022.8 |
| 20260906053343 | 21 | 106 | 0.0 | 0.0 | 0.00 | 0.00 | 0.00 | 89 | 1017.6 |
| 20260906053329 | 17 | 66 | 0.0 | 0.0 | 0.00 | 0.00 | 0.00 | 80 | 1021.4 |
| 20260906053327 | 27 | 325 | 4.8 | 4.8 | 0.00 | 0.00 | 0.00 | 52 | 1018.9 |
| 20260906053315 | 25 | 72 | 22.5 | 38.6 | 0.25 | 6.99 | 0.00 | 61 | 1023.9 |
| 20260906052901 | 23 | 113 | 1.6 | 3.2 | 0.00 | 0.00 | 0.00 | 83 | 1021.3 |
| 20260906052856 | 20 | 13 | 14.5 | 14.5 | 0.00 | 0.00 | 0.00 | 59 | 1022.7 |
| 20260906052854 | 21 | 344 | 8.0 | 24.1 | 0.00 | 0.00 | 0.00 | 67 | 1018.9 |
| 20260906052832 | 17 | 66 | 0.0 | 0.0 | 0.00 | 0.00 | 0.00 | 80 | 1021.4 |
| 20260906052818 | 22 | 25 | 17.7 | 33.8 | 0.25 | 6.99 | 0.00 | 67 | 1019.1 |
| 20260906052812 | 17 | 35 | 0.0 | 0.0 | 0.00 | 0.00 | 0.00 | 88 | 1021.5 |
| 20260906052401 | 23 | 113 | 0.0 | 3.2 | 0.00 | 0.00 | 0.00 | 84 | 1021.2 |
| 20260906052351 | 21 | 325 | 12.9 | 22.5 | 0.00 | 0.00 | 0.00 | 68 | 1018.8 |
| 20260906052332 | 17 | 66 | 0.0 | 0.0 | 0.00 | 0.00 | 0.00 | 80 | 1021.3 |
| 20260906052326 | 27 | 325 | 3.2 | 4.8 | 0.00 | 0.00 | 0.00 | 53 | 1018.9 |
| 20260906052315 | 18 | 32 | 12.9 | 29.0 | 0.30 | 6.99 | 0.00 | 73 | 1013.2 |
| 20260906052309 | 17 | 35 | 0.0 | 0.0 | 0.00 | 0.00 | 0.00 | 88 | 1021.5 |
| 20260906051901 | 23 | 113 | 0.0 | 4.8 | 0.00 | 0.00 | 0.00 | 84 | 1021.2 |
| 20260906051854 | 21 | 18 | 12.9 | 24.1 | 0.00 | 0.00 | 0.00 | 68 | 1018.8 |
| 20260906051835 | 21 | 106 | 0.0 | 0.0 | 0.00 | 0.00 | 0.00 | 89 | 1017.5 |
| 20260906051829 | 17 | 66 | 0.0 | 0.0 | 0.00 | 0.00 | 0.00 | 80 | 1021.2 |
| 20260906051817 | 27 | 348 | 4.8 | 6.4 | 0.00 | 0.00 | 0.00 | 53 | 1018.8 |
| 20260906051815 | 16 | 76 | 8.0 | 24.1 | 0.30 | 6.99 | 0.00 | 78 | 1008.7 |
| 20260906051404 | 23 | 113 | 3.2 | 4.8 | 0.00 | 0.00 | 0.00 | 85 | 1021.3 |
| 20260906051354 | 21 | 34 | 3.2 | 20.9 | 0.00 | 0.00 | 0.00 | 69 | 1018.7 |
| 20260906051350 | 20 | 30 | 8.0 | 17.7 | 0.00 | 0.00 | 0.00 | 59 | 1022.5 |
| 20260906051332 | 17 | 66 | 0.0 | 0.0 | 0.00 | 0.00 | 0.00 | 80 | 1021.2 |
| 20260906051318 | 15 | 89 | 6.4 | 25.7 | 0.28 | 6.99 | 0.00 | 79 | 1007.4 |
| 20260906051310 | 17 | 35 | 0.0 | 0.0 | 0.00 | 0.00 | 0.00 | 88 | 1021.4 |
| 20260906050907 | 23 | 94 | 0.0 | 3.2 | 0.00 | 0.00 | 0.00 | 86 | 1021.2 |
| 20260906050857 | 21 | 62 | 6.4 | 19.3 | 0.00 | 0.00 | 0.00 | 69 | 1018.8 |
| 20260906050853 | 20 | 24 | 4.8 | 14.5 | 0.00 | 0.00 | 0.00 | 59 | 1022.5 |
| 20260906050838 | 17 | 66 | 0.0 | 0.0 | 0.00 | 0.00 | 0.00 | 80 | 1021.3 |
| 20260906050826 | 26 | 315 | 3.2 | 6.4 | 0.00 | 0.00 | 0.00 | 52 | 1018.7 |
| 20260906050815 | 17 | 65 | 9.7 | 30.6 | 0.25 | 6.99 | 0.00 | 77 | 1009.8 |
| 20260906050812 | 17 | 35 | 0.0 | 0.0 | 0.00 | 0.00 | 0.00 | 88 | 1021.4 |
| 20260906050401 | 23 | 94 | 1.6 | 3.2 | 0.00 | 0.00 | 0.00 | 86 | 1021.1 |
| 20260906050352 | 21 | 32 | 9.7 | 27.4 | 0.00 | 0.00 | 0.00 | 70 | 1018.8 |
| 20260906050350 | 20 | 16 | 1.6 | 16.1 | 0.00 | 0.00 | 0.00 | 58 | 1022.5 |
| 20260906050337 | 21 | 106 | 0.0 | 0.0 | 0.00 | 0.00 | 0.00 | 89 | 1017.4 |
| 20260906050329 | 17 | 66 | 0.0 | 0.0 | 0.00 | 0.00 | 0.00 | 81 | 1021.2 |
| 20260906050326 | 26 | 309 | 4.8 | 6.4 | 0.00 | 0.00 | 0.00 | 51 | 1018.7 |
| 20260906050315 | 20 | 14 | 14.5 | 35.4 | 0.28 | 6.99 | 0.00 | 71 | 1015.1 |
| 20260906050313 | 17 | 35 | 0.0 | 0.0 | 0.00 | 0.00 | 0.00 | 88 | 1021.4 |
| 20260906045901 | 23 | 94 | 1.6 | 3.2 | 0.00 | 0.00 | 0.00 | 86 | 1021.0 |
| 20260906045853 | 20 | 355 | 1.6 | 16.1 | 0.00 | 0.00 | 0.00 | 58 | 1022.4 |
| 20260906045851 | 21 | 27 | 22.5 | 22.5 | 0.00 | 0.00 | 0.00 | 70 | 1018.7 |
| 20260906045832 | 17 | 66 | 0.0 | 0.0 | 0.00 | 0.00 | 0.00 | 81 | 1021.1 |
| 20260906045817 | 26 | 306 | 3.2 | 8.0 | 0.00 | 0.00 | 0.00 | 51 | 1018.7 |
| 20260906045812 | 17 | 36 | 0.0 | 0.0 | 0.00 | 0.00 | 0.00 | 89 | 1021.3 |
| 20260906045404 | 23 | 94 | 1.6 | 4.8 | 0.00 | 0.00 | 0.00 | 87 | 1020.9 |
| 20260906045356 | 20 | 355 | 0.0 | 12.9 | 0.00 | 0.00 | 0.00 | 58 | 1022.4 |
| 20260906045351 | 21 | 28 | 9.7 | 32.2 | 0.00 | 0.00 | 0.00 | 70 | 1018.8 |
| 20260906045335 | 17 | 66 | 0.0 | 0.0 | 0.00 | 0.00 | 0.00 | 80 | 1021.1 |
| 20260906045320 | 26 | 327 | 3.2 | 6.4 | 0.00 | 0.00 | 0.00 | 50 | 1018.6 |
| 20260906045318 | 26 | 82 | 22.5 | 40.2 | 0.30 | 6.99 | 0.00 | 60 | 1024.8 |
| 20260906045312 | 17 | 36 | 0.0 | 0.0 | 0.00 | 0.00 | 0.00 | 88 | 1021.2 |
| 20260906044904 | 23 | 86 | 0.0 | 4.8 | 0.00 | 0.00 | 0.00 | 87 | 1020.8 |
| 20260906044851 | 21 | 30 | 6.4 | 19.3 | 0.00 | 0.00 | 0.00 | 70 | 1018.8 |
| 20260906044841 | 21 | 106 | 0.0 | 0.0 | 0.00 | 0.00 | 0.00 | 89 | 1017.3 |
| 20260906044832 | 17 | 66 | 0.0 | 0.0 | 0.00 | 0.00 | 0.00 | 80 | 1021.0 |
| 20260906044821 | 26 | 327 | 6.4 | 6.4 | 0.00 | 0.00 | 0.00 | 50 | 1018.6 |
| 20260906044818 | 26 | 87 | 24.1 | 40.2 | 0.25 | 6.99 | 0.00 | 60 | 1025.4 |
| 20260906044809 | 17 | 35 | 0.0 | 0.0 | 0.00 | 0.00 | 0.00 | 89 | 1021.2 |
| 20260906044401 | 23 | 81 | 1.6 | 4.8 | 0.00 | 0.00 | 0.00 | 88 | 1020.8 |
| 20260906044354 | 20 | 11 | 16.1 | 22.5 | 0.00 | 0.00 | 0.00 | 70 | 1018.7 |
| 20260906044350 | 21 | 36 | 0.0 | 9.7 | 0.00 | 0.00 | 0.00 | 59 | 1022.3 |
| 20260906044332 | 17 | 66 | 0.0 | 0.0 | 0.00 | 0.00 | 0.00 | 80 | 1021.0 |
| 20260906044317 | 26 | 310 | 4.8 | 4.8 | 0.00 | 0.00 | 0.00 | 51 | 1018.6 |
| 20260906044315 | 24 | 56 | 20.9 | 37.0 | 0.25 | 6.99 | 0.00 | 63 | 1022.2 |
| 20260906044312 | 17 | 24 | 0.0 | 0.0 | 0.00 | 0.00 | 0.00 | 89 | 1021.2 |
| 20260906043904 | 23 | 74 | 3.2 | 6.4 | 0.00 | 0.00 | 0.00 | 88 | 1020.7 |
| 20260906043859 | 21 | 5 | 0.0 | 9.7 | 0.00 | 0.00 | 0.00 | 58 | 1022.3 |
| 20260906043852 | 20 | 336 | 8.0 | 19.3 | 0.00 | 0.00 | 0.00 | 70 | 1018.6 |
| 20260906043832 | 17 | 66 | 0.0 | 0.0 | 0.00 | 0.00 | 0.00 | 80 | 1020.9 |
| 20260906043827 | 26 | 310 | 3.2 | 4.8 | 0.00 | 0.00 | 0.00 | 52 | 1018.5 |
| 20260906043818 | 21 | 2 | 16.1 | 32.2 | 0.28 | 6.99 | 0.00 | 69 | 1016.7 |
| 20260906043809 | 17 | 22 | 0.0 | 0.0 | 0.00 | 0.00 | 0.00 | 89 | 1021.2 |
| 20260906043407 | 23 | 77 | 1.6 | 3.2 | 0.00 | 0.00 | 0.00 | 88 | 1020.7 |
| 20260906043356 | 21 | 0 | 0.0 | 8.0 | 0.00 | 0.00 | 0.00 | 58 | 1022.3 |
| 20260906043354 | 20 | 323 | 8.0 | 17.7 | 0.00 | 0.00 | 0.00 | 70 | 1018.6 |
| 20260906043335 | 21 | 106 | 0.0 | 0.0 | 0.00 | 0.00 | 0.00 | 89 | 1017.2 |
| 20260906043332 | 17 | 66 | 0.0 | 0.0 | 0.00 | 0.00 | 0.00 | 80 | 1020.9 |
| 20260906043327 | 26 | 310 | 3.2 | 4.8 | 0.00 | 0.00 | 0.00 | 52 | 1018.5 |
| 20260906043321 | 17 | 52 | 9.7 | 25.7 | 0.30 | 6.99 | 0.00 | 75 | 1011.1 |
| 20260906043315 | 17 | 22 | 0.0 | 0.0 | 0.00 | 0.00 | 0.00 | 89 | 1021.1 |
| 20260906042907 | 23 | 77 | 4.8 | 4.8 | 0.00 | 0.00 | 0.00 | 88 | 1020.6 |
| 20260906042853 | 20 | 28 | 0.0 | 17.7 | 0.00 | 0.00 | 0.00 | 59 | 1022.1 |
| 20260906042851 | 20 | 5 | 9.7 | 16.1 | 0.00 | 0.00 | 0.00 | 71 | 1018.6 |
| 20260906042832 | 17 | 66 | 0.0 | 0.0 | 0.00 | 0.00 | 0.00 | 80 | 1020.9 |
| 20260906042823 | 26 | 310 | 0.0 | 4.8 | 0.00 | 0.00 | 0.00 | 51 | 1018.5 |
| 20260906042815 | 15 | 86 | 6.4 | 22.5 | 0.30 | 6.99 | 0.00 | 79 | 1007.7 |
| 20260906042401 | 23 | 82 | 0.0 | 4.8 | 0.00 | 0.00 | 0.00 | 89 | 1020.6 |
| 20260906042351 | 20 | 355 | 3.2 | 12.9 | 0.00 | 0.00 | 0.00 | 71 | 1018.6 |
| 20260906042335 | 17 | 66 | 0.0 | 0.0 | 0.00 | 0.00 | 0.00 | 80 | 1020.8 |
| 20260906042318 | 16 | 84 | 6.4 | 27.4 | 0.25 | 6.99 | 0.00 | 79 | 1007.9 |
| 20260906042312 | 17 | 22 | 0.0 | 0.0 | 0.00 | 0.00 | 0.00 | 89 | 1021.1 |
| 20260906041901 | 23 | 80 | 1.6 | 6.4 | 0.00 | 0.00 | 0.00 | 89 | 1020.5 |
| 20260906041853 | 21 | 24 | 14.5 | 19.3 | 0.00 | 0.00 | 0.00 | 59 | 1022.1 |
| 20260906041851 | 20 | 298 | 11.3 | 14.5 | 0.00 | 0.00 | 0.00 | 71 | 1018.6 |
| 20260906041832 | 21 | 106 | 0.0 | 0.0 | 0.00 | 0.00 | 0.00 | 89 | 1017.1 |
| 20260906041829 | 17 | 66 | 0.0 | 0.0 | 0.00 | 0.00 | 0.00 | 79 | 1020.8 |
| 20260906041818 | 26 | 327 | 3.2 | 11.3 | 0.00 | 0.00 | 0.00 | 51 | 1018.3 |
| 20260906041815 | 18 | 47 | 11.3 | 32.2 | 0.25 | 6.99 | 0.00 | 75 | 1011.7 |
| 20260906041401 | 23 | 94 | 3.2 | 6.4 | 0.00 | 0.00 | 0.00 | 90 | 1020.5 |
| 20260906041351 | 20 | 29 | 4.8 | 16.1 | 0.00 | 0.00 | 0.00 | 71 | 1018.6 |
| 20260906041338 | 17 | 66 | 0.0 | 0.0 | 0.00 | 0.00 | 0.00 | 80 | 1020.7 |
| 20260906041321 | 21 | 9 | 16.1 | 37.0 | 0.28 | 6.99 | 0.00 | 68 | 1017.4 |
| 20260906041317 | 26 | 301 | 4.8 | 14.5 | 0.00 | 0.00 | 0.00 | 51 | 1018.3 |
| 20260906041312 | 17 | 22 | 0.0 | 0.0 | 0.00 | 0.00 | 0.00 | 88 | 1021.1 |
| 20260906040904 | 23 | 82 | 0.0 | 6.4 | 0.00 | 0.00 | 0.00 | 90 | 1020.4 |
| 20260906040854 | 20 | 16 | 8.0 | 14.5 | 0.00 | 0.00 | 0.00 | 71 | 1018.5 |
| 20260906040850 | 21 | 5 | 3.2 | 16.1 | 0.00 | 0.00 | 0.00 | 59 | 1021.9 |
| 20260906040835 | 17 | 66 | 0.0 | 0.0 | 0.00 | 0.00 | 0.00 | 80 | 1020.6 |
| 20260906040823 | 26 | 286 | 4.8 | 12.9 | 0.00 | 0.00 | 0.00 | 51 | 1018.3 |
| 20260906040815 | 25 | 61 | 20.9 | 40.2 | 0.30 | 6.99 | 0.00 | 63 | 1022.7 |
| 20260906040809 | 17 | 22 | 0.0 | 0.0 | 0.00 | 0.00 | 0.00 | 89 | 1021.1 |
| 20260906040404 | 23 | 82 | 1.6 | 6.4 | 0.00 | 0.00 | 0.00 | 90 | 1020.4 |
| 20260906040401 | 20 | 355 | 8.0 | 14.5 | 0.00 | 0.00 | 0.00 | 71 | 1018.5 |
| 20260906040349 | 21 | 355 | 0.0 | 11.3 | 0.00 | 0.00 | 0.00 | 59 | 1021.9 |
| 20260906040338 | 21 | 106 | 0.0 | 0.0 | 0.00 | 0.00 | 0.00 | 89 | 1017.0 |
| 20260906040329 | 17 | 13 | 0.0 | 0.0 | 0.00 | 0.00 | 0.00 | 81 | 1020.5 |
| 20260906040325 | 26 | 267 | 4.8 | 11.3 | 0.00 | 0.00 | 0.00 | 52 | 1018.2 |
| 20260906040318 | 26 | 88 | 24.1 | 40.2 | 0.28 | 6.99 | 0.00 | 60 | 1025.5 |
| 20260906040309 | 18 | 19 | 0.0 | 0.0 | 0.00 | 0.00 | 0.00 | 88 | 1021.0 |
| 20260906035901 | 23 | 76 | 6.4 | 6.4 | 0.00 | 0.00 | 0.00 | 90 | 1020.4 |
| 20260906035853 | 21 | 5 | 0.0 | 9.7 | 0.00 | 0.00 | 0.00 | 59 | 1021.9 |
| 20260906035851 | 20 | 57 | 8.0 | 16.1 | 0.00 | 0.00 | 0.00 | 71 | 1018.5 |
| 20260906035829 | 17 | 13 | 0.0 | 0.0 | 0.00 | 0.00 | 0.00 | 82 | 1020.5 |
| 20260906035821 | 26 | 79 | 22.5 | 38.6 | 0.25 | 6.99 | 0.00 | 61 | 1024.5 |
| 20260906035817 | 26 | 259 | 9.7 | 9.7 | 0.00 | 0.00 | 0.00 | 52 | 1018.1 |
| 20260906035809 | 18 | 18 | 0.0 | 0.0 | 0.00 | 0.00 | 0.00 | 88 | 1020.9 |
| 20260906035404 | 23 | 63 | 3.2 | 8.0 | 0.00 | 0.00 | 0.00 | 90 | 1020.3 |
| 20260906035353 | 21 | 355 | 3.2 | 4.8 | 0.00 | 0.00 | 0.00 | 59 | 1022.0 |
| 20260906035351 | 20 | 5 | 4.8 | 14.5 | 0.00 | 0.00 | 0.00 | 71 | 1018.4 |
| 20260906035332 | 17 | 13 | 0.0 | 0.0 | 0.00 | 0.00 | 0.00 | 83 | 1020.5 |
| 20260906035317 | 26 | 277 | 9.7 | 9.7 | 0.00 | 0.00 | 0.00 | 52 | 1018.1 |
| 20260906035315 | 23 | 36 | 19.3 | 35.4 | 0.25 | 6.99 | 0.00 | 65 | 1020.2 |
| 20260906035312 | 18 | 18 | 0.0 | 0.0 | 0.00 | 0.00 | 0.00 | 89 | 1020.6 |
| 20260906034901 | 23 | 69 | 3.2 | 8.0 | 0.00 | 0.00 | 0.00 | 90 | 1020.1 |
| 20260906034854 | 20 | 313 | 6.4 | 17.7 | 0.00 | 0.00 | 0.00 | 71 | 1018.4 |
| 20260906034832 | 21 | 106 | 0.0 | 0.0 | 0.00 | 0.00 | 0.00 | 89 | 1016.9 |
| 20260906034824 | 20 | 20 | 12.9 | 29.0 | 0.28 | 6.99 | 0.00 | 72 | 1014.4 |
| 20260906034820 | 26 | 254 | 4.8 | 8.0 | 0.00 | 0.00 | 0.00 | 52 | 1018.1 |
| 20260906034809 | 18 | 18 | 0.0 | 0.0 | 0.00 | 0.00 | 0.00 | 88 | 1020.6 |
| 20260906034401 | 23 | 57 | 3.2 | 12.9 | 0.00 | 0.00 | 0.00 | 90 | 1020.1 |
| 20260906034351 | 20 | 345 | 8.0 | 16.1 | 0.00 | 0.00 | 0.00 | 71 | 1018.3 |
| 20260906034332 | 17 | 13 | 0.0 | 0.0 | 0.00 | 0.00 | 0.00 | 83 | 1020.5 |
| 20260906034320 | 26 | 254 | 6.4 | 8.0 | 0.00 | 0.00 | 0.00 | 51 | 1018.0 |
| 20260906034318 | 16 | 69 | 8.0 | 24.1 | 0.30 | 6.99 | 0.00 | 77 | 1009.4 |
| 20260906034309 | 18 | 18 | 0.0 | 0.0 | 0.00 | 0.00 | 0.00 | 88 | 1020.6 |
| 20260906033904 | 23 | 110 | 4.8 | 8.0 | 0.00 | 0.00 | 0.00 | 90 | 1020.1 |
| 20260906033851 | 20 | 13 | 11.3 | 22.5 | 0.00 | 0.00 | 0.00 | 71 | 1018.4 |
| 20260906033849 | 21 | 0 | 0.0 | 3.2 | 0.00 | 0.00 | 0.00 | 60 | 1021.9 |
| 20260906033829 | 17 | 13 | 0.0 | 0.0 | 0.00 | 0.00 | 0.00 | 83 | 1020.4 |
| 20260906033820 | 26 | 254 | 6.4 | 8.0 | 0.00 | 0.00 | 0.00 | 51 | 1018.0 |
| 20260906033818 | 15 | 89 | 6.4 | 24.1 | 0.28 | 6.99 | 0.00 | 79 | 1007.3 |
| 20260906033809 | 18 | 18 | 0.0 | 0.0 | 0.00 | 0.00 | 0.00 | 89 | 1020.6 |
| 20260906033407 | 23 | 77 | 6.4 | 6.4 | 0.00 | 0.00 | 0.00 | 90 | 1020.1 |
| 20260906033353 | 21 | 350 | 3.2 | 11.3 | 0.00 | 0.00 | 0.00 | 59 | 1021.9 |
| 20260906033338 | 21 | 106 | 0.0 | 0.0 | 0.00 | 0.00 | 0.00 | 89 | 1017.0 |
| 20260906033335 | 17 | 13 | 0.0 | 0.0 | 0.00 | 0.00 | 0.00 | 84 | 1020.4 |
| 20260906033320 | 26 | 250 | 6.4 | 9.7 | 0.00 | 0.00 | 0.00 | 51 | 1017.9 |
| 20260906033315 | 16 | 72 | 8.0 | 29.0 | 0.25 | 6.99 | 0.00 | 78 | 1009.1 |
| 20260906033312 | 18 | 19 | 0.0 | 0.0 | 0.00 | 0.00 | 0.00 | 89 | 1020.5 |
| 20260906032901 | 23 | 76 | 3.2 | 6.4 | 0.00 | 0.00 | 0.00 | 89 | 1020.0 |
| 20260906032854 | 20 | 18 | 11.3 | 16.1 | 0.00 | 0.00 | 0.00 | 72 | 1018.3 |
| 20260906032850 | 21 | 0 | 0.0 | 14.5 | 0.00 | 0.00 | 0.00 | 59 | 1021.9 |
| 20260906032829 | 17 | 13 | 0.0 | 0.0 | 0.00 | 0.00 | 0.00 | 84 | 1020.4 |
| 20260906032820 | 26 | 239 | 6.4 | 9.7 | 0.00 | 0.00 | 0.00 | 51 | 1017.9 |
| 20260906032815 | 19 | 25 | 12.9 | 33.8 | 0.25 | 6.99 | 0.00 | 72 | 1013.9 |
| 20260906032812 | 18 | 19 | 0.0 | 0.0 | 0.00 | 0.00 | 0.00 | 89 | 1020.5 |
| 20260906032401 | 23 | 82 | 4.8 | 9.7 | 0.00 | 0.00 | 0.00 | 89 | 1020.1 |
| 20260906032350 | 21 | 34 | 12.9 | 14.5 | 0.00 | 0.00 | 0.00 | 59 | 1021.8 |
| 20260906032329 | 17 | 13 | 0.0 | 0.0 | 0.00 | 0.00 | 0.00 | 85 | 1020.4 |
| 20260906032320 | 26 | 263 | 6.4 | 9.7 | 0.00 | 0.00 | 0.00 | 51 | 1017.9 |
| 20260906032318 | 23 | 31 | 17.7 | 38.6 | 0.30 | 6.99 | 0.00 | 66 | 1019.7 |
| 20260906032313 | 18 | 18 | 0.0 | 0.0 | 0.00 | 0.00 | 0.00 | 88 | 1020.4 |
| 20260906031901 | 23 | 71 | 3.2 | 6.4 | 0.00 | 0.00 | 0.00 | 89 | 1020.1 |
| 20260906031856 | 21 | 351 | 0.0 | 20.9 | 0.00 | 0.00 | 0.00 | 59 | 1021.7 |
| 20260906031851 | 20 | 330 | 4.8 | 17.7 | 0.00 | 0.00 | 0.00 | 73 | 1018.3 |
| 20260906031839 | 21 | 106 | 0.0 | 0.0 | 0.00 | 0.00 | 0.00 | 89 | 1017.0 |
| 20260906031835 | 17 | 13 | 0.0 | 0.0 | 0.00 | 0.00 | 0.00 | 86 | 1020.4 |
| 20260906031820 | 26 | 257 | 6.4 | 9.7 | 0.00 | 0.00 | 0.00 | 50 | 1017.8 |
| 20260906031815 | 26 | 76 | 22.5 | 40.2 | 0.30 | 6.99 | 0.00 | 61 | 1024.2 |
| 20260906031812 | 18 | 18 | 0.0 | 0.0 | 0.00 | 0.00 | 0.00 | 88 | 1020.4 |
| 20260906031401 | 24 | 85 | 3.2 | 8.0 | 0.00 | 0.00 | 0.00 | 88 | 1020.0 |
| 20260906031351 | 20 | 313 | 4.8 | 12.9 | 0.00 | 0.00 | 0.00 | 72 | 1018.3 |
| 20260906031329 | 17 | 13 | 0.0 | 0.0 | 0.00 | 0.00 | 0.00 | 86 | 1020.4 |
| 20260906031323 | 26 | 258 | 4.8 | 9.7 | 0.00 | 0.00 | 0.00 | 50 | 1017.8 |
| 20260906031318 | 18 | 18 | 0.0 | 0.0 | 0.00 | 0.00 | 0.00 | 87 | 1020.5 |
| 20260906031315 | 26 | 89 | 24.1 | 40.2 | 0.28 | 6.99 | 0.00 | 60 | 1025.6 |
| 20260906030901 | 24 | 61 | 3.2 | 8.0 | 0.00 | 0.00 | 0.00 | 88 | 1020.0 |
| 20260906030853 | 21 | 15 | 4.8 | 17.7 | 0.00 | 0.00 | 0.00 | 59 | 1021.7 |
| 20260906030851 | 20 | 0 | 8.0 | 16.1 | 0.00 | 0.00 | 0.00 | 72 | 1018.4 |
| 20260906030832 | 17 | 13 | 0.0 | 0.0 | 0.00 | 0.00 | 0.00 | 85 | 1020.4 |
| 20260906030821 | 25 | 65 | 20.9 | 37.0 | 0.25 | 6.99 | 0.00 | 62 | 1023.1 |
| 20260906030818 | 26 | 253 | 8.0 | 11.3 | 0.00 | 0.00 | 0.00 | 50 | 1017.8 |
| 20260906030809 | 18 | 18 | 0.0 | 0.0 | 0.00 | 0.00 | 0.00 | 87 | 1020.5 |
| 20260906030404 | 24 | 68 | 1.6 | 8.0 | 0.00 | 0.00 | 0.00 | 88 | 1020.0 |
| 20260906030355 | 21 | 28 | 0.0 | 14.5 | 0.00 | 0.00 | 0.00 | 59 | 1021.7 |
| 20260906030351 | 20 | 324 | 12.9 | 16.1 | 0.00 | 0.00 | 0.00 | 73 | 1018.4 |
| 20260906030335 | 17 | 13 | 0.0 | 0.0 | 0.00 | 0.00 | 0.00 | 85 | 1020.3 |
| 20260906030332 | 21 | 106 | 0.0 | 0.0 | 0.00 | 0.00 | 0.00 | 89 | 1017.0 |
| 20260906030320 | 26 | 255 | 6.4 | 11.3 | 0.00 | 0.00 | 0.00 | 51 | 1017.8 |
| 20260906030318 | 22 | 14 | 16.1 | 32.2 | 0.28 | 6.99 | 0.00 | 68 | 1017.9 |
| 20260906030309 | 18 | 18 | 0.0 | 0.0 | 0.00 | 0.00 | 0.00 | 87 | 1020.5 |
| 20260906025910 | 24 | 84 | 3.2 | 8.0 | 0.00 | 0.00 | 0.00 | 88 | 1020.0 |
| 20260906025855 | 20 | 19 | 8.0 | 19.3 | 0.00 | 0.00 | 0.00 | 73 | 1018.4 |
| 20260906025853 | 21 | 13 | 0.0 | 17.7 | 0.00 | 0.00 | 0.00 | 59 | 1021.6 |
| 20260906025835 | 17 | 13 | 0.0 | 0.0 | 0.00 | 0.00 | 0.00 | 85 | 1020.3 |
| 20260906025818 | 18 | 42 | 11.3 | 27.4 | 0.30 | 6.99 | 0.00 | 74 | 1012.1 |
| 20260906025809 | 18 | 18 | 0.0 | 0.0 | 0.00 | 0.00 | 0.00 | 87 | 1020.4 |
| 20260906025401 | 24 | 71 | 4.8 | 12.9 | 0.00 | 0.00 | 0.00 | 88 | 1019.8 |
| 20260906025354 | 20 | 345 | 6.4 | 17.7 | 0.00 | 0.00 | 0.00 | 73 | 1018.4 |
| 20260906025350 | 21 | 5 | 9.7 | 14.5 | 0.00 | 0.00 | 0.00 | 59 | 1021.7 |
| 20260906025329 | 17 | 13 | 0.0 | 0.0 | 0.00 | 0.00 | 0.00 | 85 | 1020.3 |
| 20260906025318 | 26 | 243 | 6.4 | 8.0 | 0.00 | 0.00 | 0.00 | 51 | 1017.8 |
| 20260906025315 | 16 | 82 | 8.0 | 24.1 | 0.30 | 6.99 | 0.00 | 79 | 1008.1 |
| 20260906025309 | 18 | 18 | 0.0 | 0.0 | 0.00 | 0.00 | 0.00 | 88 | 1020.5 |
| 20260906024904 | 24 | 64 | 3.2 | 12.9 | 0.00 | 0.00 | 0.00 | 87 | 1019.9 |
| 20260906024858 | 20 | 338 | 6.4 | 16.1 | 0.00 | 0.00 | 0.00 | 74 | 1018.4 |
| 20260906024853 | 21 | 5 | 1.6 | 12.9 | 0.00 | 0.00 | 0.00 | 60 | 1021.6 |
| 20260906024841 | 21 | 106 | 0.0 | 0.0 | 0.00 | 0.00 | 0.00 | 89 | 1017.0 |
| 20260906024829 | 17 | 13 | 0.0 | 0.0 | 0.00 | 0.00 | 0.00 | 85 | 1020.3 |
| 20260906024820 | 26 | 243 | 4.8 | 6.4 | 0.00 | 0.00 | 0.00 | 51 | 1017.7 |
| 20260906024816 | 15 | 87 | 6.4 | 25.7 | 0.25 | 6.99 | 0.00 | 79 | 1007.6 |
| 20260906024812 | 18 | 18 | 0.0 | 0.0 | 0.00 | 0.00 | 0.00 | 88 | 1020.4 |
| 20260906024410 | 24 | 85 | 1.6 | 9.7 | 0.00 | 0.00 | 0.00 | 87 | 1020.0 |
| 20260906024354 | 20 | 9 | 4.8 | 14.5 | 0.00 | 0.00 | 0.00 | 73 | 1018.5 |
| 20260906024338 | 17 | 13 | 0.0 | 0.0 | 0.00 | 0.00 | 0.00 | 84 | 1020.3 |
| 20260906024323 | 26 | 243 | 4.8 | 6.4 | 0.00 | 0.00 | 0.00 | 51 | 1017.7 |
| 20260906024316 | 17 | 56 | 9.7 | 30.6 | 0.25 | 6.99 | 0.00 | 76 | 1010.7 |
| 20260906024312 | 18 | 18 | 0.0 | 0.0 | 0.00 | 0.00 | 0.00 | 87 | 1020.5 |
| 20260906023901 | 24 | 79 | 4.8 | 8.0 | 0.00 | 0.00 | 0.00 | 87 | 1019.9 |
| 20260906023852 | 20 | 297 | 6.4 | 14.5 | 0.00 | 0.00 | 0.00 | 73 | 1018.5 |
| 20260906023849 | 21 | 5 | 0.0 | 12.9 | 0.00 | 0.00 | 0.00 | 59 | 1021.7 |
| 20260906023829 | 17 | 13 | 0.0 | 0.0 | 0.00 | 0.00 | 0.00 | 84 | 1020.3 |
| 20260906023818 | 21 | 2 | 14.5 | 37.0 | 0.28 | 6.99 | 0.00 | 70 | 1016.2 |
| 20260906023812 | 18 | 18 | 0.0 | 0.0 | 0.00 | 0.00 | 0.00 | 87 | 1020.5 |
| 20260906023401 | 24 | 70 | 6.4 | 9.7 | 0.00 | 0.00 | 0.00 | 87 | 1019.9 |
| 20260906023353 | 21 | 331 | 0.0 | 11.3 | 0.00 | 0.00 | 0.00 | 59 | 1021.7 |
| 20260906023351 | 20 | 26 | 6.4 | 14.5 | 0.00 | 0.00 | 0.00 | 73 | 1018.5 |
| 20260906023332 | 21 | 106 | 0.0 | 0.0 | 0.00 | 0.00 | 0.00 | 88 | 1017.0 |
| 20260906023329 | 17 | 13 | 0.0 | 0.0 | 0.00 | 0.00 | 0.00 | 85 | 1020.3 |
| 20260906023317 | 26 | 243 | 6.4 | 11.3 | 0.00 | 0.00 | 0.00 | 51 | 1017.7 |
| 20260906023309 | 18 | 18 | 0.0 | 3.2 | 0.00 | 0.00 | 0.00 | 87 | 1020.4 |
| 20260906022901 | 24 | 88 | 6.4 | 9.7 | 0.00 | 0.00 | 0.00 | 87 | 1019.9 |
| 20260906022853 | 21 | 9 | 0.0 | 14.5 | 0.00 | 0.00 | 0.00 | 59 | 1021.8 |
| 20260906022851 | 20 | 13 | 11.3 | 14.5 | 0.00 | 0.00 | 0.00 | 73 | 1018.5 |
| 20260906022838 | 17 | 13 | 0.0 | 0.0 | 0.00 | 0.00 | 0.00 | 85 | 1020.3 |
| 20260906022820 | 26 | 240 | 6.4 | 8.0 | 0.00 | 0.00 | 0.00 | 51 | 1017.7 |
| 20260906022818 | 26 | 86 | 24.1 | 40.2 | 0.30 | 6.99 | 0.00 | 60 | 1025.2 |
| 20260906022809 | 18 | 19 | 1.6 | 3.2 | 0.00 | 0.00 | 0.00 | 87 | 1020.4 |
| 20260906022404 | 24 | 44 | 8.0 | 9.7 | 0.00 | 0.00 | 0.00 | 87 | 1019.9 |
| 20260906022353 | 20 | 30 | 6.4 | 11.3 | 0.00 | 0.00 | 0.00 | 73 | 1018.5 |
| 20260906022350 | 22 | 5 | 6.4 | 9.7 | 0.00 | 0.00 | 0.00 | 59 | 1021.8 |
| 20260906022329 | 17 | 311 | 0.0 | 0.0 | 0.00 | 0.00 | 0.00 | 85 | 1020.3 |
| 20260906022317 | 26 | 240 | 6.4 | 8.0 | 0.00 | 0.00 | 0.00 | 51 | 1017.7 |
| 20260906022312 | 19 | 18 | 0.0 | 0.0 | 0.00 | 0.00 | 0.00 | 87 | 1020.5 |
| 20260906021903 | 24 | 71 | 3.2 | 8.0 | 0.00 | 0.00 | 0.00 | 87 | 1019.8 |
| 20260906021855 | 20 | 336 | 4.8 | 14.5 | 0.00 | 0.00 | 0.00 | 72 | 1018.5 |
| 20260906021850 | 22 | 355 | 0.0 | 8.0 | 0.00 | 0.00 | 0.00 | 58 | 1021.8 |
| 20260906021835 | 17 | 311 | 0.0 | 0.0 | 0.00 | 0.00 | 0.00 | 85 | 1020.2 |
| 20260906021832 | 22 | 106 | 0.0 | 0.0 | 0.00 | 0.00 | 0.00 | 88 | 1017.1 |
| 20260906021827 | 26 | 240 | 6.4 | 8.0 | 0.00 | 0.00 | 0.00 | 51 | 1017.7 |
| 20260906021821 | 23 | 47 | 19.3 | 35.4 | 0.25 | 6.99 | 0.00 | 64 | 1021.3 |
| 20260906021809 | 19 | 18 | 0.0 | 0.0 | 0.00 | 0.00 | 0.00 | 87 | 1020.5 |
| 20260906021409 | 24 | 72 | 4.8 | 9.7 | 0.00 | 0.00 | 0.00 | 87 | 1019.7 |
| 20260906021354 | 20 | 311 | 3.2 | 12.9 | 0.00 | 0.00 | 0.00 | 72 | 1018.5 |
| 20260906021350 | 22 | 311 | 4.8 | 11.3 | 0.00 | 0.00 | 0.00 | 58 | 1021.7 |
| 20260906021330 | 18 | 311 | 0.0 | 0.0 | 0.00 | 0.00 | 0.00 | 83 | 1020.2 |
| 20260906021320 | 26 | 240 | 8.0 | 9.7 | 0.00 | 0.00 | 0.00 | 51 | 1017.7 |
| 20260906021316 | 20 | 9 | 14.5 | 30.6 | 0.28 | 6.99 | 0.00 | 71 | 1015.5 |
| 20260906021310 | 19 | 18 | 0.0 | 0.0 | 0.00 | 0.00 | 0.00 | 87 | 1020.4 |
| 20260906020906 | 24 | 81 | 1.6 | 6.4 | 0.00 | 0.00 | 0.00 | 88 | 1019.7 |
| 20260906020855 | 20 | 350 | 6.4 | 16.1 | 0.00 | 0.00 | 0.00 | 72 | 1018.5 |
| 20260906020850 | 22 | 355 | 8.0 | 11.3 | 0.00 | 0.00 | 0.00 | 57 | 1021.6 |
| 20260906020830 | 18 | 311 | 0.0 | 0.0 | 0.00 | 0.00 | 0.00 | 84 | 1020.2 |
| 20260906020818 | 26 | 244 | 6.4 | 11.3 | 0.00 | 0.00 | 0.00 | 51 | 1017.7 |
| 20260906020816 | 17 | 62 | 9.7 | 25.7 | 0.30 | 6.99 | 0.00 | 76 | 1010.1 |
| 20260906020811 | 19 | 18 | 0.0 | 0.0 | 0.00 | 0.00 | 0.00 | 88 | 1020.4 |
| 20260906020404 | 24 | 59 | 4.8 | 6.4 | 0.00 | 0.00 | 0.00 | 88 | 1019.7 |
| 20260906020358 | 20 | 313 | 4.8 | 14.5 | 0.00 | 0.00 | 0.00 | 72 | 1018.5 |
| 20260906020350 | 22 | 355 | 0.0 | 8.0 | 0.00 | 0.00 | 0.00 | 57 | 1021.5 |
| 20260906020335 | 18 | 311 | 0.0 | 0.0 | 0.00 | 0.00 | 0.00 | 84 | 1020.1 |
| 20260906020329 | 22 | 106 | 0.0 | 0.0 | 0.00 | 0.00 | 0.00 | 88 | 1017.0 |
| 20260906020318 | 15 | 89 | 6.4 | 24.1 | 0.28 | 6.99 | 0.00 | 79 | 1007.4 |
| 20260906020309 | 19 | 18 | 0.0 | 0.0 | 0.00 | 0.00 | 0.00 | 87 | 1020.4 |
| 20260906015901 | 24 | 52 | 6.4 | 8.0 | 0.00 | 0.00 | 0.00 | 88 | 1019.6 |
| 20260906015849 | 22 | 0 | 0.0 | 9.7 | 0.00 | 0.00 | 0.00 | 58 | 1021.4 |
| 20260906015847 | 20 | 323 | 8.0 | 14.5 | 0.00 | 0.00 | 0.00 | 72 | 1018.4 |
| 20260906015838 | 18 | 311 | 0.0 | 0.0 | 0.00 | 0.00 | 0.00 | 84 | 1020.1 |
| 20260906015820 | 26 | 244 | 8.0 | 11.3 | 0.00 | 0.00 | 0.00 | 52 | 1017.7 |
| 20260906015812 | 16 | 78 | 8.0 | 27.4 | 0.25 | 6.99 | 0.00 | 78 | 1008.5 |
| 20260906015809 | 19 | 18 | 0.0 | 0.0 | 0.00 | 0.00 | 0.00 | 87 | 1020.3 |
| 20260906015404 | 24 | 79 | 4.8 | 6.4 | 0.00 | 0.00 | 0.00 | 88 | 1019.6 |
| 20260906015350 | 22 | 10 | 8.0 | 14.5 | 0.00 | 0.00 | 0.00 | 58 | 1021.4 |
| 20260906015332 | 18 | 311 | 0.0 | 0.0 | 0.00 | 0.00 | 0.00 | 82 | 1020.0 |
| 20260906015318 | 25 | 244 | 8.0 | 11.3 | 0.00 | 0.00 | 0.00 | 53 | 1017.7 |
| 20260906015315 | 19 | 18 | 0.0 | 0.0 | 0.00 | 0.00 | 0.00 | 86 | 1020.2 |
| 20260906015312 | 18 | 36 | 11.3 | 33.8 | 0.25 | 6.99 | 0.00 | 74 | 1012.8 |
| 20260906014907 | 24 | 76 | 1.6 | 6.4 | 0.00 | 0.00 | 0.00 | 88 | 1019.6 |
| 20260906014856 | 22 | 11 | 0.0 | 1.6 | 0.00 | 0.00 | 0.00 | 58 | 1021.4 |
| 20260906014853 | 20 | 311 | 6.4 | 17.7 | 0.00 | 0.00 | 0.00 | 73 | 1018.5 |
| 20260906014832 | 22 | 106 | 0.0 | 0.0 | 0.00 | 0.00 | 0.00 | 87 | 1017.0 |
| 20260906014829 | 18 | 208 | 0.0 | 0.0 | 0.00 | 0.00 | 0.00 | 82 | 1020.1 |
| 20260906014820 | 25 | 244 | 6.4 | 9.7 | 0.00 | 0.00 | 0.00 | 54 | 1017.7 |
| 20260906014815 | 22 | 21 | 17.7 | 38.6 | 0.28 | 6.99 | 0.00 | 67 | 1018.6 |
| 20260906014812 | 19 | 18 | 0.0 | 0.0 | 0.00 | 0.00 | 0.00 | 86 | 1020.3 |
| 20260906014401 | 24 | 78 | 3.2 | 4.8 | 0.00 | 0.00 | 0.00 | 87 | 1019.5 |
| 20260906014353 | 22 | 343 | 0.0 | 12.9 | 0.00 | 0.00 | 0.00 | 58 | 1021.4 |
| 20260906014350 | 20 | 343 | 8.0 | 11.3 | 0.00 | 0.00 | 0.00 | 74 | 1018.5 |
| 20260906014329 | 18 | 208 | 0.0 | 0.0 | 0.00 | 0.00 | 0.00 | 82 | 1020.0 |
| 20260906014321 | 26 | 231 | 8.0 | 11.3 | 0.00 | 0.00 | 0.00 | 53 | 1017.6 |
| 20260906014315 | 25 | 70 | 22.5 | 40.2 | 0.30 | 6.99 | 0.00 | 62 | 1023.6 |
| 20260906014313 | 19 | 18 | 0.0 | 0.0 | 0.00 | 0.00 | 0.00 | 86 | 1020.2 |
| 20260906013904 | 24 | 82 | 0.0 | 4.8 | 0.00 | 0.00 | 0.00 | 87 | 1019.6 |
| 20260906013853 | 20 | 330 | 8.0 | 12.9 | 0.00 | 0.00 | 0.00 | 74 | 1018.6 |
| 20260906013850 | 22 | 355 | 0.0 | 0.0 | 0.00 | 0.00 | 0.00 | 58 | 1021.3 |
| 20260906013832 | 19 | 208 | 0.0 | 0.0 | 0.00 | 0.00 | 0.00 | 82 | 1019.9 |
| 20260906013821 | 26 | 240 | 8.0 | 11.3 | 0.00 | 0.00 | 0.00 | 52 | 1017.6 |
| 20260906013818 | 26 | 89 | 24.1 | 40.2 | 0.28 | 6.99 | 0.00 | 60 | 1025.6 |
| 20260906013812 | 20 | 18 | 0.0 | 0.0 | 0.00 | 0.00 | 0.00 | 86 | 1020.1 |
| 20260906013407 | 24 | 81 | 1.6 | 6.4 | 0.00 | 0.00 | 0.00 | 87 | 1019.5 |
| 20260906013359 | 22 | 339 | 0.0 | 14.5 | 0.00 | 0.00 | 0.00 | 58 | 1021.3 |
| 20260906013347 | 20 | 323 | 4.8 | 12.9 | 0.00 | 0.00 | 0.00 | 75 | 1018.6 |
| 20260906013332 | 22 | 106 | 0.0 | 0.0 | 0.00 | 0.00 | 0.00 | 87 | 1017.0 |
| 20260906013326 | 26 | 229 | 8.0 | 11.3 | 0.00 | 0.00 | 0.00 | 52 | 1017.7 |
| 20260906013312 | 25 | 72 | 22.5 | 38.6 | 0.25 | 6.99 | 0.00 | 61 | 1023.8 |
| 20260906012907 | 24 | 81 | 1.6 | 4.8 | 0.00 | 0.00 | 0.00 | 87 | 1019.6 |
| 20260906012850 | 20 | 326 | 4.8 | 9.7 | 0.00 | 0.00 | 0.00 | 74 | 1018.5 |
| 20260906012829 | 19 | 208 | 0.0 | 0.0 | 0.00 | 0.00 | 0.00 | 82 | 1020.0 |
| 20260906012820 | 26 | 227 | 8.0 | 9.7 | 0.00 | 0.00 | 0.00 | 52 | 1017.7 |
| 20260906012815 | 22 | 24 | 17.7 | 33.8 | 0.25 | 6.99 | 0.00 | 67 | 1019.0 |
| 20260906012809 | 20 | 17 | 0.0 | 0.0 | 0.00 | 0.00 | 0.00 | 85 | 1020.2 |
| 20260906012401 | 24 | 83 | 1.6 | 4.8 | 0.00 | 0.00 | 0.00 | 87 | 1019.5 |
| 20260906012354 | 21 | 15 | 6.4 | 17.7 | 0.00 | 0.00 | 0.00 | 74 | 1018.5 |
| 20260906012349 | 22 | 0 | 1.6 | 3.2 | 0.00 | 0.00 | 0.00 | 57 | 1021.3 |
| 20260906012329 | 19 | 208 | 0.0 | 0.0 | 0.00 | 0.00 | 0.00 | 82 | 1019.9 |
| 20260906012317 | 26 | 235 | 8.0 | 11.3 | 0.00 | 0.00 | 0.00 | 52 | 1017.7 |
| 20260906012312 | 18 | 32 | 12.9 | 29.0 | 0.30 | 6.99 | 0.00 | 73 | 1013.1 |
| 20260906012309 | 20 | 17 | 0.0 | 0.0 | 0.00 | 0.00 | 0.00 | 85 | 1020.2 |
| 20260906011901 | 24 | 84 | 1.6 | 3.2 | 0.00 | 0.00 | 0.00 | 87 | 1019.5 |
| 20260906011854 | 21 | 290 | 8.0 | 16.1 | 0.00 | 0.00 | 0.00 | 73 | 1018.4 |
| 20260906011851 | 22 | 310 | 0.0 | 1.6 | 0.00 | 0.00 | 0.00 | 56 | 1021.3 |
| 20260906011832 | 19 | 208 | 0.0 | 0.0 | 0.00 | 0.00 | 0.00 | 81 | 1019.9 |
| 20260906011829 | 22 | 106 | 0.0 | 0.0 | 0.00 | 0.00 | 0.00 | 87 | 1017.1 |
| 20260906011817 | 26 | 240 | 6.4 | 12.9 | 0.00 | 0.00 | 0.00 | 51 | 1017.8 |
| 20260906011815 | 20 | 17 | 0.0 | 1.6 | 0.00 | 0.00 | 0.00 | 85 | 1020.1 |
| 20260906011812 | 16 | 77 | 8.0 | 24.1 | 0.30 | 6.99 | 0.00 | 78 | 1008.7 |
| 20260906011410 | 24 | 84 | 1.6 | 4.8 | 0.00 | 0.00 | 0.00 | 87 | 1019.5 |
| 20260906011350 | 21 | 321 | 9.7 | 17.7 | 0.00 | 0.00 | 0.00 | 72 | 1018.4 |
| 20260906011332 | 19 | 208 | 0.0 | 0.0 | 0.00 | 0.00 | 0.00 | 82 | 1019.8 |
| 20260906011323 | 26 | 250 | 11.3 | 11.3 | 0.00 | 0.00 | 0.00 | 52 | 1017.8 |
| 20260906011312 | 20 | 17 | 0.0 | 3.2 | 0.00 | 0.00 | 0.00 | 84 | 1020.1 |
| 20260906010901 | 24 | 88 | 1.6 | 4.8 | 0.00 | 0.00 | 0.00 | 87 | 1019.5 |
| 20260906010859 | 23 | 339 | 0.0 | 14.5 | 0.00 | 0.00 | 0.00 | 55 | 1021.2 |
| 20260906010850 | 21 | 328 | 12.9 | 17.7 | 0.00 | 0.00 | 0.00 | 70 | 1018.4 |
| 20260906010829 | 18 | 208 | 0.0 | 0.0 | 0.00 | 0.00 | 0.00 | 83 | 1019.9 |
| 20260906010817 | 26 | 248 | 11.3 | 12.9 | 0.00 | 0.00 | 0.00 | 51 | 1017.8 |
| 20260906010813 | 20 | 17 | 0.0 | 0.0 | 0.00 | 0.00 | 0.00 | 83 | 1020.1 |
| 20260906010407 | 24 | 90 | 0.0 | 6.4 | 0.00 | 0.00 | 0.00 | 87 | 1019.4 |
| 20260906010352 | 23 | 0 | 0.0 | 9.7 | 0.00 | 0.00 | 0.00 | 55 | 1021.1 |
| 20260906010350 | 21 | 341 | 8.0 | 12.9 | 0.00 | 0.00 | 0.00 | 70 | 1018.5 |
| 20260906010332 | 22 | 106 | 0.0 | 0.0 | 0.00 | 0.00 | 0.00 | 87 | 1017.0 |
| 20260906010318 | 20 | 13 | 14.5 | 35.4 | 0.28 | 6.99 | 0.00 | 71 | 1015.1 |
| 20260906010315 | 20 | 17 | 0.0 | 0.0 | 0.00 | 0.00 | 0.00 | 84 | 1020.1 |
| 20260906005907 | 24 | 73 | 1.6 | 12.9 | 0.00 | 0.00 | 0.00 | 87 | 1019.4 |
| 20260906005856 | 21 | 298 | 8.0 | 14.5 | 0.00 | 0.00 | 0.00 | 70 | 1018.5 |
| 20260906005850 | 23 | 23 | 3.2 | 14.5 | 0.00 | 0.00 | 0.00 | 55 | 1021.1 |
| 20260906005829 | 18 | 208 | 0.0 | 0.0 | 0.00 | 0.00 | 0.00 | 83 | 1019.8 |
| 20260906005819 | 26 | 244 | 11.3 | 12.9 | 0.00 | 0.00 | 0.00 | 54 | 1017.7 |
| 20260906005809 | 20 | 17 | 0.0 | 0.0 | 0.00 | 0.00 | 0.00 | 84 | 1020.2 |
| 20260906005404 | 24 | 82 | 3.2 | 6.4 | 0.00 | 0.00 | 0.00 | 87 | 1019.4 |
| 20260906005350 | 21 | 317 | 6.4 | 12.9 | 0.00 | 0.00 | 0.00 | 69 | 1018.4 |
| 20260906005332 | 19 | 49 | 0.0 | 0.0 | 0.00 | 0.00 | 0.00 | 82 | 1019.8 |
| 20260906005323 | 26 | 244 | 8.0 | 11.3 | 0.00 | 0.00 | 0.00 | 53 | 1017.7 |
| 20260906005319 | 26 | 82 | 22.5 | 40.2 | 0.30 | 6.99 | 0.00 | 60 | 1024.8 |
| 20260906005312 | 20 | 17 | 0.0 | 0.0 | 0.00 | 0.00 | 0.00 | 83 | 1020.1 |
| 20260906004907 | 24 | 77 | 6.4 | 8.0 | 0.00 | 0.00 | 0.00 | 87 | 1019.4 |
| 20260906004856 | 23 | 30 | 0.0 | 12.9 | 0.00 | 0.00 | 0.00 | 55 | 1021.1 |
| 20260906004851 | 21 | 5 | 3.2 | 14.5 | 0.00 | 0.00 | 0.00 | 69 | 1018.5 |
| 20260906004832 | 22 | 106 | 0.0 | 0.0 | 0.00 | 0.00 | 0.00 | 86 | 1017.0 |
| 20260906004829 | 19 | 49 | 0.0 | 0.0 | 0.00 | 0.00 | 0.00 | 83 | 1019.8 |
| 20260906004826 | 26 | 242 | 8.0 | 11.3 | 0.00 | 0.00 | 0.00 | 54 | 1017.7 |
| 20260906004815 | 20 | 17 | 0.0 | 0.0 | 0.00 | 0.00 | 0.00 | 84 | 1020.2 |
| 20260906004812 | 26 | 87 | 24.1 | 40.2 | 0.25 | 6.99 | 0.00 | 60 | 1025.3 |
| 20260906004401 | 24 | 71 | 3.2 | 4.8 | 0.00 | 0.00 | 0.00 | 86 | 1019.3 |
| 20260906004353 | 23 | 5 | 0.0 | 12.9 | 0.00 | 0.00 | 0.00 | 55 | 1021.1 |
| 20260906004329 | 19 | 49 | 0.0 | 0.0 | 0.00 | 0.00 | 0.00 | 83 | 1019.7 |
| 20260906004320 | 25 | 232 | 9.7 | 9.7 | 0.00 | 0.00 | 0.00 | 55 | 1017.6 |
| 20260906004315 | 24 | 56 | 20.9 | 37.0 | 0.25 | 6.99 | 0.00 | 63 | 1022.1 |
| 20260906004309 | 20 | 17 | 0.0 | 0.0 | 0.00 | 0.00 | 0.00 | 83 | 1020.2 |
| 20260906003907 | 24 | 75 | 1.6 | 8.0 | 0.00 | 0.00 | 0.00 | 86 | 1019.4 |
| 20260906003850 | 23 | 0 | 3.2 | 8.0 | 0.00 | 0.00 | 0.00 | 55 | 1021.0 |
| 20260906003847 | 21 | 321 | 6.4 | 16.1 | 0.00 | 0.00 | 0.00 | 68 | 1018.5 |
| 20260906003829 | 19 | 49 | 0.0 | 0.0 | 0.00 | 0.00 | 0.00 | 83 | 1019.7 |
| 20260906003821 | 26 | 232 | 8.0 | 11.3 | 0.00 | 0.00 | 0.00 | 54 | 1017.7 |
| 20260906003818 | 21 | 1 | 16.1 | 32.2 | 0.28 | 6.99 | 0.00 | 69 | 1016.6 |
| 20260906003813 | 20 | 17 | 0.0 | 0.0 | 0.00 | 0.00 | 0.00 | 83 | 1020.1 |
| 20260906003401 | 24 | 82 | 6.4 | 8.0 | 0.00 | 0.00 | 0.00 | 86 | 1019.4 |
| 20260906003353 | 23 | 22 | 0.0 | 1.6 | 0.00 | 0.00 | 0.00 | 55 | 1021.1 |
| 20260906003350 | 21 | 342 | 9.7 | 12.9 | 0.00 | 0.00 | 0.00 | 68 | 1018.6 |
| 20260906003329 | 23 | 106 | 0.0 | 0.0 | 0.00 | 0.00 | 0.00 | 86 | 1016.9 |
| 20260906003320 | 26 | 232 | 9.7 | 11.3 | 0.00 | 0.00 | 0.00 | 54 | 1017.7 |
| 20260906003312 | 20 | 17 | 0.0 | 3.2 | 0.00 | 0.00 | 0.00 | 84 | 1162.3 |
| 20260906002901 | 24 | 63 | 1.6 | 6.4 | 0.00 | 0.00 | 0.00 | 85 | 1019.3 |
| 20260906002855 | 23 | 345 | 0.0 | 0.0 | 0.00 | 0.00 | 0.00 | 54 | 1021.1 |
| 20260906002853 | 21 | 330 | 3.2 | 14.5 | 0.00 | 0.00 | 0.00 | 68 | 1018.5 |
| 20260906002829 | 19 | 49 | 0.0 | 0.0 | 0.00 | 0.00 | 0.00 | 82 | 1019.8 |
| 20260906002820 | 26 | 227 | 9.7 | 11.3 | 0.00 | 0.00 | 0.00 | 54 | 1017.7 |
| 20260906002815 | 15 | 86 | 6.4 | 22.5 | 0.30 | 6.99 | 0.00 | 79 | 1007.7 |
| 20260906002812 | 20 | 17 | 0.0 | 3.2 | 0.00 | 0.00 | 0.00 | 83 | 1071.0 |
| 20260906002401 | 24 | 73 | 3.2 | 8.0 | 0.00 | 0.00 | 0.00 | 85 | 1019.3 |
| 20260906002353 | 21 | 0 | 6.4 | 11.3 | 0.00 | 0.00 | 0.00 | 68 | 1018.6 |
| 20260906002350 | 23 | 355 | 0.0 | 16.1 | 0.00 | 0.00 | 0.00 | 54 | 1021.1 |
| 20260906002329 | 20 | 49 | 0.0 | 0.0 | 0.00 | 0.00 | 0.00 | 81 | 1019.7 |
| 20260906002319 | 26 | 236 | 9.7 | 11.3 | 0.00 | 0.00 | 0.00 | 55 | 1017.7 |
| 20260906002315 | 16 | 83 | 6.4 | 27.4 | 0.25 | 6.99 | 0.00 | 79 | 1008.0 |
| 20260906002309 | 21 | 19 | 0.0 | 0.0 | 0.00 | 0.00 | 0.00 | 82 | 1061.9 |
| 20260906001901 | 25 | 59 | 6.4 | 6.4 | 0.00 | 0.00 | 0.00 | 84 | 1019.3 |
| 20260906001851 | 21 | 5 | 3.2 | 9.7 | 0.00 | 0.00 | 0.00 | 67 | 1018.8 |
| 20260906001849 | 23 | 11 | 17.7 | 17.7 | 0.00 | 0.00 | 0.00 | 53 | 1021.2 |
| 20260906001829 | 23 | 106 | 0.0 | 0.0 | 0.00 | 0.00 | 0.00 | 85 | 1017.0 |
| 20260906001823 | 26 | 236 | 9.7 | 11.3 | 0.00 | 0.00 | 0.00 | 55 | 1017.7 |
| 20260906001818 | 18 | 46 | 11.3 | 32.2 | 0.25 | 6.99 | 0.00 | 75 | 1011.8 |
| 20260906001815 | 21 | 19 | 0.0 | 0.0 | 0.00 | 0.00 | 0.00 | 82 | 1058.5 |
| 20260906001401 | 25 | 67 | 3.2 | 6.4 | 0.00 | 0.00 | 0.00 | 84 | 1019.4 |
| 20260906001350 | 23 | 0 | 0.0 | 16.1 | 0.00 | 0.00 | 0.00 | 54 | 1021.1 |
| 20260906001347 | 21 | 37 | 4.8 | 12.9 | 0.00 | 0.00 | 0.00 | 67 | 1018.7 |
| 20260906001329 | 20 | 49 | 0.0 | 0.0 | 0.00 | 0.00 | 0.00 | 82 | 1019.7 |
| 20260906001317 | 26 | 229 | 8.0 | 11.3 | 0.00 | 0.00 | 0.00 | 54 | 1017.7 |
| 20260906001313 | 21 | 9 | 16.1 | 37.0 | 0.28 | 6.99 | 0.00 | 68 | 1017.5 |
| 20260906000904 | 25 | 69 | 4.8 | 4.8 | 0.00 | 0.00 | 0.00 | 84 | 1019.4 |
| 20260906000854 | 21 | 35 | 1.6 | 14.5 | 0.00 | 0.00 | 0.00 | 67 | 1018.6 |
| 20260906000852 | 23 | 34 | 3.2 | 9.7 | 0.00 | 0.00 | 0.00 | 54 | 1021.1 |
| 20260906000832 | 20 | 49 | 0.0 | 0.0 | 0.00 | 0.00 | 0.00 | 81 | 1019.7 |
| 20260906000822 | 25 | 62 | 20.9 | 40.2 | 0.30 | 6.99 | 0.00 | 63 | 1022.8 |
| 20260906000820 | 26 | 230 | 11.3 | 11.3 | 0.00 | 0.00 | 0.00 | 54 | 1017.7 |
| 20260906000809 | 21 | 19 | 0.0 | 0.0 | 0.00 | 0.00 | 0.00 | 82 | 1055.7 |
| 20260906000403 | 25 | 80 | 0.0 | 8.0 | 0.00 | 0.00 | 0.00 | 83 | 1019.3 |
| 20260906000355 | 23 | 58 | 0.0 | 12.9 | 0.00 | 0.00 | 0.00 | 55 | 1021.0 |
| 20260906000348 | 22 | 5 | 8.0 | 16.1 | 0.00 | 0.00 | 0.00 | 67 | 1018.6 |
| 20260906000335 | 20 | 49 | 0.0 | 0.0 | 0.00 | 0.00 | 0.00 | 81 | 1019.7 |
| 20260906000333 | 23 | 106 | 0.0 | 0.0 | 0.00 | 0.00 | 0.00 | 87 | 1017.1 |
| 20260906000318 | 25 | 229 | 11.3 | 12.9 | 0.00 | 0.00 | 0.00 | 56 | 1017.7 |
| 20260906000313 | 26 | 88 | 24.1 | 40.2 | 0.28 | 6.99 | 0.00 | 60 | 1025.5 |
| 20260906000311 | 21 | 19 | 0.0 | 0.0 | 0.00 | 0.00 | 0.00 | 82 | 1055.7 |
| 20260905235904 | 25 | 90 | 1.6 | 4.8 | 0.00 | 0.00 | 0.00 | 83 | 1019.3 |
| 20260905235852 | 23 | 54 | 11.3 | 16.1 | 0.00 | 0.00 | 0.00 | 55 | 1021.1 |
| 20260905235847 | 22 | 331 | 3.2 | 11.3 | 0.00 | 0.00 | 0.00 | 67 | 1018.6 |
| 20260905235829 | 20 | 49 | 0.0 | 0.0 | 0.00 | 0.00 | 0.00 | 80 | 1019.7 |
| 20260905235821 | 25 | 230 | 11.3 | 12.9 | 0.00 | 0.00 | 0.00 | 55 | 1017.8 |
| 20260905235815 | 21 | 19 | 0.0 | 0.0 | 0.00 | 0.00 | 0.00 | 82 | 1055.6 |
| 20260905235813 | 26 | 78 | 22.5 | 38.6 | 0.25 | 6.99 | 0.00 | 61 | 1024.5 |
| 20260905235410 | 25 | 90 | 0.0 | 3.2 | 0.00 | 0.00 | 0.00 | 83 | 1019.3 |
| 20260905235359 | 23 | 20 | 0.0 | 14.5 | 0.00 | 0.00 | 0.00 | 56 | 1020.9 |
| 20260905235347 | 22 | 327 | 3.2 | 12.9 | 0.00 | 0.00 | 0.00 | 67 | 1018.7 |
| 20260905235329 | 20 | 49 | 0.0 | 0.0 | 0.00 | 0.00 | 0.00 | 80 | 1019.7 |
| 20260905235319 | 23 | 36 | 19.3 | 35.4 | 0.25 | 6.99 | 0.00 | 65 | 1020.1 |
| 20260905235317 | 26 | 231 | 9.7 | 11.3 | 0.00 | 0.00 | 0.00 | 54 | 1017.8 |
| 20260905235309 | 21 | 19 | 0.0 | 1.6 | 0.00 | 0.00 | 0.00 | 82 | 1055.6 |
| 20260905234901 | 25 | 90 | 1.6 | 3.2 | 0.00 | 0.00 | 0.00 | 83 | 1019.2 |
| 20260905234853 | 23 | 14 | 12.9 | 17.7 | 0.00 | 0.00 | 0.00 | 55 | 1020.9 |
| 20260905234847 | 22 | 355 | 4.8 | 8.0 | 0.00 | 0.00 | 0.00 | 66 | 1018.7 |
| 20260905234835 | 20 | 49 | 0.0 | 0.0 | 0.00 | 0.00 | 0.00 | 79 | 1019.7 |
| 20260905234833 | 23 | 106 | 0.0 | 0.0 | 0.00 | 0.00 | 0.00 | 89 | 1017.1 |
| 20260905234823 | 25 | 227 | 8.0 | 11.3 | 0.00 | 0.00 | 0.00 | 56 | 1017.8 |
| 20260905234819 | 20 | 21 | 12.9 | 29.0 | 0.28 | 6.99 | 0.00 | 72 | 1014.3 |
| 20260905234809 | 21 | 19 | 0.0 | 0.0 | 0.00 | 0.00 | 0.00 | 81 | 1055.5 |
| 20260905234404 | 25 | 90 | 0.0 | 4.8 | 0.00 | 0.00 | 0.00 | 83 | 1019.3 |
| 20260905234354 | 22 | 341 | 6.4 | 11.3 | 0.00 | 0.00 | 0.00 | 66 | 1018.7 |
| 20260905234349 | 24 | 32 | 0.0 | 16.1 | 0.00 | 0.00 | 0.00 | 55 | 1020.9 |
| 20260905234332 | 21 | 49 | 0.0 | 0.0 | 0.00 | 0.00 | 0.00 | 78 | 1019.6 |
| 20260905234319 | 16 | 70 | 8.0 | 24.1 | 0.30 | 6.99 | 0.00 | 77 | 1009.3 |
| 20260905234317 | 25 | 235 | 6.4 | 11.3 | 0.00 | 0.00 | 0.00 | 58 | 1017.8 |
| 20260905234309 | 21 | 19 | 0.0 | 1.6 | 0.00 | 0.00 | 0.00 | 81 | 1055.5 |
| 20260905233910 | 25 | 86 | 0.0 | 4.8 | 0.00 | 0.00 | 0.00 | 83 | 1019.2 |
| 20260905233849 | 24 | 0 | 8.0 | 17.7 | 0.00 | 0.00 | 0.00 | 55 | 1020.9 |
| 20260905233835 | 21 | 49 | 0.0 | 0.0 | 0.00 | 0.00 | 0.00 | 78 | 1019.5 |
| 20260905233822 | 25 | 234 | 8.0 | 14.5 | 0.00 | 0.00 | 0.00 | 59 | 1017.8 |
| 20260905233816 | 21 | 19 | 0.0 | 0.0 | 0.00 | 0.00 | 0.00 | 81 | 1055.4 |
| 20260905233813 | 15 | 89 | 6.4 | 24.1 | 0.28 | 6.99 | 0.00 | 79 | 1007.3 |
| 20260905233401 | 25 | 81 | 4.8 | 6.4 | 0.00 | 0.00 | 0.00 | 83 | 1019.2 |
| 20260905233351 | 22 | 17 | 6.4 | 14.5 | 0.00 | 0.00 | 0.00 | 67 | 1018.6 |
| 20260905233349 | 24 | 16 | 14.5 | 16.1 | 0.00 | 0.00 | 0.00 | 55 | 1020.9 |
| 20260905233329 | 23 | 106 | 0.0 | 0.0 | 0.00 | 0.00 | 0.00 | 90 | 1017.2 |
| 20260905233321 | 25 | 233 | 9.7 | 12.9 | 0.00 | 0.00 | 0.00 | 58 | 1017.8 |
| 20260905233313 | 16 | 72 | 8.0 | 29.0 | 0.25 | 6.99 | 0.00 | 78 | 1009.1 |
| 20260905233309 | 21 | 19 | 0.0 | 0.0 | 0.00 | 0.00 | 0.00 | 81 | 1055.4 |
| 20260905232901 | 25 | 65 | 3.2 | 12.9 | 0.00 | 0.00 | 0.00 | 83 | 1019.1 |
| 20260905232857 | 22 | 328 | 4.8 | 17.7 | 0.00 | 0.00 | 0.00 | 67 | 1018.6 |
| 20260905232855 | 24 | 0 | 1.6 | 17.7 | 0.00 | 0.00 | 0.00 | 55 | 1020.8 |
| 20260905232832 | 21 | 49 | 0.0 | 0.0 | 0.00 | 0.00 | 0.00 | 78 | 1019.4 |
| 20260905232817 | 25 | 227 | 6.4 | 12.9 | 0.00 | 0.00 | 0.00 | 59 | 1017.8 |
| 20260905232813 | 21 | 19 | 0.0 | 0.0 | 0.00 | 0.00 | 0.00 | 81 | 1055.5 |
| 20260905232410 | 25 | 84 | 6.4 | 12.9 | 0.00 | 0.00 | 0.00 | 83 | 1019.2 |
| 20260905232355 | 24 | 13 | 0.0 | 16.1 | 0.00 | 0.00 | 0.00 | 55 | 1020.7 |
| 20260905232348 | 22 | 325 | 3.2 | 16.1 | 0.00 | 0.00 | 0.00 | 67 | 1018.6 |
| 20260905232329 | 21 | 49 | 0.0 | 0.0 | 0.00 | 0.00 | 0.00 | 77 | 1019.4 |
| 20260905232323 | 25 | 230 | 11.3 | 11.3 | 0.00 | 0.00 | 0.00 | 59 | 1017.8 |
| 20260905232319 | 23 | 32 | 17.7 | 38.6 | 0.30 | 6.99 | 0.00 | 66 | 1019.8 |
| 20260905232309 | 21 | 19 | 0.0 | 0.0 | 0.00 | 0.00 | 0.00 | 81 | 1055.4 |
| 20260905231904 | 25 | 67 | 1.6 | 8.0 | 0.00 | 0.00 | 0.00 | 82 | 1019.1 |
| 20260905231853 | 24 | 355 | 0.0 | 17.7 | 0.00 | 0.00 | 0.00 | 55 | 1020.7 |
| 20260905231851 | 22 | 329 | 8.0 | 17.7 | 0.00 | 0.00 | 0.00 | 67 | 1018.6 |
| 20260905231832 | 21 | 49 | 0.0 | 0.0 | 0.00 | 0.00 | 0.00 | 77 | 1019.4 |
| 20260905231829 | 23 | 106 | 0.0 | 0.0 | 0.00 | 0.00 | 0.00 | 90 | 1017.2 |
| 20260905231817 | 26 | 238 | 8.0 | 11.3 | 0.00 | 0.00 | 0.00 | 56 | 1017.9 |
| 20260905231813 | 26 | 76 | 22.5 | 40.2 | 0.30 | 6.99 | 0.00 | 61 | 1024.3 |
| 20260905231401 | 25 | 67 | 3.2 | 6.4 | 0.00 | 0.00 | 0.00 | 82 | 1019.1 |
| 20260905231356 | 25 | 17 | 16.1 | 19.3 | 0.00 | 0.00 | 0.00 | 54 | 1020.7 |
| 20260905231351 | 22 | 10 | 12.9 | 16.1 | 0.00 | 0.00 | 0.00 | 68 | 1018.6 |
| 20260905231335 | 21 | 49 | 0.0 | 0.0 | 0.00 | 0.00 | 0.00 | 77 | 1019.4 |
| 20260905231323 | 26 | 237 | 8.0 | 9.7 | 0.00 | 0.00 | 0.00 | 54 | 1017.8 |
| 20260905231313 | 26 | 89 | 24.1 | 40.2 | 0.28 | 6.99 | 0.00 | 60 | 1025.5 |
| 20260905230901 | 25 | 86 | 4.8 | 8.0 | 0.00 | 0.00 | 0.00 | 82 | 1019.1 |
| 20260905230854 | 22 | 14 | 8.0 | 14.5 | 0.00 | 0.00 | 0.00 | 68 | 1018.6 |
| 20260905230849 | 25 | 344 | 9.7 | 12.9 | 0.00 | 0.00 | 0.00 | 54 | 1020.6 |
| 20260905230832 | 21 | 49 | 0.0 | 0.0 | 0.00 | 0.00 | 0.00 | 76 | 1019.3 |
| 20260905230820 | 26 | 237 | 9.7 | 11.3 | 0.00 | 0.00 | 0.00 | 54 | 1017.8 |
| 20260905230816 | 25 | 65 | 20.9 | 37.0 | 0.25 | 6.99 | 0.00 | 62 | 1023.0 |
| 20260905230809 | 21 | 19 | 0.0 | 1.6 | 0.00 | 0.00 | 0.00 | 80 | 1055.3 |
| 20260905230401 | 25 | 67 | 1.6 | 8.0 | 0.00 | 0.00 | 0.00 | 81 | 1019.0 |
| 20260905230352 | 25 | 26 | 0.0 | 14.5 | 0.00 | 0.00 | 0.00 | 55 | 1020.7 |
| 20260905230333 | 21 | 49 | 0.0 | 0.0 | 0.00 | 0.00 | 0.00 | 75 | 1019.3 |
| 20260905230329 | 23 | 106 | 0.0 | 0.0 | 0.00 | 0.00 | 0.00 | 89 | 1017.2 |
| 20260905230317 | 26 | 237 | 9.7 | 11.3 | 0.00 | 0.00 | 0.00 | 54 | 1017.9 |
| 20260905230309 | 21 | 19 | 0.0 | 0.0 | 0.00 | 0.00 | 0.00 | 80 | 1055.2 |
| 20260905225904 | 25 | 94 | 3.2 | 11.3 | 0.00 | 0.00 | 0.00 | 81 | 1019.0 |
| 20260905225851 | 22 | 347 | 9.7 | 16.1 | 0.00 | 0.00 | 0.00 | 69 | 1018.6 |
| 20260905225849 | 25 | 344 | 0.0 | 14.5 | 0.00 | 0.00 | 0.00 | 55 | 1020.6 |
| 20260905225832 | 22 | 49 | 0.0 | 0.0 | 0.00 | 0.00 | 0.00 | 76 | 1019.2 |
| 20260905225817 | 26 | 237 | 8.0 | 11.3 | 0.00 | 0.00 | 0.00 | 56 | 1017.9 |
| 20260905225815 | 22 | 19 | 0.0 | 0.0 | 0.00 | 0.00 | 0.00 | 80 | 1055.2 |
| 20260905225813 | 18 | 43 | 11.3 | 27.4 | 0.30 | 6.99 | 0.00 | 74 | 1012.1 |
| 20260905225401 | 25 | 67 | 6.4 | 6.4 | 0.00 | 0.00 | 0.00 | 81 | 1018.9 |
| 20260905225352 | 25 | 27 | 0.0 | 20.9 | 0.00 | 0.00 | 0.00 | 55 | 1020.4 |
| 20260905225348 | 22 | 309 | 4.8 | 12.9 | 0.00 | 0.00 | 0.00 | 70 | 1018.5 |
| 20260905225329 | 22 | 49 | 0.0 | 0.0 | 0.00 | 0.00 | 0.00 | 75 | 1019.2 |
| 20260905225322 | 16 | 82 | 8.0 | 24.1 | 0.30 | 6.99 | 0.00 | 79 | 1008.1 |
| 20260905225317 | 26 | 237 | 6.4 | 11.3 | 0.00 | 0.00 | 0.00 | 57 | 1017.9 |
| 20260905225310 | 22 | 19 | 0.0 | 0.0 | 0.00 | 0.00 | 0.00 | 80 | 1055.1 |
| 20260905224904 | 25 | 65 | 4.8 | 4.8 | 0.00 | 0.00 | 0.00 | 81 | 1018.8 |
| 20260905224851 | 22 | 5 | 8.0 | 12.9 | 0.00 | 0.00 | 0.00 | 70 | 1018.5 |
| 20260905224849 | 25 | 14 | 0.0 | 16.1 | 0.00 | 0.00 | 0.00 | 56 | 1020.4 |
| 20260905224835 | 22 | 49 | 0.0 | 0.0 | 0.00 | 0.00 | 0.00 | 74 | 1019.2 |
| 20260905224829 | 23 | 106 | 0.0 | 0.0 | 0.00 | 0.00 | 0.00 | 89 | 1017.2 |
| 20260905224821 | 26 | 237 | 8.0 | 9.7 | 0.00 | 0.00 | 0.00 | 58 | 1017.9 |
| 20260905224813 | 15 | 87 | 6.4 | 25.7 | 0.25 | 6.99 | 0.00 | 79 | 1007.6 |
| 20260905224404 | 25 | 78 | 3.2 | 6.4 | 0.00 | 0.00 | 0.00 | 81 | 1018.7 |
| 20260905224349 | 25 | 29 | 8.0 | 14.5 | 0.00 | 0.00 | 0.00 | 56 | 1020.4 |
| 20260905224329 | 22 | 49 | 0.0 | 0.0 | 0.00 | 0.00 | 0.00 | 74 | 1019.2 |
| 20260905224320 | 26 | 237 | 9.7 | 11.3 | 0.00 | 0.00 | 0.00 | 57 | 1017.9 |
| 20260905224312 | 21 | 19 | 0.0 | 0.0 | 0.00 | 0.00 | 0.00 | 80 | 1055.1 |
| 20260905223904 | 25 | 74 | 1.6 | 6.4 | 0.00 | 0.00 | 0.00 | 81 | 1018.7 |
| 20260905223850 | 25 | 19 | 1.6 | 17.7 | 0.00 | 0.00 | 0.00 | 57 | 1020.3 |
| 20260905223848 | 22 | 355 | 4.8 | 12.9 | 0.00 | 0.00 | 0.00 | 71 | 1018.5 |
| 20260905223835 | 22 | 49 | 0.0 | 0.0 | 0.00 | 0.00 | 0.00 | 73 | 1019.1 |
| 20260905223819 | 21 | 1 | 14.5 | 37.0 | 0.28 | 6.99 | 0.00 | 70 | 1016.3 |
| 20260905223817 | 26 | 237 | 9.7 | 11.3 | 0.00 | 0.00 | 0.00 | 57 | 1017.9 |
| 20260905223809 | 21 | 19 | 0.0 | 1.6 | 0.00 | 0.00 | 0.00 | 81 | 1055.0 |
| 20260905223401 | 25 | 82 | 1.6 | 6.4 | 0.00 | 0.00 | 0.00 | 81 | 1018.6 |
| 20260905223349 | 25 | 9 | 0.0 | 1.6 | 0.00 | 0.00 | 0.00 | 58 | 1020.2 |
| 20260905223340 | 23 | 106 | 0.0 | 0.0 | 0.00 | 0.00 | 0.00 | 88 | 1017.2 |
| 20260905223335 | 22 | 49 | 0.0 | 0.0 | 0.00 | 0.00 | 0.00 | 74 | 1019.0 |
| 20260905223320 | 26 | 237 | 8.0 | 11.3 | 0.00 | 0.00 | 0.00 | 58 | 1017.9 |
| 20260905223313 | 24 | 53 | 20.9 | 40.2 | 0.30 | 6.99 | 0.00 | 64 | 1021.9 |
| 20260905223309 | 21 | 19 | 0.0 | 1.6 | 0.00 | 0.00 | 0.00 | 81 | 1055.0 |
| 20260905222907 | 25 | 90 | 3.2 | 6.4 | 0.00 | 0.00 | 0.00 | 80 | 1018.5 |
| 20260905222849 | 25 | 355 | 0.0 | 17.7 | 0.00 | 0.00 | 0.00 | 57 | 1020.2 |
| 20260905222829 | 22 | 49 | 0.0 | 0.0 | 0.00 | 0.00 | 0.00 | 75 | 1018.9 |
| 20260905222822 | 26 | 86 | 24.1 | 40.2 | 0.30 | 6.99 | 0.00 | 60 | 1025.2 |
| 20260905222817 | 26 | 237 | 11.3 | 11.3 | 0.00 | 0.00 | 0.00 | 59 | 1018.0 |
| 20260905222812 | 21 | 19 | 0.0 | 3.2 | 0.00 | 0.00 | 0.00 | 80 | 1054.9 |
| 20260905222407 | 25 | 71 | 1.6 | 6.4 | 0.00 | 0.00 | 0.00 | 80 | 1018.7 |
| 20260905222356 | 25 | 26 | 12.9 | 16.1 | 0.00 | 0.00 | 0.00 | 57 | 1020.2 |
| 20260905222348 | 22 | 0 | 6.4 | 16.1 | 0.00 | 0.00 | 0.00 | 73 | 1018.5 |
| 20260905222329 | 22 | 49 | 0.0 | 0.0 | 0.00 | 0.00 | 0.00 | 76 | 1018.8 |
| 20260905222320 | 26 | 237 | 9.7 | 11.3 | 0.00 | 0.00 | 0.00 | 59 | 1018.0 |
| 20260905222309 | 22 | 17 | 0.0 | 0.0 | 0.00 | 0.00 | 0.00 | 79 | 1054.8 |
| 20260905221901 | 25 | 78 | 4.8 | 6.4 | 0.00 | 0.00 | 0.00 | 80 | 1018.6 |
| 20260905221852 | 25 | 22 | 0.0 | 12.9 | 0.00 | 0.00 | 0.00 | 57 | 1020.0 |
| 20260905221849 | 22 | 11 | 6.4 | 19.3 | 0.00 | 0.00 | 0.00 | 75 | 1018.4 |
| 20260905221833 | 23 | 106 | 0.0 | 0.0 | 0.00 | 0.00 | 0.00 | 87 | 1017.1 |
| 20260905221830 | 22 | 49 | 0.0 | 0.0 | 0.00 | 0.00 | 0.00 | 76 | 1018.8 |
| 20260905221819 | 23 | 46 | 19.3 | 35.4 | 0.25 | 6.99 | 0.00 | 64 | 1021.2 |
| 20260905221809 | 22 | 17 | 0.0 | 3.2 | 0.00 | 0.00 | 0.00 | 79 | 1054.8 |
| 20260905221401 | 26 | 74 | 4.8 | 9.7 | 0.00 | 0.00 | 0.00 | 79 | 1018.6 |
| 20260905221359 | 25 | 9 | 8.0 | 14.5 | 0.00 | 0.00 | 0.00 | 57 | 1020.0 |
| 20260905221351 | 22 | 27 | 9.7 | 19.3 | 0.00 | 0.00 | 0.00 | 76 | 1018.3 |
| 20260905221329 | 22 | 49 | 0.0 | 0.0 | 0.00 | 0.00 | 0.00 | 76 | 1018.8 |